<?xml version="1.0" encoding="UTF-8" standalone="no" ?>
<gpx xmlns="http://www.topografix.com/GPX/1/1" xmlns:xsi="http://www.w3.org/2001/XMLSchema-instance" xsi:schemaLocation="http://www.topografix.com/GPX/1/1 http://www.topografix.com/GPX/1/1/gpx.xsd" version="1.1" creator="VisuGPX - https://www.visugpx.com">
  <metadata>
    <name>Tour de Passy</name>
    <desc><![CDATA[Trace AlpineQuest 06/07/2020 07:21:28]]></desc>
  </metadata>
  <trk>
    <name><![CDATA[Tour de Passy_1]]></name>
    <trkseg>
      <trkpt lat="46.53771" lon="4.53363">
        <ele>239.6</ele>
        <time>2020-07-06T05:21:28Z</time>
      </trkpt>
      <trkpt lat="46.53775" lon="4.53354">
        <ele>237.6</ele>
        <time>2020-07-06T05:21:40Z</time>
      </trkpt>
      <trkpt lat="46.53771" lon="4.53344">
        <ele>235.6</ele>
        <time>2020-07-06T05:21:46Z</time>
      </trkpt>
      <trkpt lat="46.53766" lon="4.53336">
        <ele>235.6</ele>
        <time>2020-07-06T05:21:51Z</time>
      </trkpt>
      <trkpt lat="46.53764" lon="4.53326">
        <ele>238.6</ele>
        <time>2020-07-06T05:22:01Z</time>
      </trkpt>
      <trkpt lat="46.53758" lon="4.5332">
        <ele>240.6</ele>
        <time>2020-07-06T05:22:06Z</time>
      </trkpt>
      <trkpt lat="46.53761" lon="4.5333">
        <ele>239.6</ele>
        <time>2020-07-06T05:22:22Z</time>
      </trkpt>
      <trkpt lat="46.53763" lon="4.53339">
        <ele>237.6</ele>
        <time>2020-07-06T05:22:27Z</time>
      </trkpt>
      <trkpt lat="46.53764" lon="4.53349">
        <ele>235.6</ele>
        <time>2020-07-06T05:22:32Z</time>
      </trkpt>
      <trkpt lat="46.53766" lon="4.53359">
        <ele>237.6</ele>
        <time>2020-07-06T05:22:38Z</time>
      </trkpt>
      <trkpt lat="46.53773" lon="4.53363">
        <ele>237.6</ele>
        <time>2020-07-06T05:22:43Z</time>
      </trkpt>
      <trkpt lat="46.5378" lon="4.53365">
        <ele>239.6</ele>
        <time>2020-07-06T05:22:48Z</time>
      </trkpt>
      <trkpt lat="46.53786" lon="4.53366">
        <ele>238.6</ele>
        <time>2020-07-06T05:23:15Z</time>
      </trkpt>
      <trkpt lat="46.53775" lon="4.53365">
        <ele>238.6</ele>
        <time>2020-07-06T05:23:20Z</time>
      </trkpt>
      <trkpt lat="46.53768" lon="4.53362">
        <ele>240.6</ele>
        <time>2020-07-06T05:23:25Z</time>
      </trkpt>
      <trkpt lat="46.53762" lon="4.53354">
        <ele>239.6</ele>
        <time>2020-07-06T05:23:31Z</time>
      </trkpt>
      <trkpt lat="46.53765" lon="4.53344">
        <ele>240.6</ele>
        <time>2020-07-06T05:23:38Z</time>
      </trkpt>
      <trkpt lat="46.53764" lon="4.53333">
        <ele>237.6</ele>
        <time>2020-07-06T05:23:44Z</time>
      </trkpt>
      <trkpt lat="46.53757" lon="4.53323">
        <ele>239.6</ele>
        <time>2020-07-06T05:23:59Z</time>
      </trkpt>
      <trkpt lat="46.53751" lon="4.53327">
        <ele>240.6</ele>
        <time>2020-07-06T05:24:04Z</time>
      </trkpt>
      <trkpt lat="46.53742" lon="4.53321">
        <ele>241.6</ele>
        <time>2020-07-06T05:24:09Z</time>
      </trkpt>
      <trkpt lat="46.53735" lon="4.53321">
        <ele>238.6</ele>
        <time>2020-07-06T05:24:14Z</time>
      </trkpt>
      <trkpt lat="46.53726" lon="4.53317">
        <ele>237.6</ele>
        <time>2020-07-06T05:24:19Z</time>
      </trkpt>
      <trkpt lat="46.53717" lon="4.53316">
        <ele>237.6</ele>
        <time>2020-07-06T05:24:24Z</time>
      </trkpt>
      <trkpt lat="46.5371" lon="4.53322">
        <ele>238.6</ele>
        <time>2020-07-06T05:24:29Z</time>
      </trkpt>
      <trkpt lat="46.53704" lon="4.5332">
        <ele>240.6</ele>
        <time>2020-07-06T05:24:35Z</time>
      </trkpt>
      <trkpt lat="46.53693" lon="4.53314">
        <ele>238.6</ele>
        <time>2020-07-06T05:24:40Z</time>
      </trkpt>
      <trkpt lat="46.53687" lon="4.53317">
        <ele>240.6</ele>
        <time>2020-07-06T05:24:45Z</time>
      </trkpt>
      <trkpt lat="46.53677" lon="4.53305">
        <ele>239.6</ele>
        <time>2020-07-06T05:24:50Z</time>
      </trkpt>
      <trkpt lat="46.5367" lon="4.533">
        <ele>244.6</ele>
        <time>2020-07-06T05:24:55Z</time>
      </trkpt>
      <trkpt lat="46.5366" lon="4.53285">
        <ele>243.6</ele>
        <time>2020-07-06T05:25:00Z</time>
      </trkpt>
      <trkpt lat="46.53652" lon="4.53286">
        <ele>241.6</ele>
        <time>2020-07-06T05:25:05Z</time>
      </trkpt>
      <trkpt lat="46.53645" lon="4.53286">
        <ele>242.6</ele>
        <time>2020-07-06T05:25:12Z</time>
      </trkpt>
      <trkpt lat="46.53638" lon="4.53284">
        <ele>237.6</ele>
        <time>2020-07-06T05:25:18Z</time>
      </trkpt>
      <trkpt lat="46.53631" lon="4.53282">
        <ele>241.6</ele>
        <time>2020-07-06T05:25:25Z</time>
      </trkpt>
      <trkpt lat="46.53625" lon="4.5328">
        <ele>243.6</ele>
        <time>2020-07-06T05:25:32Z</time>
      </trkpt>
      <trkpt lat="46.53618" lon="4.53273">
        <ele>244.6</ele>
        <time>2020-07-06T05:25:37Z</time>
      </trkpt>
      <trkpt lat="46.5361" lon="4.53265">
        <ele>243.6</ele>
        <time>2020-07-06T05:25:42Z</time>
      </trkpt>
      <trkpt lat="46.53604" lon="4.53259">
        <ele>238.6</ele>
        <time>2020-07-06T05:25:47Z</time>
      </trkpt>
      <trkpt lat="46.53596" lon="4.53252">
        <ele>240.6</ele>
        <time>2020-07-06T05:25:52Z</time>
      </trkpt>
      <trkpt lat="46.5359" lon="4.53253">
        <ele>238.6</ele>
        <time>2020-07-06T05:25:59Z</time>
      </trkpt>
      <trkpt lat="46.53581" lon="4.53247">
        <ele>238.6</ele>
        <time>2020-07-06T05:26:04Z</time>
      </trkpt>
      <trkpt lat="46.53573" lon="4.53245">
        <ele>236.6</ele>
        <time>2020-07-06T05:26:13Z</time>
      </trkpt>
      <trkpt lat="46.53566" lon="4.53237">
        <ele>239.6</ele>
        <time>2020-07-06T05:26:18Z</time>
      </trkpt>
      <trkpt lat="46.53559" lon="4.53238">
        <ele>239.6</ele>
        <time>2020-07-06T05:26:24Z</time>
      </trkpt>
      <trkpt lat="46.53552" lon="4.53234">
        <ele>236.6</ele>
        <time>2020-07-06T05:26:30Z</time>
      </trkpt>
      <trkpt lat="46.53543" lon="4.53224">
        <ele>239.6</ele>
        <time>2020-07-06T05:26:35Z</time>
      </trkpt>
      <trkpt lat="46.53535" lon="4.53217">
        <ele>239.6</ele>
        <time>2020-07-06T05:26:40Z</time>
      </trkpt>
      <trkpt lat="46.53529" lon="4.53211">
        <ele>241.6</ele>
        <time>2020-07-06T05:26:45Z</time>
      </trkpt>
      <trkpt lat="46.53524" lon="4.53201">
        <ele>241.6</ele>
        <time>2020-07-06T05:26:50Z</time>
      </trkpt>
      <trkpt lat="46.53515" lon="4.5319">
        <ele>244.6</ele>
        <time>2020-07-06T05:26:55Z</time>
      </trkpt>
      <trkpt lat="46.53508" lon="4.53188">
        <ele>241.599</ele>
        <time>2020-07-06T05:27:01Z</time>
      </trkpt>
      <trkpt lat="46.535" lon="4.53185">
        <ele>240.599</ele>
        <time>2020-07-06T05:27:08Z</time>
      </trkpt>
      <trkpt lat="46.53493" lon="4.53179">
        <ele>238.599</ele>
        <time>2020-07-06T05:27:13Z</time>
      </trkpt>
      <trkpt lat="46.53484" lon="4.53171">
        <ele>239.599</ele>
        <time>2020-07-06T05:27:18Z</time>
      </trkpt>
      <trkpt lat="46.53476" lon="4.53167">
        <ele>241.599</ele>
        <time>2020-07-06T05:27:23Z</time>
      </trkpt>
      <trkpt lat="46.5347" lon="4.53164">
        <ele>242.599</ele>
        <time>2020-07-06T05:27:28Z</time>
      </trkpt>
      <trkpt lat="46.53465" lon="4.53158">
        <ele>244.599</ele>
        <time>2020-07-06T05:27:33Z</time>
      </trkpt>
      <trkpt lat="46.53457" lon="4.5315">
        <ele>243.599</ele>
        <time>2020-07-06T05:27:38Z</time>
      </trkpt>
      <trkpt lat="46.53448" lon="4.5315">
        <ele>245.599</ele>
        <time>2020-07-06T05:27:43Z</time>
      </trkpt>
      <trkpt lat="46.5344" lon="4.53148">
        <ele>244.599</ele>
        <time>2020-07-06T05:27:49Z</time>
      </trkpt>
      <trkpt lat="46.53433" lon="4.53138">
        <ele>241.599</ele>
        <time>2020-07-06T05:27:54Z</time>
      </trkpt>
      <trkpt lat="46.53426" lon="4.53138">
        <ele>242.599</ele>
        <time>2020-07-06T05:28:01Z</time>
      </trkpt>
      <trkpt lat="46.5342" lon="4.53132">
        <ele>244.599</ele>
        <time>2020-07-06T05:28:07Z</time>
      </trkpt>
      <trkpt lat="46.53414" lon="4.53123">
        <ele>245.599</ele>
        <time>2020-07-06T05:28:12Z</time>
      </trkpt>
      <trkpt lat="46.53409" lon="4.53115">
        <ele>246.599</ele>
        <time>2020-07-06T05:28:18Z</time>
      </trkpt>
      <trkpt lat="46.53405" lon="4.53107">
        <ele>246.599</ele>
        <time>2020-07-06T05:28:24Z</time>
      </trkpt>
      <trkpt lat="46.53405" lon="4.53097">
        <ele>245.599</ele>
        <time>2020-07-06T05:28:29Z</time>
      </trkpt>
      <trkpt lat="46.53402" lon="4.53089">
        <ele>244.599</ele>
        <time>2020-07-06T05:28:35Z</time>
      </trkpt>
      <trkpt lat="46.53398" lon="4.53079">
        <ele>244.599</ele>
        <time>2020-07-06T05:28:40Z</time>
      </trkpt>
      <trkpt lat="46.53396" lon="4.5307">
        <ele>245.599</ele>
        <time>2020-07-06T05:28:45Z</time>
      </trkpt>
      <trkpt lat="46.53397" lon="4.53057">
        <ele>247.599</ele>
        <time>2020-07-06T05:28:54Z</time>
      </trkpt>
      <trkpt lat="46.53395" lon="4.5304">
        <ele>248.599</ele>
        <time>2020-07-06T05:28:59Z</time>
      </trkpt>
      <trkpt lat="46.53396" lon="4.53029">
        <ele>252.599</ele>
        <time>2020-07-06T05:29:05Z</time>
      </trkpt>
      <trkpt lat="46.53394" lon="4.5302">
        <ele>251.599</ele>
        <time>2020-07-06T05:29:11Z</time>
      </trkpt>
      <trkpt lat="46.53394" lon="4.53008">
        <ele>251.599</ele>
        <time>2020-07-06T05:29:16Z</time>
      </trkpt>
      <trkpt lat="46.53392" lon="4.52998">
        <ele>251.599</ele>
        <time>2020-07-06T05:29:22Z</time>
      </trkpt>
      <trkpt lat="46.53389" lon="4.52986">
        <ele>253.599</ele>
        <time>2020-07-06T05:29:27Z</time>
      </trkpt>
      <trkpt lat="46.53383" lon="4.52981">
        <ele>252.599</ele>
        <time>2020-07-06T05:29:33Z</time>
      </trkpt>
      <trkpt lat="46.53378" lon="4.52971">
        <ele>250.599</ele>
        <time>2020-07-06T05:29:38Z</time>
      </trkpt>
      <trkpt lat="46.53377" lon="4.52959">
        <ele>252.599</ele>
        <time>2020-07-06T05:29:43Z</time>
      </trkpt>
      <trkpt lat="46.53371" lon="4.52948">
        <ele>251.599</ele>
        <time>2020-07-06T05:29:48Z</time>
      </trkpt>
      <trkpt lat="46.53368" lon="4.52938">
        <ele>251.599</ele>
        <time>2020-07-06T05:29:53Z</time>
      </trkpt>
      <trkpt lat="46.53364" lon="4.52931">
        <ele>251.599</ele>
        <time>2020-07-06T05:29:58Z</time>
      </trkpt>
      <trkpt lat="46.53359" lon="4.52924">
        <ele>250.599</ele>
        <time>2020-07-06T05:30:06Z</time>
      </trkpt>
      <trkpt lat="46.53353" lon="4.52918">
        <ele>248.599</ele>
        <time>2020-07-06T05:30:11Z</time>
      </trkpt>
      <trkpt lat="46.53349" lon="4.5291">
        <ele>247.599</ele>
        <time>2020-07-06T05:30:18Z</time>
      </trkpt>
      <trkpt lat="46.53345" lon="4.52898">
        <ele>244.599</ele>
        <time>2020-07-06T05:30:23Z</time>
      </trkpt>
      <trkpt lat="46.53339" lon="4.52877">
        <ele>245.599</ele>
        <time>2020-07-06T05:30:28Z</time>
      </trkpt>
      <trkpt lat="46.53338" lon="4.52861">
        <ele>249.599</ele>
        <time>2020-07-06T05:30:33Z</time>
      </trkpt>
      <trkpt lat="46.53334" lon="4.52851">
        <ele>250.599</ele>
        <time>2020-07-06T05:30:40Z</time>
      </trkpt>
      <trkpt lat="46.53328" lon="4.52844">
        <ele>250.599</ele>
        <time>2020-07-06T05:30:45Z</time>
      </trkpt>
      <trkpt lat="46.53324" lon="4.52835">
        <ele>251.599</ele>
        <time>2020-07-06T05:30:50Z</time>
      </trkpt>
      <trkpt lat="46.53319" lon="4.52829">
        <ele>251.599</ele>
        <time>2020-07-06T05:30:55Z</time>
      </trkpt>
      <trkpt lat="46.53311" lon="4.52823">
        <ele>252.599</ele>
        <time>2020-07-06T05:31:00Z</time>
      </trkpt>
      <trkpt lat="46.53302" lon="4.52814">
        <ele>249.599</ele>
        <time>2020-07-06T05:31:05Z</time>
      </trkpt>
      <trkpt lat="46.53297" lon="4.52806">
        <ele>249.599</ele>
        <time>2020-07-06T05:31:10Z</time>
      </trkpt>
      <trkpt lat="46.53291" lon="4.52796">
        <ele>251.599</ele>
        <time>2020-07-06T05:31:15Z</time>
      </trkpt>
      <trkpt lat="46.53283" lon="4.52794">
        <ele>249.599</ele>
        <time>2020-07-06T05:31:21Z</time>
      </trkpt>
      <trkpt lat="46.53274" lon="4.52791">
        <ele>247.599</ele>
        <time>2020-07-06T05:31:26Z</time>
      </trkpt>
      <trkpt lat="46.53268" lon="4.52789">
        <ele>246.599</ele>
        <time>2020-07-06T05:31:32Z</time>
      </trkpt>
      <trkpt lat="46.53264" lon="4.52781">
        <ele>248.599</ele>
        <time>2020-07-06T05:31:37Z</time>
      </trkpt>
      <trkpt lat="46.53256" lon="4.52774">
        <ele>252.598</ele>
        <time>2020-07-06T05:31:42Z</time>
      </trkpt>
      <trkpt lat="46.53248" lon="4.52767">
        <ele>253.598</ele>
        <time>2020-07-06T05:31:47Z</time>
      </trkpt>
      <trkpt lat="46.53241" lon="4.52763">
        <ele>252.598</ele>
        <time>2020-07-06T05:31:52Z</time>
      </trkpt>
      <trkpt lat="46.53234" lon="4.52755">
        <ele>250.598</ele>
        <time>2020-07-06T05:31:57Z</time>
      </trkpt>
      <trkpt lat="46.5323" lon="4.52748">
        <ele>250.598</ele>
        <time>2020-07-06T05:32:02Z</time>
      </trkpt>
      <trkpt lat="46.53223" lon="4.52741">
        <ele>251.598</ele>
        <time>2020-07-06T05:32:07Z</time>
      </trkpt>
      <trkpt lat="46.53222" lon="4.52731">
        <ele>251.598</ele>
        <time>2020-07-06T05:32:12Z</time>
      </trkpt>
      <trkpt lat="46.53228" lon="4.52724">
        <ele>248.598</ele>
        <time>2020-07-06T05:32:18Z</time>
      </trkpt>
      <trkpt lat="46.53231" lon="4.52714">
        <ele>250.598</ele>
        <time>2020-07-06T05:32:23Z</time>
      </trkpt>
      <trkpt lat="46.53232" lon="4.52704">
        <ele>251.598</ele>
        <time>2020-07-06T05:32:29Z</time>
      </trkpt>
      <trkpt lat="46.53232" lon="4.52693">
        <ele>254.598</ele>
        <time>2020-07-06T05:32:35Z</time>
      </trkpt>
      <trkpt lat="46.5323" lon="4.52684">
        <ele>254.598</ele>
        <time>2020-07-06T05:32:40Z</time>
      </trkpt>
      <trkpt lat="46.5323" lon="4.52673">
        <ele>255.598</ele>
        <time>2020-07-06T05:32:45Z</time>
      </trkpt>
      <trkpt lat="46.5323" lon="4.5266">
        <ele>252.598</ele>
        <time>2020-07-06T05:32:50Z</time>
      </trkpt>
      <trkpt lat="46.53228" lon="4.52651">
        <ele>254.598</ele>
        <time>2020-07-06T05:32:55Z</time>
      </trkpt>
      <trkpt lat="46.53227" lon="4.52641">
        <ele>253.598</ele>
        <time>2020-07-06T05:33:00Z</time>
      </trkpt>
      <trkpt lat="46.53227" lon="4.52631">
        <ele>250.598</ele>
        <time>2020-07-06T05:33:07Z</time>
      </trkpt>
      <trkpt lat="46.53227" lon="4.52621">
        <ele>253.598</ele>
        <time>2020-07-06T05:33:17Z</time>
      </trkpt>
      <trkpt lat="46.53227" lon="4.52607">
        <ele>252.598</ele>
        <time>2020-07-06T05:33:22Z</time>
      </trkpt>
      <trkpt lat="46.53227" lon="4.52591">
        <ele>249.598</ele>
        <time>2020-07-06T05:33:27Z</time>
      </trkpt>
      <trkpt lat="46.53224" lon="4.52574">
        <ele>247.598</ele>
        <time>2020-07-06T05:33:32Z</time>
      </trkpt>
      <trkpt lat="46.53224" lon="4.52563">
        <ele>250.598</ele>
        <time>2020-07-06T05:33:37Z</time>
      </trkpt>
      <trkpt lat="46.53225" lon="4.52553">
        <ele>249.598</ele>
        <time>2020-07-06T05:33:43Z</time>
      </trkpt>
      <trkpt lat="46.53226" lon="4.52542">
        <ele>249.598</ele>
        <time>2020-07-06T05:33:48Z</time>
      </trkpt>
      <trkpt lat="46.53226" lon="4.5253">
        <ele>248.598</ele>
        <time>2020-07-06T05:33:53Z</time>
      </trkpt>
      <trkpt lat="46.53229" lon="4.5252">
        <ele>251.598</ele>
        <time>2020-07-06T05:34:00Z</time>
      </trkpt>
      <trkpt lat="46.53235" lon="4.52513">
        <ele>251.598</ele>
        <time>2020-07-06T05:34:05Z</time>
      </trkpt>
      <trkpt lat="46.53245" lon="4.5251">
        <ele>255.598</ele>
        <time>2020-07-06T05:34:10Z</time>
      </trkpt>
      <trkpt lat="46.53252" lon="4.52507">
        <ele>259.598</ele>
        <time>2020-07-06T05:34:15Z</time>
      </trkpt>
      <trkpt lat="46.53258" lon="4.52502">
        <ele>255.598</ele>
        <time>2020-07-06T05:34:23Z</time>
      </trkpt>
      <trkpt lat="46.53264" lon="4.52497">
        <ele>252.598</ele>
        <time>2020-07-06T05:34:29Z</time>
      </trkpt>
      <trkpt lat="46.53271" lon="4.52487">
        <ele>252.598</ele>
        <time>2020-07-06T05:34:34Z</time>
      </trkpt>
      <trkpt lat="46.53277" lon="4.52482">
        <ele>252.598</ele>
        <time>2020-07-06T05:34:39Z</time>
      </trkpt>
      <trkpt lat="46.53281" lon="4.52474">
        <ele>253.598</ele>
        <time>2020-07-06T05:34:44Z</time>
      </trkpt>
      <trkpt lat="46.53286" lon="4.52465">
        <ele>253.598</ele>
        <time>2020-07-06T05:34:50Z</time>
      </trkpt>
      <trkpt lat="46.53289" lon="4.52455">
        <ele>252.598</ele>
        <time>2020-07-06T05:34:55Z</time>
      </trkpt>
      <trkpt lat="46.53289" lon="4.52445">
        <ele>251.598</ele>
        <time>2020-07-06T05:35:00Z</time>
      </trkpt>
      <trkpt lat="46.53285" lon="4.52435">
        <ele>250.598</ele>
        <time>2020-07-06T05:35:05Z</time>
      </trkpt>
      <trkpt lat="46.53289" lon="4.52421">
        <ele>250.598</ele>
        <time>2020-07-06T05:35:10Z</time>
      </trkpt>
      <trkpt lat="46.53289" lon="4.52408">
        <ele>246.598</ele>
        <time>2020-07-06T05:35:15Z</time>
      </trkpt>
      <trkpt lat="46.53293" lon="4.52397">
        <ele>248.598</ele>
        <time>2020-07-06T05:35:20Z</time>
      </trkpt>
      <trkpt lat="46.53295" lon="4.52386">
        <ele>254.598</ele>
        <time>2020-07-06T05:35:28Z</time>
      </trkpt>
      <trkpt lat="46.53297" lon="4.52375">
        <ele>255.598</ele>
        <time>2020-07-06T05:35:33Z</time>
      </trkpt>
      <trkpt lat="46.53299" lon="4.52364">
        <ele>255.598</ele>
        <time>2020-07-06T05:35:38Z</time>
      </trkpt>
      <trkpt lat="46.53301" lon="4.52352">
        <ele>254.598</ele>
        <time>2020-07-06T05:35:43Z</time>
      </trkpt>
      <trkpt lat="46.53307" lon="4.52338">
        <ele>254.598</ele>
        <time>2020-07-06T05:35:48Z</time>
      </trkpt>
      <trkpt lat="46.53301" lon="4.5233">
        <ele>253.598</ele>
        <time>2020-07-06T05:35:53Z</time>
      </trkpt>
      <trkpt lat="46.53297" lon="4.52321">
        <ele>258.598</ele>
        <time>2020-07-06T05:36:02Z</time>
      </trkpt>
      <trkpt lat="46.5329" lon="4.52317">
        <ele>257.598</ele>
        <time>2020-07-06T05:36:11Z</time>
      </trkpt>
      <trkpt lat="46.53283" lon="4.52312">
        <ele>259.598</ele>
        <time>2020-07-06T05:36:18Z</time>
      </trkpt>
      <trkpt lat="46.53274" lon="4.52308">
        <ele>258.598</ele>
        <time>2020-07-06T05:36:23Z</time>
      </trkpt>
      <trkpt lat="46.53268" lon="4.52302">
        <ele>259.598</ele>
        <time>2020-07-06T05:36:32Z</time>
      </trkpt>
      <trkpt lat="46.53262" lon="4.52298">
        <ele>257.598</ele>
        <time>2020-07-06T05:36:37Z</time>
      </trkpt>
      <trkpt lat="46.53255" lon="4.52293">
        <ele>256.598</ele>
        <time>2020-07-06T05:36:43Z</time>
      </trkpt>
      <trkpt lat="46.53248" lon="4.52282">
        <ele>256.598</ele>
        <time>2020-07-06T05:36:48Z</time>
      </trkpt>
      <trkpt lat="46.53243" lon="4.52276">
        <ele>258.598</ele>
        <time>2020-07-06T05:36:54Z</time>
      </trkpt>
      <trkpt lat="46.53236" lon="4.52269">
        <ele>255.598</ele>
        <time>2020-07-06T05:37:01Z</time>
      </trkpt>
      <trkpt lat="46.53232" lon="4.52262">
        <ele>254.598</ele>
        <time>2020-07-06T05:37:09Z</time>
      </trkpt>
      <trkpt lat="46.53224" lon="4.52257">
        <ele>254.598</ele>
        <time>2020-07-06T05:37:17Z</time>
      </trkpt>
      <trkpt lat="46.53215" lon="4.5225">
        <ele>254.598</ele>
        <time>2020-07-06T05:37:22Z</time>
      </trkpt>
      <trkpt lat="46.53208" lon="4.52244">
        <ele>254.598</ele>
        <time>2020-07-06T05:37:27Z</time>
      </trkpt>
      <trkpt lat="46.532" lon="4.52238">
        <ele>254.598</ele>
        <time>2020-07-06T05:37:32Z</time>
      </trkpt>
      <trkpt lat="46.53189" lon="4.52229">
        <ele>256.598</ele>
        <time>2020-07-06T05:37:37Z</time>
      </trkpt>
      <trkpt lat="46.5318" lon="4.52223">
        <ele>253.598</ele>
        <time>2020-07-06T05:37:43Z</time>
      </trkpt>
      <trkpt lat="46.53175" lon="4.52217">
        <ele>255.598</ele>
        <time>2020-07-06T05:37:49Z</time>
      </trkpt>
      <trkpt lat="46.53169" lon="4.5221">
        <ele>261.598</ele>
        <time>2020-07-06T05:37:56Z</time>
      </trkpt>
      <trkpt lat="46.53164" lon="4.52204">
        <ele>259.598</ele>
        <time>2020-07-06T05:38:02Z</time>
      </trkpt>
      <trkpt lat="46.53158" lon="4.52198">
        <ele>255.598</ele>
        <time>2020-07-06T05:38:09Z</time>
      </trkpt>
      <trkpt lat="46.53154" lon="4.52189">
        <ele>256.598</ele>
        <time>2020-07-06T05:38:14Z</time>
      </trkpt>
      <trkpt lat="46.5315" lon="4.52178">
        <ele>255.598</ele>
        <time>2020-07-06T05:38:19Z</time>
      </trkpt>
      <trkpt lat="46.53148" lon="4.52164">
        <ele>257.598</ele>
        <time>2020-07-06T05:38:24Z</time>
      </trkpt>
      <trkpt lat="46.53147" lon="4.52146">
        <ele>260.598</ele>
        <time>2020-07-06T05:38:29Z</time>
      </trkpt>
      <trkpt lat="46.53146" lon="4.52137">
        <ele>260.598</ele>
        <time>2020-07-06T05:38:39Z</time>
      </trkpt>
      <trkpt lat="46.53144" lon="4.52127">
        <ele>257.598</ele>
        <time>2020-07-06T05:38:50Z</time>
      </trkpt>
      <trkpt lat="46.53142" lon="4.52117">
        <ele>259.598</ele>
        <time>2020-07-06T05:38:56Z</time>
      </trkpt>
      <trkpt lat="46.5314" lon="4.52101">
        <ele>259.598</ele>
        <time>2020-07-06T05:39:01Z</time>
      </trkpt>
      <trkpt lat="46.53139" lon="4.52089">
        <ele>261.598</ele>
        <time>2020-07-06T05:39:07Z</time>
      </trkpt>
      <trkpt lat="46.53136" lon="4.52076">
        <ele>257.598</ele>
        <time>2020-07-06T05:39:12Z</time>
      </trkpt>
      <trkpt lat="46.53137" lon="4.52063">
        <ele>257.598</ele>
        <time>2020-07-06T05:39:17Z</time>
      </trkpt>
      <trkpt lat="46.5314" lon="4.52054">
        <ele>260.598</ele>
        <time>2020-07-06T05:39:22Z</time>
      </trkpt>
      <trkpt lat="46.53139" lon="4.52041">
        <ele>258.598</ele>
        <time>2020-07-06T05:39:27Z</time>
      </trkpt>
      <trkpt lat="46.53139" lon="4.52025">
        <ele>259.598</ele>
        <time>2020-07-06T05:39:32Z</time>
      </trkpt>
      <trkpt lat="46.53135" lon="4.52014">
        <ele>259.598</ele>
        <time>2020-07-06T05:39:37Z</time>
      </trkpt>
      <trkpt lat="46.53134" lon="4.52003">
        <ele>261.598</ele>
        <time>2020-07-06T05:39:42Z</time>
      </trkpt>
      <trkpt lat="46.53132" lon="4.51992">
        <ele>264.598</ele>
        <time>2020-07-06T05:39:50Z</time>
      </trkpt>
      <trkpt lat="46.53132" lon="4.51981">
        <ele>262.598</ele>
        <time>2020-07-06T05:40:02Z</time>
      </trkpt>
      <trkpt lat="46.53137" lon="4.51967">
        <ele>265.598</ele>
        <time>2020-07-06T05:40:07Z</time>
      </trkpt>
      <trkpt lat="46.53137" lon="4.51956">
        <ele>267.598</ele>
        <time>2020-07-06T05:40:13Z</time>
      </trkpt>
      <trkpt lat="46.53135" lon="4.51944">
        <ele>265.598</ele>
        <time>2020-07-06T05:40:18Z</time>
      </trkpt>
      <trkpt lat="46.53137" lon="4.51927">
        <ele>268.598</ele>
        <time>2020-07-06T05:40:23Z</time>
      </trkpt>
      <trkpt lat="46.53134" lon="4.51917">
        <ele>268.598</ele>
        <time>2020-07-06T05:40:28Z</time>
      </trkpt>
      <trkpt lat="46.53133" lon="4.51906">
        <ele>270.598</ele>
        <time>2020-07-06T05:40:33Z</time>
      </trkpt>
      <trkpt lat="46.53123" lon="4.51897">
        <ele>270.597</ele>
        <time>2020-07-06T05:40:38Z</time>
      </trkpt>
      <trkpt lat="46.5312" lon="4.51886">
        <ele>269.597</ele>
        <time>2020-07-06T05:40:43Z</time>
      </trkpt>
      <trkpt lat="46.53118" lon="4.51874">
        <ele>269.597</ele>
        <time>2020-07-06T05:40:48Z</time>
      </trkpt>
      <trkpt lat="46.53118" lon="4.51859">
        <ele>269.597</ele>
        <time>2020-07-06T05:40:53Z</time>
      </trkpt>
      <trkpt lat="46.53116" lon="4.51848">
        <ele>268.597</ele>
        <time>2020-07-06T05:40:58Z</time>
      </trkpt>
      <trkpt lat="46.53118" lon="4.51836">
        <ele>268.597</ele>
        <time>2020-07-06T05:41:04Z</time>
      </trkpt>
      <trkpt lat="46.53119" lon="4.51826">
        <ele>269.597</ele>
        <time>2020-07-06T05:41:09Z</time>
      </trkpt>
      <trkpt lat="46.53113" lon="4.51818">
        <ele>268.597</ele>
        <time>2020-07-06T05:41:14Z</time>
      </trkpt>
      <trkpt lat="46.53111" lon="4.51809">
        <ele>269.597</ele>
        <time>2020-07-06T05:41:20Z</time>
      </trkpt>
      <trkpt lat="46.53117" lon="4.51801">
        <ele>268.597</ele>
        <time>2020-07-06T05:41:25Z</time>
      </trkpt>
      <trkpt lat="46.53121" lon="4.51793">
        <ele>268.597</ele>
        <time>2020-07-06T05:41:30Z</time>
      </trkpt>
      <trkpt lat="46.53128" lon="4.51786">
        <ele>272.597</ele>
        <time>2020-07-06T05:41:35Z</time>
      </trkpt>
      <trkpt lat="46.53134" lon="4.5178">
        <ele>270.597</ele>
        <time>2020-07-06T05:41:44Z</time>
      </trkpt>
      <trkpt lat="46.53141" lon="4.51774">
        <ele>269.597</ele>
        <time>2020-07-06T05:41:49Z</time>
      </trkpt>
      <trkpt lat="46.53146" lon="4.51768">
        <ele>269.597</ele>
        <time>2020-07-06T05:41:58Z</time>
      </trkpt>
      <trkpt lat="46.53152" lon="4.51761">
        <ele>268.597</ele>
        <time>2020-07-06T05:42:06Z</time>
      </trkpt>
      <trkpt lat="46.53158" lon="4.51756">
        <ele>271.597</ele>
        <time>2020-07-06T05:42:11Z</time>
      </trkpt>
      <trkpt lat="46.53165" lon="4.51753">
        <ele>273.597</ele>
        <time>2020-07-06T05:42:18Z</time>
      </trkpt>
      <trkpt lat="46.53171" lon="4.51748">
        <ele>274.598</ele>
        <time>2020-07-06T05:42:23Z</time>
      </trkpt>
      <trkpt lat="46.53178" lon="4.51747">
        <ele>276.598</ele>
        <time>2020-07-06T05:42:29Z</time>
      </trkpt>
      <trkpt lat="46.53185" lon="4.51749">
        <ele>276.598</ele>
        <time>2020-07-06T05:42:35Z</time>
      </trkpt>
      <trkpt lat="46.53192" lon="4.51747">
        <ele>276.598</ele>
        <time>2020-07-06T05:42:40Z</time>
      </trkpt>
      <trkpt lat="46.53199" lon="4.51747">
        <ele>276.598</ele>
        <time>2020-07-06T05:42:45Z</time>
      </trkpt>
      <trkpt lat="46.53206" lon="4.51752">
        <ele>277.598</ele>
        <time>2020-07-06T05:42:50Z</time>
      </trkpt>
      <trkpt lat="46.53214" lon="4.51754">
        <ele>278.598</ele>
        <time>2020-07-06T05:42:55Z</time>
      </trkpt>
      <trkpt lat="46.53222" lon="4.51752">
        <ele>278.598</ele>
        <time>2020-07-06T05:43:00Z</time>
      </trkpt>
      <trkpt lat="46.5323" lon="4.51752">
        <ele>283.598</ele>
        <time>2020-07-06T05:43:07Z</time>
      </trkpt>
      <trkpt lat="46.53236" lon="4.51755">
        <ele>285.598</ele>
        <time>2020-07-06T05:43:12Z</time>
      </trkpt>
      <trkpt lat="46.53243" lon="4.51756">
        <ele>285.598</ele>
        <time>2020-07-06T05:43:17Z</time>
      </trkpt>
      <trkpt lat="46.53249" lon="4.51751">
        <ele>284.598</ele>
        <time>2020-07-06T05:43:22Z</time>
      </trkpt>
      <trkpt lat="46.53256" lon="4.51744">
        <ele>288.598</ele>
        <time>2020-07-06T05:43:27Z</time>
      </trkpt>
      <trkpt lat="46.53263" lon="4.51744">
        <ele>287.598</ele>
        <time>2020-07-06T05:43:34Z</time>
      </trkpt>
      <trkpt lat="46.53271" lon="4.51743">
        <ele>288.598</ele>
        <time>2020-07-06T05:43:39Z</time>
      </trkpt>
      <trkpt lat="46.53277" lon="4.51741">
        <ele>286.598</ele>
        <time>2020-07-06T05:43:44Z</time>
      </trkpt>
      <trkpt lat="46.53283" lon="4.51736">
        <ele>282.598</ele>
        <time>2020-07-06T05:43:50Z</time>
      </trkpt>
      <trkpt lat="46.53289" lon="4.51736">
        <ele>284.598</ele>
        <time>2020-07-06T05:43:55Z</time>
      </trkpt>
      <trkpt lat="46.53296" lon="4.51735">
        <ele>284.598</ele>
        <time>2020-07-06T05:44:00Z</time>
      </trkpt>
      <trkpt lat="46.53303" lon="4.51722">
        <ele>276.598</ele>
        <time>2020-07-06T05:44:05Z</time>
      </trkpt>
      <trkpt lat="46.53312" lon="4.51718">
        <ele>277.598</ele>
        <time>2020-07-06T05:44:10Z</time>
      </trkpt>
      <trkpt lat="46.53318" lon="4.5171">
        <ele>280.598</ele>
        <time>2020-07-06T05:44:16Z</time>
      </trkpt>
      <trkpt lat="46.53325" lon="4.51706">
        <ele>284.598</ele>
        <time>2020-07-06T05:44:24Z</time>
      </trkpt>
      <trkpt lat="46.5333" lon="4.51696">
        <ele>281.598</ele>
        <time>2020-07-06T05:44:29Z</time>
      </trkpt>
      <trkpt lat="46.53336" lon="4.51693">
        <ele>280.598</ele>
        <time>2020-07-06T05:44:34Z</time>
      </trkpt>
      <trkpt lat="46.53341" lon="4.5168">
        <ele>275.598</ele>
        <time>2020-07-06T05:44:39Z</time>
      </trkpt>
      <trkpt lat="46.53348" lon="4.51673">
        <ele>274.598</ele>
        <time>2020-07-06T05:44:44Z</time>
      </trkpt>
      <trkpt lat="46.53355" lon="4.51665">
        <ele>273.598</ele>
        <time>2020-07-06T05:44:49Z</time>
      </trkpt>
      <trkpt lat="46.5336" lon="4.5166">
        <ele>275.598</ele>
        <time>2020-07-06T05:44:54Z</time>
      </trkpt>
      <trkpt lat="46.53368" lon="4.51657">
        <ele>279.598</ele>
        <time>2020-07-06T05:44:59Z</time>
      </trkpt>
      <trkpt lat="46.53375" lon="4.51651">
        <ele>279.598</ele>
        <time>2020-07-06T05:45:05Z</time>
      </trkpt>
      <trkpt lat="46.53382" lon="4.51648">
        <ele>278.598</ele>
        <time>2020-07-06T05:45:10Z</time>
      </trkpt>
      <trkpt lat="46.5339" lon="4.5164">
        <ele>275.598</ele>
        <time>2020-07-06T05:45:15Z</time>
      </trkpt>
      <trkpt lat="46.53396" lon="4.51633">
        <ele>274.598</ele>
        <time>2020-07-06T05:45:20Z</time>
      </trkpt>
      <trkpt lat="46.53399" lon="4.51625">
        <ele>272.598</ele>
        <time>2020-07-06T05:45:25Z</time>
      </trkpt>
      <trkpt lat="46.53407" lon="4.51614">
        <ele>272.598</ele>
        <time>2020-07-06T05:45:30Z</time>
      </trkpt>
      <trkpt lat="46.5341" lon="4.51604">
        <ele>270.598</ele>
        <time>2020-07-06T05:45:37Z</time>
      </trkpt>
      <trkpt lat="46.5342" lon="4.51599">
        <ele>274.598</ele>
        <time>2020-07-06T05:45:42Z</time>
      </trkpt>
      <trkpt lat="46.53426" lon="4.51595">
        <ele>276.598</ele>
        <time>2020-07-06T05:45:47Z</time>
      </trkpt>
      <trkpt lat="46.53436" lon="4.51583">
        <ele>276.598</ele>
        <time>2020-07-06T05:45:52Z</time>
      </trkpt>
      <trkpt lat="46.53442" lon="4.51568">
        <ele>276.598</ele>
        <time>2020-07-06T05:45:57Z</time>
      </trkpt>
      <trkpt lat="46.53446" lon="4.51559">
        <ele>275.598</ele>
        <time>2020-07-06T05:46:02Z</time>
      </trkpt>
      <trkpt lat="46.53452" lon="4.51553">
        <ele>273.598</ele>
        <time>2020-07-06T05:46:07Z</time>
      </trkpt>
      <trkpt lat="46.53456" lon="4.51545">
        <ele>275.598</ele>
        <time>2020-07-06T05:46:12Z</time>
      </trkpt>
      <trkpt lat="46.53462" lon="4.51539">
        <ele>275.598</ele>
        <time>2020-07-06T05:46:18Z</time>
      </trkpt>
      <trkpt lat="46.53468" lon="4.51533">
        <ele>271.598</ele>
        <time>2020-07-06T05:46:23Z</time>
      </trkpt>
      <trkpt lat="46.53472" lon="4.51525">
        <ele>270.598</ele>
        <time>2020-07-06T05:46:29Z</time>
      </trkpt>
      <trkpt lat="46.53479" lon="4.51519">
        <ele>269.598</ele>
        <time>2020-07-06T05:46:34Z</time>
      </trkpt>
      <trkpt lat="46.53486" lon="4.5151">
        <ele>269.598</ele>
        <time>2020-07-06T05:46:39Z</time>
      </trkpt>
      <trkpt lat="46.53491" lon="4.51504">
        <ele>270.598</ele>
        <time>2020-07-06T05:46:45Z</time>
      </trkpt>
      <trkpt lat="46.53497" lon="4.51496">
        <ele>268.598</ele>
        <time>2020-07-06T05:46:50Z</time>
      </trkpt>
      <trkpt lat="46.53503" lon="4.51487">
        <ele>267.598</ele>
        <time>2020-07-06T05:46:55Z</time>
      </trkpt>
      <trkpt lat="46.53507" lon="4.5148">
        <ele>267.598</ele>
        <time>2020-07-06T05:47:01Z</time>
      </trkpt>
      <trkpt lat="46.5351" lon="4.5147">
        <ele>266.598</ele>
        <time>2020-07-06T05:47:06Z</time>
      </trkpt>
      <trkpt lat="46.53511" lon="4.51459">
        <ele>264.598</ele>
        <time>2020-07-06T05:47:12Z</time>
      </trkpt>
      <trkpt lat="46.53521" lon="4.51451">
        <ele>266.598</ele>
        <time>2020-07-06T05:47:17Z</time>
      </trkpt>
      <trkpt lat="46.53521" lon="4.5144">
        <ele>266.598</ele>
        <time>2020-07-06T05:47:22Z</time>
      </trkpt>
      <trkpt lat="46.53526" lon="4.51432">
        <ele>266.598</ele>
        <time>2020-07-06T05:47:27Z</time>
      </trkpt>
      <trkpt lat="46.53532" lon="4.51422">
        <ele>266.598</ele>
        <time>2020-07-06T05:47:32Z</time>
      </trkpt>
      <trkpt lat="46.53535" lon="4.51413">
        <ele>268.598</ele>
        <time>2020-07-06T05:47:37Z</time>
      </trkpt>
      <trkpt lat="46.53538" lon="4.51403">
        <ele>266.598</ele>
        <time>2020-07-06T05:47:43Z</time>
      </trkpt>
      <trkpt lat="46.53547" lon="4.51393">
        <ele>267.598</ele>
        <time>2020-07-06T05:47:48Z</time>
      </trkpt>
      <trkpt lat="46.53555" lon="4.51385">
        <ele>268.598</ele>
        <time>2020-07-06T05:47:53Z</time>
      </trkpt>
      <trkpt lat="46.53557" lon="4.51375">
        <ele>265.598</ele>
        <time>2020-07-06T05:47:59Z</time>
      </trkpt>
      <trkpt lat="46.5356" lon="4.51365">
        <ele>264.598</ele>
        <time>2020-07-06T05:48:04Z</time>
      </trkpt>
      <trkpt lat="46.53565" lon="4.51359">
        <ele>261.598</ele>
        <time>2020-07-06T05:48:09Z</time>
      </trkpt>
      <trkpt lat="46.53571" lon="4.51351">
        <ele>264.598</ele>
        <time>2020-07-06T05:48:14Z</time>
      </trkpt>
      <trkpt lat="46.53575" lon="4.51344">
        <ele>265.598</ele>
        <time>2020-07-06T05:48:19Z</time>
      </trkpt>
      <trkpt lat="46.53581" lon="4.51336">
        <ele>266.598</ele>
        <time>2020-07-06T05:48:24Z</time>
      </trkpt>
      <trkpt lat="46.53588" lon="4.51329">
        <ele>264.598</ele>
        <time>2020-07-06T05:48:29Z</time>
      </trkpt>
      <trkpt lat="46.53593" lon="4.51322">
        <ele>259.598</ele>
        <time>2020-07-06T05:48:34Z</time>
      </trkpt>
      <trkpt lat="46.53599" lon="4.51315">
        <ele>258.598</ele>
        <time>2020-07-06T05:48:39Z</time>
      </trkpt>
      <trkpt lat="46.53606" lon="4.51307">
        <ele>256.598</ele>
        <time>2020-07-06T05:48:44Z</time>
      </trkpt>
      <trkpt lat="46.53614" lon="4.513">
        <ele>256.598</ele>
        <time>2020-07-06T05:48:49Z</time>
      </trkpt>
      <trkpt lat="46.53621" lon="4.513">
        <ele>256.598</ele>
        <time>2020-07-06T05:48:54Z</time>
      </trkpt>
      <trkpt lat="46.53629" lon="4.51301">
        <ele>258.598</ele>
        <time>2020-07-06T05:48:59Z</time>
      </trkpt>
      <trkpt lat="46.53635" lon="4.51303">
        <ele>261.598</ele>
        <time>2020-07-06T05:49:05Z</time>
      </trkpt>
      <trkpt lat="46.53642" lon="4.51305">
        <ele>260.598</ele>
        <time>2020-07-06T05:49:11Z</time>
      </trkpt>
      <trkpt lat="46.53649" lon="4.51306">
        <ele>256.598</ele>
        <time>2020-07-06T05:49:16Z</time>
      </trkpt>
      <trkpt lat="46.53658" lon="4.51308">
        <ele>257.599</ele>
        <time>2020-07-06T05:49:21Z</time>
      </trkpt>
      <trkpt lat="46.53666" lon="4.51313">
        <ele>255.599</ele>
        <time>2020-07-06T05:49:26Z</time>
      </trkpt>
      <trkpt lat="46.53674" lon="4.51297">
        <ele>246.599</ele>
        <time>2020-07-06T05:49:31Z</time>
      </trkpt>
      <trkpt lat="46.53681" lon="4.51286">
        <ele>248.599</ele>
        <time>2020-07-06T05:49:36Z</time>
      </trkpt>
      <trkpt lat="46.53686" lon="4.51274">
        <ele>249.599</ele>
        <time>2020-07-06T05:49:41Z</time>
      </trkpt>
      <trkpt lat="46.53686" lon="4.51264">
        <ele>244.599</ele>
        <time>2020-07-06T05:49:47Z</time>
      </trkpt>
      <trkpt lat="46.53688" lon="4.51253">
        <ele>244.599</ele>
        <time>2020-07-06T05:49:52Z</time>
      </trkpt>
      <trkpt lat="46.5369" lon="4.51243">
        <ele>243.599</ele>
        <time>2020-07-06T05:49:57Z</time>
      </trkpt>
      <trkpt lat="46.53693" lon="4.51234">
        <ele>244.599</ele>
        <time>2020-07-06T05:50:02Z</time>
      </trkpt>
      <trkpt lat="46.53698" lon="4.51226">
        <ele>248.599</ele>
        <time>2020-07-06T05:50:07Z</time>
      </trkpt>
      <trkpt lat="46.53704" lon="4.51218">
        <ele>246.599</ele>
        <time>2020-07-06T05:50:12Z</time>
      </trkpt>
      <trkpt lat="46.53708" lon="4.5121">
        <ele>245.599</ele>
        <time>2020-07-06T05:50:17Z</time>
      </trkpt>
      <trkpt lat="46.53713" lon="4.512">
        <ele>244.599</ele>
        <time>2020-07-06T05:50:23Z</time>
      </trkpt>
      <trkpt lat="46.53721" lon="4.51191">
        <ele>247.599</ele>
        <time>2020-07-06T05:50:28Z</time>
      </trkpt>
      <trkpt lat="46.53724" lon="4.51181">
        <ele>247.599</ele>
        <time>2020-07-06T05:50:34Z</time>
      </trkpt>
      <trkpt lat="46.53731" lon="4.51174">
        <ele>247.599</ele>
        <time>2020-07-06T05:50:39Z</time>
      </trkpt>
      <trkpt lat="46.53734" lon="4.51165">
        <ele>249.599</ele>
        <time>2020-07-06T05:50:44Z</time>
      </trkpt>
      <trkpt lat="46.53739" lon="4.51155">
        <ele>250.599</ele>
        <time>2020-07-06T05:50:49Z</time>
      </trkpt>
      <trkpt lat="46.5374" lon="4.51145">
        <ele>245.599</ele>
        <time>2020-07-06T05:50:55Z</time>
      </trkpt>
      <trkpt lat="46.53748" lon="4.51134">
        <ele>246.599</ele>
        <time>2020-07-06T05:51:00Z</time>
      </trkpt>
      <trkpt lat="46.53751" lon="4.51123">
        <ele>244.599</ele>
        <time>2020-07-06T05:51:05Z</time>
      </trkpt>
      <trkpt lat="46.53753" lon="4.51112">
        <ele>243.599</ele>
        <time>2020-07-06T05:51:11Z</time>
      </trkpt>
      <trkpt lat="46.53764" lon="4.511">
        <ele>243.599</ele>
        <time>2020-07-06T05:51:16Z</time>
      </trkpt>
      <trkpt lat="46.53769" lon="4.51093">
        <ele>244.599</ele>
        <time>2020-07-06T05:51:22Z</time>
      </trkpt>
      <trkpt lat="46.53774" lon="4.51086">
        <ele>244.599</ele>
        <time>2020-07-06T05:51:27Z</time>
      </trkpt>
      <trkpt lat="46.53778" lon="4.51079">
        <ele>245.599</ele>
        <time>2020-07-06T05:51:34Z</time>
      </trkpt>
      <trkpt lat="46.53785" lon="4.51071">
        <ele>245.599</ele>
        <time>2020-07-06T05:51:39Z</time>
      </trkpt>
      <trkpt lat="46.5379" lon="4.51062">
        <ele>247.599</ele>
        <time>2020-07-06T05:51:44Z</time>
      </trkpt>
      <trkpt lat="46.53795" lon="4.51055">
        <ele>248.599</ele>
        <time>2020-07-06T05:51:49Z</time>
      </trkpt>
      <trkpt lat="46.53802" lon="4.51047">
        <ele>247.599</ele>
        <time>2020-07-06T05:51:54Z</time>
      </trkpt>
      <trkpt lat="46.53808" lon="4.51043">
        <ele>248.599</ele>
        <time>2020-07-06T05:52:00Z</time>
      </trkpt>
      <trkpt lat="46.53815" lon="4.51041">
        <ele>249.599</ele>
        <time>2020-07-06T05:52:05Z</time>
      </trkpt>
      <trkpt lat="46.53821" lon="4.51041">
        <ele>246.599</ele>
        <time>2020-07-06T05:52:10Z</time>
      </trkpt>
      <trkpt lat="46.5383" lon="4.5104">
        <ele>242.599</ele>
        <time>2020-07-06T05:52:15Z</time>
      </trkpt>
      <trkpt lat="46.53837" lon="4.51041">
        <ele>242.599</ele>
        <time>2020-07-06T05:52:20Z</time>
      </trkpt>
      <trkpt lat="46.53845" lon="4.51036">
        <ele>241.599</ele>
        <time>2020-07-06T05:52:25Z</time>
      </trkpt>
      <trkpt lat="46.53851" lon="4.51028">
        <ele>244.599</ele>
        <time>2020-07-06T05:52:30Z</time>
      </trkpt>
      <trkpt lat="46.53852" lon="4.51019">
        <ele>244.599</ele>
        <time>2020-07-06T05:52:36Z</time>
      </trkpt>
      <trkpt lat="46.53856" lon="4.5101">
        <ele>246.599</ele>
        <time>2020-07-06T05:52:42Z</time>
      </trkpt>
      <trkpt lat="46.53861" lon="4.51002">
        <ele>245.599</ele>
        <time>2020-07-06T05:52:49Z</time>
      </trkpt>
      <trkpt lat="46.53869" lon="4.50996">
        <ele>245.599</ele>
        <time>2020-07-06T05:52:55Z</time>
      </trkpt>
      <trkpt lat="46.53875" lon="4.50989">
        <ele>243.599</ele>
        <time>2020-07-06T05:53:00Z</time>
      </trkpt>
      <trkpt lat="46.53873" lon="4.50979">
        <ele>247.599</ele>
        <time>2020-07-06T05:53:07Z</time>
      </trkpt>
      <trkpt lat="46.53876" lon="4.5097">
        <ele>248.599</ele>
        <time>2020-07-06T05:53:13Z</time>
      </trkpt>
      <trkpt lat="46.53874" lon="4.50959">
        <ele>250.599</ele>
        <time>2020-07-06T05:53:19Z</time>
      </trkpt>
      <trkpt lat="46.53874" lon="4.50949">
        <ele>250.599</ele>
        <time>2020-07-06T05:53:24Z</time>
      </trkpt>
      <trkpt lat="46.53873" lon="4.50938">
        <ele>249.599</ele>
        <time>2020-07-06T05:53:32Z</time>
      </trkpt>
      <trkpt lat="46.53874" lon="4.50927">
        <ele>252.599</ele>
        <time>2020-07-06T05:53:37Z</time>
      </trkpt>
      <trkpt lat="46.53877" lon="4.50914">
        <ele>257.599</ele>
        <time>2020-07-06T05:53:42Z</time>
      </trkpt>
      <trkpt lat="46.53879" lon="4.50904">
        <ele>257.599</ele>
        <time>2020-07-06T05:53:47Z</time>
      </trkpt>
      <trkpt lat="46.53881" lon="4.50893">
        <ele>259.599</ele>
        <time>2020-07-06T05:53:52Z</time>
      </trkpt>
      <trkpt lat="46.5388" lon="4.50883">
        <ele>250.599</ele>
        <time>2020-07-06T05:54:16Z</time>
      </trkpt>
      <trkpt lat="46.53885" lon="4.50876">
        <ele>249.599</ele>
        <time>2020-07-06T05:54:22Z</time>
      </trkpt>
      <trkpt lat="46.53891" lon="4.5087">
        <ele>251.599</ele>
        <time>2020-07-06T05:54:27Z</time>
      </trkpt>
      <trkpt lat="46.53897" lon="4.50861">
        <ele>254.599</ele>
        <time>2020-07-06T05:54:32Z</time>
      </trkpt>
      <trkpt lat="46.53902" lon="4.50852">
        <ele>255.599</ele>
        <time>2020-07-06T05:54:38Z</time>
      </trkpt>
      <trkpt lat="46.53907" lon="4.50844">
        <ele>255.599</ele>
        <time>2020-07-06T05:54:45Z</time>
      </trkpt>
      <trkpt lat="46.53911" lon="4.50835">
        <ele>254.599</ele>
        <time>2020-07-06T05:54:51Z</time>
      </trkpt>
      <trkpt lat="46.53913" lon="4.50823">
        <ele>251.599</ele>
        <time>2020-07-06T05:54:56Z</time>
      </trkpt>
      <trkpt lat="46.5392" lon="4.50819">
        <ele>254.599</ele>
        <time>2020-07-06T05:55:03Z</time>
      </trkpt>
      <trkpt lat="46.53926" lon="4.50814">
        <ele>257.599</ele>
        <time>2020-07-06T05:55:09Z</time>
      </trkpt>
      <trkpt lat="46.53925" lon="4.50803">
        <ele>259.599</ele>
        <time>2020-07-06T05:55:15Z</time>
      </trkpt>
      <trkpt lat="46.53926" lon="4.50793">
        <ele>260.599</ele>
        <time>2020-07-06T05:55:22Z</time>
      </trkpt>
      <trkpt lat="46.53928" lon="4.50778">
        <ele>262.599</ele>
        <time>2020-07-06T05:55:27Z</time>
      </trkpt>
      <trkpt lat="46.53929" lon="4.50767">
        <ele>260.599</ele>
        <time>2020-07-06T05:55:37Z</time>
      </trkpt>
      <trkpt lat="46.53932" lon="4.50757">
        <ele>258.599</ele>
        <time>2020-07-06T05:55:47Z</time>
      </trkpt>
      <trkpt lat="46.5393" lon="4.50748">
        <ele>259.599</ele>
        <time>2020-07-06T05:55:54Z</time>
      </trkpt>
      <trkpt lat="46.53934" lon="4.50735">
        <ele>261.599</ele>
        <time>2020-07-06T05:55:59Z</time>
      </trkpt>
      <trkpt lat="46.53939" lon="4.50723">
        <ele>260.599</ele>
        <time>2020-07-06T05:56:04Z</time>
      </trkpt>
      <trkpt lat="46.53945" lon="4.50725">
        <ele>261.599</ele>
        <time>2020-07-06T05:56:12Z</time>
      </trkpt>
      <trkpt lat="46.53953" lon="4.50727">
        <ele>265.599</ele>
        <time>2020-07-06T05:56:19Z</time>
      </trkpt>
      <trkpt lat="46.5396" lon="4.5073">
        <ele>268.599</ele>
        <time>2020-07-06T05:56:24Z</time>
      </trkpt>
      <trkpt lat="46.53967" lon="4.5073">
        <ele>266.599</ele>
        <time>2020-07-06T05:56:29Z</time>
      </trkpt>
      <trkpt lat="46.53972" lon="4.50737">
        <ele>270.599</ele>
        <time>2020-07-06T05:56:36Z</time>
      </trkpt>
      <trkpt lat="46.53982" lon="4.50735">
        <ele>270.599</ele>
        <time>2020-07-06T05:56:41Z</time>
      </trkpt>
      <trkpt lat="46.53991" lon="4.50734">
        <ele>271.599</ele>
        <time>2020-07-06T05:56:46Z</time>
      </trkpt>
      <trkpt lat="46.54" lon="4.50734">
        <ele>270.599</ele>
        <time>2020-07-06T05:56:51Z</time>
      </trkpt>
      <trkpt lat="46.54007" lon="4.50734">
        <ele>268.599</ele>
        <time>2020-07-06T05:56:56Z</time>
      </trkpt>
      <trkpt lat="46.54015" lon="4.50732">
        <ele>271.599</ele>
        <time>2020-07-06T05:57:02Z</time>
      </trkpt>
      <trkpt lat="46.54021" lon="4.50722">
        <ele>267.599</ele>
        <time>2020-07-06T05:57:07Z</time>
      </trkpt>
      <trkpt lat="46.54024" lon="4.50714">
        <ele>264.599</ele>
        <time>2020-07-06T05:57:12Z</time>
      </trkpt>
      <trkpt lat="46.54027" lon="4.50704">
        <ele>259.599</ele>
        <time>2020-07-06T05:57:19Z</time>
      </trkpt>
      <trkpt lat="46.54037" lon="4.50697">
        <ele>260.599</ele>
        <time>2020-07-06T05:57:24Z</time>
      </trkpt>
      <trkpt lat="46.54048" lon="4.50694">
        <ele>263.599</ele>
        <time>2020-07-06T05:57:29Z</time>
      </trkpt>
      <trkpt lat="46.54058" lon="4.50695">
        <ele>262.599</ele>
        <time>2020-07-06T05:57:34Z</time>
      </trkpt>
      <trkpt lat="46.54066" lon="4.50698">
        <ele>264.599</ele>
        <time>2020-07-06T05:57:39Z</time>
      </trkpt>
      <trkpt lat="46.54073" lon="4.50699">
        <ele>265.599</ele>
        <time>2020-07-06T05:57:44Z</time>
      </trkpt>
      <trkpt lat="46.54081" lon="4.507">
        <ele>266.599</ele>
        <time>2020-07-06T05:57:49Z</time>
      </trkpt>
      <trkpt lat="46.54087" lon="4.50703">
        <ele>265.599</ele>
        <time>2020-07-06T05:57:54Z</time>
      </trkpt>
      <trkpt lat="46.54095" lon="4.50706">
        <ele>265.599</ele>
        <time>2020-07-06T05:57:59Z</time>
      </trkpt>
      <trkpt lat="46.54102" lon="4.50709">
        <ele>263.599</ele>
        <time>2020-07-06T05:58:04Z</time>
      </trkpt>
      <trkpt lat="46.54109" lon="4.50713">
        <ele>262.599</ele>
        <time>2020-07-06T05:58:09Z</time>
      </trkpt>
      <trkpt lat="46.54115" lon="4.50717">
        <ele>260.599</ele>
        <time>2020-07-06T05:58:14Z</time>
      </trkpt>
      <trkpt lat="46.54122" lon="4.5072">
        <ele>262.599</ele>
        <time>2020-07-06T05:58:19Z</time>
      </trkpt>
      <trkpt lat="46.54129" lon="4.50724">
        <ele>264.599</ele>
        <time>2020-07-06T05:58:24Z</time>
      </trkpt>
      <trkpt lat="46.54135" lon="4.50731">
        <ele>265.599</ele>
        <time>2020-07-06T05:58:29Z</time>
      </trkpt>
      <trkpt lat="46.54142" lon="4.50733">
        <ele>266.599</ele>
        <time>2020-07-06T05:58:34Z</time>
      </trkpt>
      <trkpt lat="46.54149" lon="4.50736">
        <ele>268.599</ele>
        <time>2020-07-06T05:58:39Z</time>
      </trkpt>
      <trkpt lat="46.54158" lon="4.5074">
        <ele>271.599</ele>
        <time>2020-07-06T05:58:44Z</time>
      </trkpt>
      <trkpt lat="46.54164" lon="4.50741">
        <ele>271.599</ele>
        <time>2020-07-06T05:58:49Z</time>
      </trkpt>
      <trkpt lat="46.54172" lon="4.50743">
        <ele>271.6</ele>
        <time>2020-07-06T05:58:55Z</time>
      </trkpt>
      <trkpt lat="46.54179" lon="4.50744">
        <ele>271.6</ele>
        <time>2020-07-06T05:59:00Z</time>
      </trkpt>
      <trkpt lat="46.54187" lon="4.50744">
        <ele>272.6</ele>
        <time>2020-07-06T05:59:05Z</time>
      </trkpt>
      <trkpt lat="46.54194" lon="4.50744">
        <ele>270.6</ele>
        <time>2020-07-06T05:59:10Z</time>
      </trkpt>
      <trkpt lat="46.54202" lon="4.50746">
        <ele>272.6</ele>
        <time>2020-07-06T05:59:15Z</time>
      </trkpt>
      <trkpt lat="46.54208" lon="4.50745">
        <ele>271.6</ele>
        <time>2020-07-06T05:59:20Z</time>
      </trkpt>
      <trkpt lat="46.54215" lon="4.50746">
        <ele>273.6</ele>
        <time>2020-07-06T05:59:25Z</time>
      </trkpt>
      <trkpt lat="46.54223" lon="4.50749">
        <ele>275.6</ele>
        <time>2020-07-06T05:59:31Z</time>
      </trkpt>
      <trkpt lat="46.5423" lon="4.5075">
        <ele>273.6</ele>
        <time>2020-07-06T05:59:36Z</time>
      </trkpt>
      <trkpt lat="46.54238" lon="4.50753">
        <ele>272.6</ele>
        <time>2020-07-06T05:59:41Z</time>
      </trkpt>
      <trkpt lat="46.54246" lon="4.5075">
        <ele>268.6</ele>
        <time>2020-07-06T05:59:46Z</time>
      </trkpt>
      <trkpt lat="46.54254" lon="4.50751">
        <ele>267.6</ele>
        <time>2020-07-06T05:59:51Z</time>
      </trkpt>
      <trkpt lat="46.54261" lon="4.50753">
        <ele>268.6</ele>
        <time>2020-07-06T05:59:56Z</time>
      </trkpt>
      <trkpt lat="46.54269" lon="4.50757">
        <ele>268.6</ele>
        <time>2020-07-06T06:00:01Z</time>
      </trkpt>
      <trkpt lat="46.54274" lon="4.50763">
        <ele>268.6</ele>
        <time>2020-07-06T06:00:06Z</time>
      </trkpt>
      <trkpt lat="46.54281" lon="4.50763">
        <ele>270.6</ele>
        <time>2020-07-06T06:00:11Z</time>
      </trkpt>
      <trkpt lat="46.54289" lon="4.50766">
        <ele>271.6</ele>
        <time>2020-07-06T06:00:16Z</time>
      </trkpt>
      <trkpt lat="46.54296" lon="4.50766">
        <ele>271.6</ele>
        <time>2020-07-06T06:00:21Z</time>
      </trkpt>
      <trkpt lat="46.54303" lon="4.50768">
        <ele>273.6</ele>
        <time>2020-07-06T06:00:26Z</time>
      </trkpt>
      <trkpt lat="46.54311" lon="4.5077">
        <ele>274.6</ele>
        <time>2020-07-06T06:00:31Z</time>
      </trkpt>
      <trkpt lat="46.54317" lon="4.50774">
        <ele>274.6</ele>
        <time>2020-07-06T06:00:36Z</time>
      </trkpt>
      <trkpt lat="46.54324" lon="4.50778">
        <ele>273.6</ele>
        <time>2020-07-06T06:00:42Z</time>
      </trkpt>
      <trkpt lat="46.54332" lon="4.50782">
        <ele>273.6</ele>
        <time>2020-07-06T06:00:47Z</time>
      </trkpt>
      <trkpt lat="46.54338" lon="4.50783">
        <ele>277.6</ele>
        <time>2020-07-06T06:00:52Z</time>
      </trkpt>
      <trkpt lat="46.54345" lon="4.50784">
        <ele>278.6</ele>
        <time>2020-07-06T06:00:58Z</time>
      </trkpt>
      <trkpt lat="46.54352" lon="4.50786">
        <ele>277.6</ele>
        <time>2020-07-06T06:01:03Z</time>
      </trkpt>
      <trkpt lat="46.5436" lon="4.5079">
        <ele>276.6</ele>
        <time>2020-07-06T06:01:08Z</time>
      </trkpt>
      <trkpt lat="46.54366" lon="4.50793">
        <ele>277.6</ele>
        <time>2020-07-06T06:01:14Z</time>
      </trkpt>
      <trkpt lat="46.54374" lon="4.50793">
        <ele>276.6</ele>
        <time>2020-07-06T06:01:22Z</time>
      </trkpt>
      <trkpt lat="46.54381" lon="4.50796">
        <ele>277.6</ele>
        <time>2020-07-06T06:01:29Z</time>
      </trkpt>
      <trkpt lat="46.5439" lon="4.50803">
        <ele>275.6</ele>
        <time>2020-07-06T06:01:34Z</time>
      </trkpt>
      <trkpt lat="46.544" lon="4.5081">
        <ele>280.6</ele>
        <time>2020-07-06T06:01:39Z</time>
      </trkpt>
      <trkpt lat="46.54407" lon="4.50813">
        <ele>277.6</ele>
        <time>2020-07-06T06:01:44Z</time>
      </trkpt>
      <trkpt lat="46.54413" lon="4.50818">
        <ele>277.6</ele>
        <time>2020-07-06T06:01:49Z</time>
      </trkpt>
      <trkpt lat="46.5442" lon="4.50824">
        <ele>280.6</ele>
        <time>2020-07-06T06:01:55Z</time>
      </trkpt>
      <trkpt lat="46.54427" lon="4.50825">
        <ele>282.6</ele>
        <time>2020-07-06T06:02:00Z</time>
      </trkpt>
      <trkpt lat="46.54433" lon="4.50829">
        <ele>282.6</ele>
        <time>2020-07-06T06:02:05Z</time>
      </trkpt>
      <trkpt lat="46.5444" lon="4.5083">
        <ele>278.6</ele>
        <time>2020-07-06T06:02:11Z</time>
      </trkpt>
      <trkpt lat="46.54446" lon="4.50834">
        <ele>278.6</ele>
        <time>2020-07-06T06:02:16Z</time>
      </trkpt>
      <trkpt lat="46.54453" lon="4.50841">
        <ele>280.6</ele>
        <time>2020-07-06T06:02:21Z</time>
      </trkpt>
      <trkpt lat="46.5446" lon="4.50846">
        <ele>279.6</ele>
        <time>2020-07-06T06:02:26Z</time>
      </trkpt>
      <trkpt lat="46.54467" lon="4.50853">
        <ele>282.6</ele>
        <time>2020-07-06T06:02:31Z</time>
      </trkpt>
      <trkpt lat="46.54473" lon="4.50858">
        <ele>284.6</ele>
        <time>2020-07-06T06:02:37Z</time>
      </trkpt>
      <trkpt lat="46.54482" lon="4.50859">
        <ele>280.6</ele>
        <time>2020-07-06T06:02:43Z</time>
      </trkpt>
      <trkpt lat="46.54492" lon="4.50861">
        <ele>278.6</ele>
        <time>2020-07-06T06:02:48Z</time>
      </trkpt>
      <trkpt lat="46.545" lon="4.50864">
        <ele>276.601</ele>
        <time>2020-07-06T06:02:53Z</time>
      </trkpt>
      <trkpt lat="46.54506" lon="4.50868">
        <ele>276.601</ele>
        <time>2020-07-06T06:02:59Z</time>
      </trkpt>
      <trkpt lat="46.54509" lon="4.50879">
        <ele>275.601</ele>
        <time>2020-07-06T06:03:04Z</time>
      </trkpt>
      <trkpt lat="46.54514" lon="4.50886">
        <ele>272.601</ele>
        <time>2020-07-06T06:03:11Z</time>
      </trkpt>
      <trkpt lat="46.54517" lon="4.50896">
        <ele>274.601</ele>
        <time>2020-07-06T06:03:17Z</time>
      </trkpt>
      <trkpt lat="46.54519" lon="4.50908">
        <ele>278.601</ele>
        <time>2020-07-06T06:03:22Z</time>
      </trkpt>
      <trkpt lat="46.54524" lon="4.50915">
        <ele>278.601</ele>
        <time>2020-07-06T06:03:27Z</time>
      </trkpt>
      <trkpt lat="46.54528" lon="4.50925">
        <ele>280.601</ele>
        <time>2020-07-06T06:03:32Z</time>
      </trkpt>
      <trkpt lat="46.5453" lon="4.50936">
        <ele>280.601</ele>
        <time>2020-07-06T06:03:37Z</time>
      </trkpt>
      <trkpt lat="46.54534" lon="4.50948">
        <ele>282.601</ele>
        <time>2020-07-06T06:03:42Z</time>
      </trkpt>
      <trkpt lat="46.5454" lon="4.50954">
        <ele>284.601</ele>
        <time>2020-07-06T06:03:47Z</time>
      </trkpt>
      <trkpt lat="46.54544" lon="4.50963">
        <ele>286.601</ele>
        <time>2020-07-06T06:03:53Z</time>
      </trkpt>
      <trkpt lat="46.5455" lon="4.50968">
        <ele>280.601</ele>
        <time>2020-07-06T06:03:59Z</time>
      </trkpt>
      <trkpt lat="46.54554" lon="4.50976">
        <ele>282.601</ele>
        <time>2020-07-06T06:04:04Z</time>
      </trkpt>
      <trkpt lat="46.54559" lon="4.50985">
        <ele>279.601</ele>
        <time>2020-07-06T06:04:10Z</time>
      </trkpt>
      <trkpt lat="46.54564" lon="4.50991">
        <ele>278.601</ele>
        <time>2020-07-06T06:04:16Z</time>
      </trkpt>
      <trkpt lat="46.54569" lon="4.50997">
        <ele>275.601</ele>
        <time>2020-07-06T06:04:21Z</time>
      </trkpt>
      <trkpt lat="46.54575" lon="4.51003">
        <ele>275.601</ele>
        <time>2020-07-06T06:04:27Z</time>
      </trkpt>
      <trkpt lat="46.5458" lon="4.5101">
        <ele>273.601</ele>
        <time>2020-07-06T06:04:33Z</time>
      </trkpt>
      <trkpt lat="46.54584" lon="4.51017">
        <ele>274.601</ele>
        <time>2020-07-06T06:04:38Z</time>
      </trkpt>
      <trkpt lat="46.54589" lon="4.51024">
        <ele>274.601</ele>
        <time>2020-07-06T06:04:44Z</time>
      </trkpt>
      <trkpt lat="46.54595" lon="4.51031">
        <ele>276.601</ele>
        <time>2020-07-06T06:04:50Z</time>
      </trkpt>
      <trkpt lat="46.54601" lon="4.51036">
        <ele>272.601</ele>
        <time>2020-07-06T06:04:57Z</time>
      </trkpt>
      <trkpt lat="46.54605" lon="4.51046">
        <ele>274.601</ele>
        <time>2020-07-06T06:05:06Z</time>
      </trkpt>
      <trkpt lat="46.54612" lon="4.51049">
        <ele>270.601</ele>
        <time>2020-07-06T06:05:14Z</time>
      </trkpt>
      <trkpt lat="46.54618" lon="4.51055">
        <ele>269.601</ele>
        <time>2020-07-06T06:05:20Z</time>
      </trkpt>
      <trkpt lat="46.54623" lon="4.51062">
        <ele>271.601</ele>
        <time>2020-07-06T06:05:25Z</time>
      </trkpt>
      <trkpt lat="46.54627" lon="4.5107">
        <ele>272.601</ele>
        <time>2020-07-06T06:05:32Z</time>
      </trkpt>
      <trkpt lat="46.54632" lon="4.51078">
        <ele>272.601</ele>
        <time>2020-07-06T06:05:41Z</time>
      </trkpt>
      <trkpt lat="46.54639" lon="4.51085">
        <ele>275.601</ele>
        <time>2020-07-06T06:05:46Z</time>
      </trkpt>
      <trkpt lat="46.54645" lon="4.5109">
        <ele>277.601</ele>
        <time>2020-07-06T06:05:52Z</time>
      </trkpt>
      <trkpt lat="46.54651" lon="4.51097">
        <ele>276.601</ele>
        <time>2020-07-06T06:05:57Z</time>
      </trkpt>
      <trkpt lat="46.54658" lon="4.51102">
        <ele>275.601</ele>
        <time>2020-07-06T06:06:06Z</time>
      </trkpt>
      <trkpt lat="46.54664" lon="4.51105">
        <ele>278.601</ele>
        <time>2020-07-06T06:06:14Z</time>
      </trkpt>
      <trkpt lat="46.54671" lon="4.51108">
        <ele>276.601</ele>
        <time>2020-07-06T06:06:22Z</time>
      </trkpt>
      <trkpt lat="46.54677" lon="4.51113">
        <ele>275.601</ele>
        <time>2020-07-06T06:06:30Z</time>
      </trkpt>
      <trkpt lat="46.54683" lon="4.51116">
        <ele>272.601</ele>
        <time>2020-07-06T06:06:50Z</time>
      </trkpt>
      <trkpt lat="46.54689" lon="4.51121">
        <ele>273.601</ele>
        <time>2020-07-06T06:07:00Z</time>
      </trkpt>
      <trkpt lat="46.54696" lon="4.51121">
        <ele>271.601</ele>
        <time>2020-07-06T06:07:15Z</time>
      </trkpt>
      <trkpt lat="46.54704" lon="4.51122">
        <ele>270.601</ele>
        <time>2020-07-06T06:07:24Z</time>
      </trkpt>
      <trkpt lat="46.54708" lon="4.5113">
        <ele>269.601</ele>
        <time>2020-07-06T06:07:33Z</time>
      </trkpt>
      <trkpt lat="46.54714" lon="4.51137">
        <ele>270.601</ele>
        <time>2020-07-06T06:07:54Z</time>
      </trkpt>
      <trkpt lat="46.5472" lon="4.51138">
        <ele>269.601</ele>
        <time>2020-07-06T06:08:02Z</time>
      </trkpt>
      <trkpt lat="46.54727" lon="4.51143">
        <ele>269.601</ele>
        <time>2020-07-06T06:08:09Z</time>
      </trkpt>
      <trkpt lat="46.54733" lon="4.51148">
        <ele>269.601</ele>
        <time>2020-07-06T06:08:16Z</time>
      </trkpt>
      <trkpt lat="46.54739" lon="4.5115">
        <ele>271.601</ele>
        <time>2020-07-06T06:08:25Z</time>
      </trkpt>
      <trkpt lat="46.54746" lon="4.51152">
        <ele>271.601</ele>
        <time>2020-07-06T06:08:34Z</time>
      </trkpt>
      <trkpt lat="46.54753" lon="4.51154">
        <ele>271.601</ele>
        <time>2020-07-06T06:08:43Z</time>
      </trkpt>
      <trkpt lat="46.5476" lon="4.51155">
        <ele>270.601</ele>
        <time>2020-07-06T06:08:52Z</time>
      </trkpt>
      <trkpt lat="46.54766" lon="4.51152">
        <ele>263.601</ele>
        <time>2020-07-06T06:08:59Z</time>
      </trkpt>
      <trkpt lat="46.54771" lon="4.51158">
        <ele>264.601</ele>
        <time>2020-07-06T06:09:09Z</time>
      </trkpt>
      <trkpt lat="46.54778" lon="4.51162">
        <ele>266.601</ele>
        <time>2020-07-06T06:09:24Z</time>
      </trkpt>
      <trkpt lat="46.54783" lon="4.51166">
        <ele>267.602</ele>
        <time>2020-07-06T06:09:39Z</time>
      </trkpt>
      <trkpt lat="46.54789" lon="4.51171">
        <ele>265.602</ele>
        <time>2020-07-06T06:10:05Z</time>
      </trkpt>
      <trkpt lat="46.54793" lon="4.51179">
        <ele>265.602</ele>
        <time>2020-07-06T06:10:15Z</time>
      </trkpt>
      <trkpt lat="46.54799" lon="4.51184">
        <ele>267.602</ele>
        <time>2020-07-06T06:10:28Z</time>
      </trkpt>
      <trkpt lat="46.54804" lon="4.51189">
        <ele>268.602</ele>
        <time>2020-07-06T06:10:40Z</time>
      </trkpt>
      <trkpt lat="46.54811" lon="4.51193">
        <ele>266.602</ele>
        <time>2020-07-06T06:10:55Z</time>
      </trkpt>
      <trkpt lat="46.54817" lon="4.51194">
        <ele>263.602</ele>
        <time>2020-07-06T06:11:10Z</time>
      </trkpt>
      <trkpt lat="46.54822" lon="4.512">
        <ele>262.602</ele>
        <time>2020-07-06T06:11:33Z</time>
      </trkpt>
      <trkpt lat="46.54828" lon="4.51205">
        <ele>263.602</ele>
        <time>2020-07-06T06:11:47Z</time>
      </trkpt>
      <trkpt lat="46.54834" lon="4.5121">
        <ele>263.602</ele>
        <time>2020-07-06T06:11:56Z</time>
      </trkpt>
      <trkpt lat="46.5484" lon="4.51214">
        <ele>265.602</ele>
        <time>2020-07-06T06:12:12Z</time>
      </trkpt>
      <trkpt lat="46.54847" lon="4.51216">
        <ele>264.602</ele>
        <time>2020-07-06T06:12:45Z</time>
      </trkpt>
      <trkpt lat="46.54852" lon="4.51223">
        <ele>263.602</ele>
        <time>2020-07-06T06:12:50Z</time>
      </trkpt>
      <trkpt lat="46.54856" lon="4.51232">
        <ele>267.602</ele>
        <time>2020-07-06T06:12:55Z</time>
      </trkpt>
      <trkpt lat="46.54863" lon="4.51232">
        <ele>265.602</ele>
        <time>2020-07-06T06:13:02Z</time>
      </trkpt>
      <trkpt lat="46.5487" lon="4.51232">
        <ele>262.602</ele>
        <time>2020-07-06T06:13:09Z</time>
      </trkpt>
      <trkpt lat="46.54876" lon="4.51232">
        <ele>261.602</ele>
        <time>2020-07-06T06:13:21Z</time>
      </trkpt>
      <trkpt lat="46.54882" lon="4.51238">
        <ele>261.602</ele>
        <time>2020-07-06T06:15:02Z</time>
      </trkpt>
      <trkpt lat="46.54887" lon="4.51245">
        <ele>258.602</ele>
        <time>2020-07-06T06:15:20Z</time>
      </trkpt>
      <trkpt lat="46.54893" lon="4.51247">
        <ele>257.602</ele>
        <time>2020-07-06T06:15:26Z</time>
      </trkpt>
      <trkpt lat="46.549" lon="4.51247">
        <ele>260.602</ele>
        <time>2020-07-06T06:16:30Z</time>
      </trkpt>
      <trkpt lat="46.54907" lon="4.51245">
        <ele>259.602</ele>
        <time>2020-07-06T06:16:38Z</time>
      </trkpt>
      <trkpt lat="46.54913" lon="4.5125">
        <ele>262.602</ele>
        <time>2020-07-06T06:17:12Z</time>
      </trkpt>
      <trkpt lat="46.54916" lon="4.51241">
        <ele>265.602</ele>
        <time>2020-07-06T06:17:25Z</time>
      </trkpt>
      <trkpt lat="46.54918" lon="4.51232">
        <ele>269.602</ele>
        <time>2020-07-06T06:17:39Z</time>
      </trkpt>
      <trkpt lat="46.54922" lon="4.51224">
        <ele>269.602</ele>
        <time>2020-07-06T06:19:39Z</time>
      </trkpt>
      <trkpt lat="46.54926" lon="4.51215">
        <ele>266.602</ele>
        <time>2020-07-06T06:19:44Z</time>
      </trkpt>
      <trkpt lat="46.54922" lon="4.51202">
        <ele>269.602</ele>
        <time>2020-07-06T06:19:49Z</time>
      </trkpt>
      <trkpt lat="46.54928" lon="4.51195">
        <ele>269.602</ele>
        <time>2020-07-06T06:19:55Z</time>
      </trkpt>
      <trkpt lat="46.54932" lon="4.51183">
        <ele>269.602</ele>
        <time>2020-07-06T06:20:00Z</time>
      </trkpt>
      <trkpt lat="46.54937" lon="4.51175">
        <ele>271.602</ele>
        <time>2020-07-06T06:20:28Z</time>
      </trkpt>
      <trkpt lat="46.54941" lon="4.51167">
        <ele>268.602</ele>
        <time>2020-07-06T06:20:35Z</time>
      </trkpt>
      <trkpt lat="46.54948" lon="4.51168">
        <ele>266.602</ele>
        <time>2020-07-06T06:20:51Z</time>
      </trkpt>
      <trkpt lat="46.54955" lon="4.51166">
        <ele>270.602</ele>
        <time>2020-07-06T06:20:58Z</time>
      </trkpt>
      <trkpt lat="46.54962" lon="4.51167">
        <ele>272.602</ele>
        <time>2020-07-06T06:21:03Z</time>
      </trkpt>
      <trkpt lat="46.54967" lon="4.51174">
        <ele>272.602</ele>
        <time>2020-07-06T06:21:09Z</time>
      </trkpt>
      <trkpt lat="46.54969" lon="4.51184">
        <ele>269.602</ele>
        <time>2020-07-06T06:21:16Z</time>
      </trkpt>
      <trkpt lat="46.54968" lon="4.51194">
        <ele>268.602</ele>
        <time>2020-07-06T06:21:24Z</time>
      </trkpt>
      <trkpt lat="46.54972" lon="4.51203">
        <ele>269.602</ele>
        <time>2020-07-06T06:21:29Z</time>
      </trkpt>
      <trkpt lat="46.54973" lon="4.51214">
        <ele>270.602</ele>
        <time>2020-07-06T06:21:35Z</time>
      </trkpt>
      <trkpt lat="46.54971" lon="4.51224">
        <ele>270.602</ele>
        <time>2020-07-06T06:21:40Z</time>
      </trkpt>
      <trkpt lat="46.54971" lon="4.51235">
        <ele>269.602</ele>
        <time>2020-07-06T06:21:46Z</time>
      </trkpt>
      <trkpt lat="46.54968" lon="4.51244">
        <ele>269.602</ele>
        <time>2020-07-06T06:21:51Z</time>
      </trkpt>
      <trkpt lat="46.54969" lon="4.51253">
        <ele>268.602</ele>
        <time>2020-07-06T06:21:59Z</time>
      </trkpt>
      <trkpt lat="46.54973" lon="4.51261">
        <ele>270.602</ele>
        <time>2020-07-06T06:22:04Z</time>
      </trkpt>
      <trkpt lat="46.54978" lon="4.51267">
        <ele>270.602</ele>
        <time>2020-07-06T06:22:11Z</time>
      </trkpt>
      <trkpt lat="46.54984" lon="4.51273">
        <ele>269.602</ele>
        <time>2020-07-06T06:22:16Z</time>
      </trkpt>
      <trkpt lat="46.54986" lon="4.51282">
        <ele>268.602</ele>
        <time>2020-07-06T06:22:21Z</time>
      </trkpt>
      <trkpt lat="46.54989" lon="4.51292">
        <ele>267.602</ele>
        <time>2020-07-06T06:22:27Z</time>
      </trkpt>
      <trkpt lat="46.5499" lon="4.51301">
        <ele>268.602</ele>
        <time>2020-07-06T06:22:33Z</time>
      </trkpt>
      <trkpt lat="46.54996" lon="4.51308">
        <ele>270.602</ele>
        <time>2020-07-06T06:22:38Z</time>
      </trkpt>
      <trkpt lat="46.55004" lon="4.51311">
        <ele>269.602</ele>
        <time>2020-07-06T06:22:43Z</time>
      </trkpt>
      <trkpt lat="46.55011" lon="4.51311">
        <ele>272.602</ele>
        <time>2020-07-06T06:22:48Z</time>
      </trkpt>
      <trkpt lat="46.55017" lon="4.51318">
        <ele>270.602</ele>
        <time>2020-07-06T06:22:55Z</time>
      </trkpt>
      <trkpt lat="46.55024" lon="4.51322">
        <ele>271.602</ele>
        <time>2020-07-06T06:23:01Z</time>
      </trkpt>
      <trkpt lat="46.55032" lon="4.51325">
        <ele>271.602</ele>
        <time>2020-07-06T06:23:08Z</time>
      </trkpt>
      <trkpt lat="46.55039" lon="4.51328">
        <ele>270.602</ele>
        <time>2020-07-06T06:23:15Z</time>
      </trkpt>
      <trkpt lat="46.55046" lon="4.5133">
        <ele>270.602</ele>
        <time>2020-07-06T06:23:20Z</time>
      </trkpt>
      <trkpt lat="46.55052" lon="4.51334">
        <ele>272.602</ele>
        <time>2020-07-06T06:23:27Z</time>
      </trkpt>
      <trkpt lat="46.55059" lon="4.51336">
        <ele>273.602</ele>
        <time>2020-07-06T06:23:33Z</time>
      </trkpt>
      <trkpt lat="46.55066" lon="4.5134">
        <ele>276.602</ele>
        <time>2020-07-06T06:23:39Z</time>
      </trkpt>
      <trkpt lat="46.55072" lon="4.51347">
        <ele>274.602</ele>
        <time>2020-07-06T06:23:46Z</time>
      </trkpt>
      <trkpt lat="46.55075" lon="4.51355">
        <ele>274.602</ele>
        <time>2020-07-06T06:24:14Z</time>
      </trkpt>
      <trkpt lat="46.55081" lon="4.51361">
        <ele>275.602</ele>
        <time>2020-07-06T06:24:28Z</time>
      </trkpt>
      <trkpt lat="46.55087" lon="4.51366">
        <ele>277.602</ele>
        <time>2020-07-06T06:24:34Z</time>
      </trkpt>
      <trkpt lat="46.55094" lon="4.51367">
        <ele>276.603</ele>
        <time>2020-07-06T06:24:40Z</time>
      </trkpt>
      <trkpt lat="46.55101" lon="4.5137">
        <ele>275.603</ele>
        <time>2020-07-06T06:24:47Z</time>
      </trkpt>
      <trkpt lat="46.55109" lon="4.51373">
        <ele>274.603</ele>
        <time>2020-07-06T06:24:58Z</time>
      </trkpt>
      <trkpt lat="46.55117" lon="4.51372">
        <ele>273.603</ele>
        <time>2020-07-06T06:25:03Z</time>
      </trkpt>
      <trkpt lat="46.55123" lon="4.51376">
        <ele>275.603</ele>
        <time>2020-07-06T06:25:09Z</time>
      </trkpt>
      <trkpt lat="46.55132" lon="4.51377">
        <ele>276.603</ele>
        <time>2020-07-06T06:25:14Z</time>
      </trkpt>
      <trkpt lat="46.55138" lon="4.51381">
        <ele>277.603</ele>
        <time>2020-07-06T06:25:20Z</time>
      </trkpt>
      <trkpt lat="46.55144" lon="4.51385">
        <ele>275.603</ele>
        <time>2020-07-06T06:25:27Z</time>
      </trkpt>
      <trkpt lat="46.55151" lon="4.51389">
        <ele>275.603</ele>
        <time>2020-07-06T06:25:33Z</time>
      </trkpt>
      <trkpt lat="46.55158" lon="4.51392">
        <ele>273.603</ele>
        <time>2020-07-06T06:25:39Z</time>
      </trkpt>
      <trkpt lat="46.55165" lon="4.51395">
        <ele>274.603</ele>
        <time>2020-07-06T06:25:44Z</time>
      </trkpt>
      <trkpt lat="46.55172" lon="4.51396">
        <ele>276.603</ele>
        <time>2020-07-06T06:25:50Z</time>
      </trkpt>
      <trkpt lat="46.55179" lon="4.51399">
        <ele>274.603</ele>
        <time>2020-07-06T06:25:57Z</time>
      </trkpt>
      <trkpt lat="46.55185" lon="4.514">
        <ele>273.603</ele>
        <time>2020-07-06T06:26:04Z</time>
      </trkpt>
      <trkpt lat="46.55192" lon="4.51398">
        <ele>275.603</ele>
        <time>2020-07-06T06:26:09Z</time>
      </trkpt>
      <trkpt lat="46.55198" lon="4.514">
        <ele>276.603</ele>
        <time>2020-07-06T06:26:14Z</time>
      </trkpt>
      <trkpt lat="46.55207" lon="4.51399">
        <ele>273.603</ele>
        <time>2020-07-06T06:26:19Z</time>
      </trkpt>
      <trkpt lat="46.55214" lon="4.51404">
        <ele>272.603</ele>
        <time>2020-07-06T06:26:25Z</time>
      </trkpt>
      <trkpt lat="46.5522" lon="4.51407">
        <ele>270.603</ele>
        <time>2020-07-06T06:26:30Z</time>
      </trkpt>
      <trkpt lat="46.55227" lon="4.5141">
        <ele>270.603</ele>
        <time>2020-07-06T06:26:37Z</time>
      </trkpt>
      <trkpt lat="46.55234" lon="4.51415">
        <ele>272.603</ele>
        <time>2020-07-06T06:26:42Z</time>
      </trkpt>
      <trkpt lat="46.5524" lon="4.51419">
        <ele>272.603</ele>
        <time>2020-07-06T06:26:48Z</time>
      </trkpt>
      <trkpt lat="46.55246" lon="4.51424">
        <ele>271.603</ele>
        <time>2020-07-06T06:26:53Z</time>
      </trkpt>
      <trkpt lat="46.55252" lon="4.51428">
        <ele>272.603</ele>
        <time>2020-07-06T06:26:59Z</time>
      </trkpt>
      <trkpt lat="46.55258" lon="4.51434">
        <ele>273.603</ele>
        <time>2020-07-06T06:27:07Z</time>
      </trkpt>
      <trkpt lat="46.55265" lon="4.51438">
        <ele>274.603</ele>
        <time>2020-07-06T06:27:12Z</time>
      </trkpt>
      <trkpt lat="46.55272" lon="4.51443">
        <ele>274.603</ele>
        <time>2020-07-06T06:27:17Z</time>
      </trkpt>
      <trkpt lat="46.55278" lon="4.51447">
        <ele>272.603</ele>
        <time>2020-07-06T06:27:22Z</time>
      </trkpt>
      <trkpt lat="46.55284" lon="4.51453">
        <ele>273.603</ele>
        <time>2020-07-06T06:27:29Z</time>
      </trkpt>
      <trkpt lat="46.5529" lon="4.51461">
        <ele>275.603</ele>
        <time>2020-07-06T06:27:35Z</time>
      </trkpt>
      <trkpt lat="46.55296" lon="4.51465">
        <ele>274.603</ele>
        <time>2020-07-06T06:27:40Z</time>
      </trkpt>
      <trkpt lat="46.55303" lon="4.51467">
        <ele>269.603</ele>
        <time>2020-07-06T06:27:46Z</time>
      </trkpt>
      <trkpt lat="46.55309" lon="4.51469">
        <ele>270.603</ele>
        <time>2020-07-06T06:27:51Z</time>
      </trkpt>
      <trkpt lat="46.55316" lon="4.51469">
        <ele>270.603</ele>
        <time>2020-07-06T06:27:57Z</time>
      </trkpt>
      <trkpt lat="46.55323" lon="4.51473">
        <ele>275.603</ele>
        <time>2020-07-06T06:28:03Z</time>
      </trkpt>
      <trkpt lat="46.55331" lon="4.51475">
        <ele>275.603</ele>
        <time>2020-07-06T06:28:08Z</time>
      </trkpt>
      <trkpt lat="46.55331" lon="4.51485">
        <ele>271.603</ele>
        <time>2020-07-06T06:28:14Z</time>
      </trkpt>
      <trkpt lat="46.55328" lon="4.51495">
        <ele>271.603</ele>
        <time>2020-07-06T06:28:20Z</time>
      </trkpt>
      <trkpt lat="46.55328" lon="4.51505">
        <ele>271.603</ele>
        <time>2020-07-06T06:28:26Z</time>
      </trkpt>
      <trkpt lat="46.55325" lon="4.51516">
        <ele>273.603</ele>
        <time>2020-07-06T06:28:31Z</time>
      </trkpt>
      <trkpt lat="46.55322" lon="4.51528">
        <ele>273.603</ele>
        <time>2020-07-06T06:28:36Z</time>
      </trkpt>
      <trkpt lat="46.55322" lon="4.51537">
        <ele>269.603</ele>
        <time>2020-07-06T06:28:41Z</time>
      </trkpt>
      <trkpt lat="46.55322" lon="4.51548">
        <ele>269.603</ele>
        <time>2020-07-06T06:28:46Z</time>
      </trkpt>
      <trkpt lat="46.55324" lon="4.51558">
        <ele>267.603</ele>
        <time>2020-07-06T06:28:51Z</time>
      </trkpt>
      <trkpt lat="46.55317" lon="4.51566">
        <ele>269.603</ele>
        <time>2020-07-06T06:28:56Z</time>
      </trkpt>
      <trkpt lat="46.55314" lon="4.51575">
        <ele>272.603</ele>
        <time>2020-07-06T06:29:01Z</time>
      </trkpt>
      <trkpt lat="46.55314" lon="4.51587">
        <ele>271.603</ele>
        <time>2020-07-06T06:29:06Z</time>
      </trkpt>
      <trkpt lat="46.55312" lon="4.51599">
        <ele>272.603</ele>
        <time>2020-07-06T06:29:11Z</time>
      </trkpt>
      <trkpt lat="46.55307" lon="4.51611">
        <ele>274.603</ele>
        <time>2020-07-06T06:29:16Z</time>
      </trkpt>
      <trkpt lat="46.55307" lon="4.51621">
        <ele>276.603</ele>
        <time>2020-07-06T06:29:22Z</time>
      </trkpt>
      <trkpt lat="46.55304" lon="4.51631">
        <ele>275.603</ele>
        <time>2020-07-06T06:29:28Z</time>
      </trkpt>
      <trkpt lat="46.55302" lon="4.51644">
        <ele>273.603</ele>
        <time>2020-07-06T06:29:33Z</time>
      </trkpt>
      <trkpt lat="46.55301" lon="4.51655">
        <ele>274.603</ele>
        <time>2020-07-06T06:29:39Z</time>
      </trkpt>
      <trkpt lat="46.55299" lon="4.51664">
        <ele>271.603</ele>
        <time>2020-07-06T06:29:44Z</time>
      </trkpt>
      <trkpt lat="46.55297" lon="4.51674">
        <ele>267.603</ele>
        <time>2020-07-06T06:29:50Z</time>
      </trkpt>
      <trkpt lat="46.55297" lon="4.51685">
        <ele>266.603</ele>
        <time>2020-07-06T06:29:55Z</time>
      </trkpt>
      <trkpt lat="46.55295" lon="4.51695">
        <ele>269.603</ele>
        <time>2020-07-06T06:30:00Z</time>
      </trkpt>
      <trkpt lat="46.55294" lon="4.51705">
        <ele>268.603</ele>
        <time>2020-07-06T06:30:05Z</time>
      </trkpt>
      <trkpt lat="46.55292" lon="4.51716">
        <ele>268.603</ele>
        <time>2020-07-06T06:30:10Z</time>
      </trkpt>
      <trkpt lat="46.55291" lon="4.51727">
        <ele>268.603</ele>
        <time>2020-07-06T06:30:15Z</time>
      </trkpt>
      <trkpt lat="46.55289" lon="4.51737">
        <ele>270.603</ele>
        <time>2020-07-06T06:30:20Z</time>
      </trkpt>
      <trkpt lat="46.55288" lon="4.51748">
        <ele>269.603</ele>
        <time>2020-07-06T06:30:25Z</time>
      </trkpt>
      <trkpt lat="46.55286" lon="4.51758">
        <ele>271.603</ele>
        <time>2020-07-06T06:30:30Z</time>
      </trkpt>
      <trkpt lat="46.55285" lon="4.51769">
        <ele>268.603</ele>
        <time>2020-07-06T06:30:35Z</time>
      </trkpt>
      <trkpt lat="46.55283" lon="4.51779">
        <ele>268.603</ele>
        <time>2020-07-06T06:30:41Z</time>
      </trkpt>
      <trkpt lat="46.55284" lon="4.51789">
        <ele>266.603</ele>
        <time>2020-07-06T06:30:46Z</time>
      </trkpt>
      <trkpt lat="46.55282" lon="4.51802">
        <ele>267.603</ele>
        <time>2020-07-06T06:30:51Z</time>
      </trkpt>
      <trkpt lat="46.55279" lon="4.51811">
        <ele>268.603</ele>
        <time>2020-07-06T06:30:57Z</time>
      </trkpt>
      <trkpt lat="46.55277" lon="4.51822">
        <ele>265.603</ele>
        <time>2020-07-06T06:31:02Z</time>
      </trkpt>
      <trkpt lat="46.55276" lon="4.51833">
        <ele>266.603</ele>
        <time>2020-07-06T06:31:08Z</time>
      </trkpt>
      <trkpt lat="46.55275" lon="4.51843">
        <ele>266.603</ele>
        <time>2020-07-06T06:31:13Z</time>
      </trkpt>
      <trkpt lat="46.55275" lon="4.51852">
        <ele>268.603</ele>
        <time>2020-07-06T06:31:18Z</time>
      </trkpt>
      <trkpt lat="46.55272" lon="4.51863">
        <ele>267.603</ele>
        <time>2020-07-06T06:31:23Z</time>
      </trkpt>
      <trkpt lat="46.55272" lon="4.51874">
        <ele>269.603</ele>
        <time>2020-07-06T06:31:28Z</time>
      </trkpt>
      <trkpt lat="46.55272" lon="4.51884">
        <ele>267.603</ele>
        <time>2020-07-06T06:31:36Z</time>
      </trkpt>
      <trkpt lat="46.5527" lon="4.51894">
        <ele>269.603</ele>
        <time>2020-07-06T06:31:41Z</time>
      </trkpt>
      <trkpt lat="46.55269" lon="4.51905">
        <ele>269.603</ele>
        <time>2020-07-06T06:31:46Z</time>
      </trkpt>
      <trkpt lat="46.55269" lon="4.51917">
        <ele>269.603</ele>
        <time>2020-07-06T06:31:51Z</time>
      </trkpt>
      <trkpt lat="46.55266" lon="4.51928">
        <ele>271.603</ele>
        <time>2020-07-06T06:31:58Z</time>
      </trkpt>
      <trkpt lat="46.55266" lon="4.51938">
        <ele>272.603</ele>
        <time>2020-07-06T06:32:03Z</time>
      </trkpt>
      <trkpt lat="46.55262" lon="4.51952">
        <ele>274.603</ele>
        <time>2020-07-06T06:32:08Z</time>
      </trkpt>
      <trkpt lat="46.55262" lon="4.51961">
        <ele>276.603</ele>
        <time>2020-07-06T06:32:14Z</time>
      </trkpt>
      <trkpt lat="46.5526" lon="4.51972">
        <ele>273.603</ele>
        <time>2020-07-06T06:32:19Z</time>
      </trkpt>
      <trkpt lat="46.55259" lon="4.51981">
        <ele>271.603</ele>
        <time>2020-07-06T06:32:24Z</time>
      </trkpt>
      <trkpt lat="46.55258" lon="4.51993">
        <ele>272.603</ele>
        <time>2020-07-06T06:32:30Z</time>
      </trkpt>
      <trkpt lat="46.55257" lon="4.52003">
        <ele>277.603</ele>
        <time>2020-07-06T06:32:37Z</time>
      </trkpt>
      <trkpt lat="46.55251" lon="4.52015">
        <ele>271.603</ele>
        <time>2020-07-06T06:32:42Z</time>
      </trkpt>
      <trkpt lat="46.55248" lon="4.52027">
        <ele>268.603</ele>
        <time>2020-07-06T06:32:47Z</time>
      </trkpt>
      <trkpt lat="46.5525" lon="4.52038">
        <ele>268.603</ele>
        <time>2020-07-06T06:32:52Z</time>
      </trkpt>
      <trkpt lat="46.55248" lon="4.52047">
        <ele>263.603</ele>
        <time>2020-07-06T06:32:58Z</time>
      </trkpt>
      <trkpt lat="46.55245" lon="4.52057">
        <ele>263.603</ele>
        <time>2020-07-06T06:33:03Z</time>
      </trkpt>
      <trkpt lat="46.55244" lon="4.52068">
        <ele>260.603</ele>
        <time>2020-07-06T06:33:08Z</time>
      </trkpt>
      <trkpt lat="46.55244" lon="4.52078">
        <ele>256.603</ele>
        <time>2020-07-06T06:33:15Z</time>
      </trkpt>
      <trkpt lat="46.55242" lon="4.52089">
        <ele>255.603</ele>
        <time>2020-07-06T06:33:20Z</time>
      </trkpt>
      <trkpt lat="46.55244" lon="4.52099">
        <ele>255.603</ele>
        <time>2020-07-06T06:33:25Z</time>
      </trkpt>
      <trkpt lat="46.55245" lon="4.52109">
        <ele>257.603</ele>
        <time>2020-07-06T06:33:30Z</time>
      </trkpt>
      <trkpt lat="46.55247" lon="4.52119">
        <ele>256.603</ele>
        <time>2020-07-06T06:33:36Z</time>
      </trkpt>
      <trkpt lat="46.55248" lon="4.52133">
        <ele>255.603</ele>
        <time>2020-07-06T06:33:41Z</time>
      </trkpt>
      <trkpt lat="46.55249" lon="4.52144">
        <ele>254.603</ele>
        <time>2020-07-06T06:33:46Z</time>
      </trkpt>
      <trkpt lat="46.55248" lon="4.52157">
        <ele>255.603</ele>
        <time>2020-07-06T06:33:51Z</time>
      </trkpt>
      <trkpt lat="46.55244" lon="4.52169">
        <ele>258.603</ele>
        <time>2020-07-06T06:33:56Z</time>
      </trkpt>
      <trkpt lat="46.55244" lon="4.52182">
        <ele>259.604</ele>
        <time>2020-07-06T06:34:01Z</time>
      </trkpt>
      <trkpt lat="46.55244" lon="4.52193">
        <ele>261.604</ele>
        <time>2020-07-06T06:34:06Z</time>
      </trkpt>
      <trkpt lat="46.55245" lon="4.52204">
        <ele>258.604</ele>
        <time>2020-07-06T06:34:11Z</time>
      </trkpt>
      <trkpt lat="46.55245" lon="4.52216">
        <ele>257.604</ele>
        <time>2020-07-06T06:34:16Z</time>
      </trkpt>
      <trkpt lat="46.55244" lon="4.52226">
        <ele>260.604</ele>
        <time>2020-07-06T06:34:21Z</time>
      </trkpt>
      <trkpt lat="46.55244" lon="4.52237">
        <ele>262.604</ele>
        <time>2020-07-06T06:34:26Z</time>
      </trkpt>
      <trkpt lat="46.55245" lon="4.52249">
        <ele>260.604</ele>
        <time>2020-07-06T06:34:31Z</time>
      </trkpt>
      <trkpt lat="46.55242" lon="4.5226">
        <ele>261.604</ele>
        <time>2020-07-06T06:34:36Z</time>
      </trkpt>
      <trkpt lat="46.55243" lon="4.52271">
        <ele>262.604</ele>
        <time>2020-07-06T06:34:41Z</time>
      </trkpt>
      <trkpt lat="46.55244" lon="4.52282">
        <ele>261.604</ele>
        <time>2020-07-06T06:34:46Z</time>
      </trkpt>
      <trkpt lat="46.55244" lon="4.52293">
        <ele>261.604</ele>
        <time>2020-07-06T06:34:51Z</time>
      </trkpt>
      <trkpt lat="46.55243" lon="4.52304">
        <ele>264.604</ele>
        <time>2020-07-06T06:34:56Z</time>
      </trkpt>
      <trkpt lat="46.55244" lon="4.52314">
        <ele>262.604</ele>
        <time>2020-07-06T06:35:02Z</time>
      </trkpt>
      <trkpt lat="46.55243" lon="4.52324">
        <ele>263.604</ele>
        <time>2020-07-06T06:35:07Z</time>
      </trkpt>
      <trkpt lat="46.55245" lon="4.52335">
        <ele>262.604</ele>
        <time>2020-07-06T06:35:13Z</time>
      </trkpt>
      <trkpt lat="46.55244" lon="4.52347">
        <ele>262.604</ele>
        <time>2020-07-06T06:35:18Z</time>
      </trkpt>
      <trkpt lat="46.55244" lon="4.52359">
        <ele>264.604</ele>
        <time>2020-07-06T06:35:24Z</time>
      </trkpt>
      <trkpt lat="46.55241" lon="4.52371">
        <ele>267.604</ele>
        <time>2020-07-06T06:35:29Z</time>
      </trkpt>
      <trkpt lat="46.55239" lon="4.52381">
        <ele>267.604</ele>
        <time>2020-07-06T06:35:35Z</time>
      </trkpt>
      <trkpt lat="46.55244" lon="4.5239">
        <ele>267.604</ele>
        <time>2020-07-06T06:35:40Z</time>
      </trkpt>
      <trkpt lat="46.55251" lon="4.52391">
        <ele>264.604</ele>
        <time>2020-07-06T06:35:47Z</time>
      </trkpt>
      <trkpt lat="46.55259" lon="4.52392">
        <ele>261.604</ele>
        <time>2020-07-06T06:35:54Z</time>
      </trkpt>
      <trkpt lat="46.55265" lon="4.52397">
        <ele>259.604</ele>
        <time>2020-07-06T06:36:01Z</time>
      </trkpt>
      <trkpt lat="46.55267" lon="4.52409">
        <ele>257.604</ele>
        <time>2020-07-06T06:36:08Z</time>
      </trkpt>
      <trkpt lat="46.5527" lon="4.5242">
        <ele>255.604</ele>
        <time>2020-07-06T06:36:15Z</time>
      </trkpt>
      <trkpt lat="46.5527" lon="4.5243">
        <ele>254.604</ele>
        <time>2020-07-06T06:36:20Z</time>
      </trkpt>
      <trkpt lat="46.55269" lon="4.5244">
        <ele>253.604</ele>
        <time>2020-07-06T06:36:25Z</time>
      </trkpt>
      <trkpt lat="46.55271" lon="4.52452">
        <ele>255.604</ele>
        <time>2020-07-06T06:36:30Z</time>
      </trkpt>
      <trkpt lat="46.55271" lon="4.52462">
        <ele>256.604</ele>
        <time>2020-07-06T06:36:37Z</time>
      </trkpt>
      <trkpt lat="46.55273" lon="4.52474">
        <ele>258.604</ele>
        <time>2020-07-06T06:36:42Z</time>
      </trkpt>
      <trkpt lat="46.55272" lon="4.52486">
        <ele>258.604</ele>
        <time>2020-07-06T06:36:48Z</time>
      </trkpt>
      <trkpt lat="46.55271" lon="4.52495">
        <ele>257.604</ele>
        <time>2020-07-06T06:36:53Z</time>
      </trkpt>
      <trkpt lat="46.55267" lon="4.52505">
        <ele>255.604</ele>
        <time>2020-07-06T06:36:58Z</time>
      </trkpt>
      <trkpt lat="46.55266" lon="4.52515">
        <ele>257.604</ele>
        <time>2020-07-06T06:37:03Z</time>
      </trkpt>
      <trkpt lat="46.55268" lon="4.52526">
        <ele>257.604</ele>
        <time>2020-07-06T06:37:09Z</time>
      </trkpt>
      <trkpt lat="46.55267" lon="4.5254">
        <ele>260.604</ele>
        <time>2020-07-06T06:37:14Z</time>
      </trkpt>
      <trkpt lat="46.55268" lon="4.52552">
        <ele>261.604</ele>
        <time>2020-07-06T06:37:19Z</time>
      </trkpt>
      <trkpt lat="46.55268" lon="4.52563">
        <ele>265.604</ele>
        <time>2020-07-06T06:37:25Z</time>
      </trkpt>
      <trkpt lat="46.55267" lon="4.52572">
        <ele>262.604</ele>
        <time>2020-07-06T06:37:31Z</time>
      </trkpt>
      <trkpt lat="46.55264" lon="4.52583">
        <ele>259.604</ele>
        <time>2020-07-06T06:37:37Z</time>
      </trkpt>
      <trkpt lat="46.55265" lon="4.52593">
        <ele>259.604</ele>
        <time>2020-07-06T06:37:42Z</time>
      </trkpt>
      <trkpt lat="46.55267" lon="4.52602">
        <ele>258.604</ele>
        <time>2020-07-06T06:37:48Z</time>
      </trkpt>
      <trkpt lat="46.55269" lon="4.52613">
        <ele>256.604</ele>
        <time>2020-07-06T06:37:54Z</time>
      </trkpt>
      <trkpt lat="46.55271" lon="4.52622">
        <ele>250.604</ele>
        <time>2020-07-06T06:37:59Z</time>
      </trkpt>
      <trkpt lat="46.55269" lon="4.52632">
        <ele>251.604</ele>
        <time>2020-07-06T06:38:05Z</time>
      </trkpt>
      <trkpt lat="46.55266" lon="4.52645">
        <ele>253.604</ele>
        <time>2020-07-06T06:38:10Z</time>
      </trkpt>
      <trkpt lat="46.55266" lon="4.52656">
        <ele>253.604</ele>
        <time>2020-07-06T06:38:15Z</time>
      </trkpt>
      <trkpt lat="46.55268" lon="4.52668">
        <ele>253.604</ele>
        <time>2020-07-06T06:38:20Z</time>
      </trkpt>
      <trkpt lat="46.5527" lon="4.52681">
        <ele>254.604</ele>
        <time>2020-07-06T06:38:25Z</time>
      </trkpt>
      <trkpt lat="46.5527" lon="4.52691">
        <ele>252.604</ele>
        <time>2020-07-06T06:38:32Z</time>
      </trkpt>
      <trkpt lat="46.5527" lon="4.52704">
        <ele>250.604</ele>
        <time>2020-07-06T06:38:37Z</time>
      </trkpt>
      <trkpt lat="46.55271" lon="4.52714">
        <ele>249.604</ele>
        <time>2020-07-06T06:38:42Z</time>
      </trkpt>
      <trkpt lat="46.55272" lon="4.52723">
        <ele>248.604</ele>
        <time>2020-07-06T06:38:47Z</time>
      </trkpt>
      <trkpt lat="46.55269" lon="4.52733">
        <ele>249.604</ele>
        <time>2020-07-06T06:38:52Z</time>
      </trkpt>
      <trkpt lat="46.5527" lon="4.52744">
        <ele>249.604</ele>
        <time>2020-07-06T06:38:58Z</time>
      </trkpt>
      <trkpt lat="46.55271" lon="4.52755">
        <ele>247.604</ele>
        <time>2020-07-06T06:39:03Z</time>
      </trkpt>
      <trkpt lat="46.5527" lon="4.52768">
        <ele>252.604</ele>
        <time>2020-07-06T06:39:08Z</time>
      </trkpt>
      <trkpt lat="46.55271" lon="4.52779">
        <ele>254.604</ele>
        <time>2020-07-06T06:39:14Z</time>
      </trkpt>
      <trkpt lat="46.5527" lon="4.52791">
        <ele>255.604</ele>
        <time>2020-07-06T06:39:19Z</time>
      </trkpt>
      <trkpt lat="46.55269" lon="4.52803">
        <ele>259.604</ele>
        <time>2020-07-06T06:39:24Z</time>
      </trkpt>
      <trkpt lat="46.55269" lon="4.52813">
        <ele>258.604</ele>
        <time>2020-07-06T06:39:29Z</time>
      </trkpt>
      <trkpt lat="46.55269" lon="4.52822">
        <ele>257.604</ele>
        <time>2020-07-06T06:39:35Z</time>
      </trkpt>
      <trkpt lat="46.55268" lon="4.52832">
        <ele>255.604</ele>
        <time>2020-07-06T06:39:40Z</time>
      </trkpt>
      <trkpt lat="46.55268" lon="4.52843">
        <ele>254.604</ele>
        <time>2020-07-06T06:39:45Z</time>
      </trkpt>
      <trkpt lat="46.55268" lon="4.52854">
        <ele>258.604</ele>
        <time>2020-07-06T06:39:50Z</time>
      </trkpt>
      <trkpt lat="46.55265" lon="4.52864">
        <ele>258.604</ele>
        <time>2020-07-06T06:39:55Z</time>
      </trkpt>
      <trkpt lat="46.55267" lon="4.52876">
        <ele>259.604</ele>
        <time>2020-07-06T06:40:00Z</time>
      </trkpt>
      <trkpt lat="46.55265" lon="4.52886">
        <ele>259.604</ele>
        <time>2020-07-06T06:40:07Z</time>
      </trkpt>
      <trkpt lat="46.55268" lon="4.52896">
        <ele>257.604</ele>
        <time>2020-07-06T06:40:12Z</time>
      </trkpt>
      <trkpt lat="46.55274" lon="4.52908">
        <ele>254.604</ele>
        <time>2020-07-06T06:40:17Z</time>
      </trkpt>
      <trkpt lat="46.55272" lon="4.52918">
        <ele>251.604</ele>
        <time>2020-07-06T06:40:23Z</time>
      </trkpt>
      <trkpt lat="46.55275" lon="4.52928">
        <ele>249.604</ele>
        <time>2020-07-06T06:40:29Z</time>
      </trkpt>
      <trkpt lat="46.55273" lon="4.52938">
        <ele>250.604</ele>
        <time>2020-07-06T06:40:34Z</time>
      </trkpt>
      <trkpt lat="46.55272" lon="4.52948">
        <ele>251.604</ele>
        <time>2020-07-06T06:40:39Z</time>
      </trkpt>
      <trkpt lat="46.55272" lon="4.52957">
        <ele>252.604</ele>
        <time>2020-07-06T06:40:44Z</time>
      </trkpt>
      <trkpt lat="46.55272" lon="4.52967">
        <ele>253.604</ele>
        <time>2020-07-06T06:40:49Z</time>
      </trkpt>
      <trkpt lat="46.5527" lon="4.52978">
        <ele>253.604</ele>
        <time>2020-07-06T06:40:55Z</time>
      </trkpt>
      <trkpt lat="46.5527" lon="4.52988">
        <ele>251.604</ele>
        <time>2020-07-06T06:41:00Z</time>
      </trkpt>
      <trkpt lat="46.55271" lon="4.52999">
        <ele>253.604</ele>
        <time>2020-07-06T06:41:06Z</time>
      </trkpt>
      <trkpt lat="46.55273" lon="4.53008">
        <ele>252.604</ele>
        <time>2020-07-06T06:41:11Z</time>
      </trkpt>
      <trkpt lat="46.55272" lon="4.53019">
        <ele>251.604</ele>
        <time>2020-07-06T06:41:17Z</time>
      </trkpt>
      <trkpt lat="46.55271" lon="4.5303">
        <ele>250.604</ele>
        <time>2020-07-06T06:41:22Z</time>
      </trkpt>
      <trkpt lat="46.5527" lon="4.53041">
        <ele>251.604</ele>
        <time>2020-07-06T06:41:27Z</time>
      </trkpt>
      <trkpt lat="46.5527" lon="4.53051">
        <ele>249.604</ele>
        <time>2020-07-06T06:41:33Z</time>
      </trkpt>
      <trkpt lat="46.55272" lon="4.53063">
        <ele>248.604</ele>
        <time>2020-07-06T06:41:39Z</time>
      </trkpt>
      <trkpt lat="46.5527" lon="4.53072">
        <ele>247.604</ele>
        <time>2020-07-06T06:41:45Z</time>
      </trkpt>
      <trkpt lat="46.55272" lon="4.53081">
        <ele>247.604</ele>
        <time>2020-07-06T06:41:50Z</time>
      </trkpt>
      <trkpt lat="46.55271" lon="4.53092">
        <ele>244.604</ele>
        <time>2020-07-06T06:41:56Z</time>
      </trkpt>
      <trkpt lat="46.55272" lon="4.53102">
        <ele>246.604</ele>
        <time>2020-07-06T06:42:04Z</time>
      </trkpt>
      <trkpt lat="46.5527" lon="4.53113">
        <ele>245.604</ele>
        <time>2020-07-06T06:42:09Z</time>
      </trkpt>
      <trkpt lat="46.5527" lon="4.53122">
        <ele>246.604</ele>
        <time>2020-07-06T06:42:14Z</time>
      </trkpt>
      <trkpt lat="46.5527" lon="4.53132">
        <ele>243.604</ele>
        <time>2020-07-06T06:42:20Z</time>
      </trkpt>
      <trkpt lat="46.55272" lon="4.53142">
        <ele>244.604</ele>
        <time>2020-07-06T06:42:26Z</time>
      </trkpt>
      <trkpt lat="46.55271" lon="4.53153">
        <ele>243.604</ele>
        <time>2020-07-06T06:42:32Z</time>
      </trkpt>
      <trkpt lat="46.55271" lon="4.53166">
        <ele>245.604</ele>
        <time>2020-07-06T06:42:37Z</time>
      </trkpt>
      <trkpt lat="46.55271" lon="4.53178">
        <ele>250.604</ele>
        <time>2020-07-06T06:42:42Z</time>
      </trkpt>
      <trkpt lat="46.55269" lon="4.53188">
        <ele>251.604</ele>
        <time>2020-07-06T06:42:48Z</time>
      </trkpt>
      <trkpt lat="46.55268" lon="4.53198">
        <ele>248.604</ele>
        <time>2020-07-06T06:42:53Z</time>
      </trkpt>
      <trkpt lat="46.55267" lon="4.5321">
        <ele>246.604</ele>
        <time>2020-07-06T06:42:58Z</time>
      </trkpt>
      <trkpt lat="46.55268" lon="4.5322">
        <ele>245.604</ele>
        <time>2020-07-06T06:43:05Z</time>
      </trkpt>
      <trkpt lat="46.55273" lon="4.53228">
        <ele>246.604</ele>
        <time>2020-07-06T06:43:11Z</time>
      </trkpt>
      <trkpt lat="46.55275" lon="4.53237">
        <ele>247.604</ele>
        <time>2020-07-06T06:43:18Z</time>
      </trkpt>
      <trkpt lat="46.55277" lon="4.53247">
        <ele>246.604</ele>
        <time>2020-07-06T06:43:23Z</time>
      </trkpt>
      <trkpt lat="46.55276" lon="4.5326">
        <ele>240.604</ele>
        <time>2020-07-06T06:43:28Z</time>
      </trkpt>
      <trkpt lat="46.5528" lon="4.5327">
        <ele>240.604</ele>
        <time>2020-07-06T06:43:33Z</time>
      </trkpt>
      <trkpt lat="46.55278" lon="4.53281">
        <ele>245.604</ele>
        <time>2020-07-06T06:43:39Z</time>
      </trkpt>
      <trkpt lat="46.55277" lon="4.53292">
        <ele>248.604</ele>
        <time>2020-07-06T06:43:44Z</time>
      </trkpt>
      <trkpt lat="46.55275" lon="4.53303">
        <ele>249.604</ele>
        <time>2020-07-06T06:43:49Z</time>
      </trkpt>
      <trkpt lat="46.55272" lon="4.53317">
        <ele>249.604</ele>
        <time>2020-07-06T06:43:54Z</time>
      </trkpt>
      <trkpt lat="46.55268" lon="4.53332">
        <ele>250.604</ele>
        <time>2020-07-06T06:43:59Z</time>
      </trkpt>
      <trkpt lat="46.55268" lon="4.53343">
        <ele>250.604</ele>
        <time>2020-07-06T06:44:05Z</time>
      </trkpt>
      <trkpt lat="46.55268" lon="4.53354">
        <ele>250.604</ele>
        <time>2020-07-06T06:44:10Z</time>
      </trkpt>
      <trkpt lat="46.55265" lon="4.53365">
        <ele>249.604</ele>
        <time>2020-07-06T06:44:15Z</time>
      </trkpt>
      <trkpt lat="46.55264" lon="4.53375">
        <ele>249.604</ele>
        <time>2020-07-06T06:44:20Z</time>
      </trkpt>
      <trkpt lat="46.55261" lon="4.53386">
        <ele>248.604</ele>
        <time>2020-07-06T06:44:26Z</time>
      </trkpt>
      <trkpt lat="46.55259" lon="4.53397">
        <ele>250.604</ele>
        <time>2020-07-06T06:44:32Z</time>
      </trkpt>
      <trkpt lat="46.55255" lon="4.53408">
        <ele>248.604</ele>
        <time>2020-07-06T06:44:38Z</time>
      </trkpt>
      <trkpt lat="46.55254" lon="4.53419">
        <ele>250.604</ele>
        <time>2020-07-06T06:44:44Z</time>
      </trkpt>
      <trkpt lat="46.5525" lon="4.53431">
        <ele>248.604</ele>
        <time>2020-07-06T06:44:49Z</time>
      </trkpt>
      <trkpt lat="46.55248" lon="4.53442">
        <ele>246.604</ele>
        <time>2020-07-06T06:44:54Z</time>
      </trkpt>
      <trkpt lat="46.55245" lon="4.53451">
        <ele>247.604</ele>
        <time>2020-07-06T06:45:00Z</time>
      </trkpt>
      <trkpt lat="46.55243" lon="4.53462">
        <ele>249.604</ele>
        <time>2020-07-06T06:45:06Z</time>
      </trkpt>
      <trkpt lat="46.5524" lon="4.53472">
        <ele>249.604</ele>
        <time>2020-07-06T06:45:12Z</time>
      </trkpt>
      <trkpt lat="46.55236" lon="4.53479">
        <ele>248.604</ele>
        <time>2020-07-06T06:45:17Z</time>
      </trkpt>
      <trkpt lat="46.5523" lon="4.53484">
        <ele>247.604</ele>
        <time>2020-07-06T06:45:22Z</time>
      </trkpt>
      <trkpt lat="46.5523" lon="4.53494">
        <ele>249.604</ele>
        <time>2020-07-06T06:45:28Z</time>
      </trkpt>
      <trkpt lat="46.55224" lon="4.53503">
        <ele>249.604</ele>
        <time>2020-07-06T06:45:34Z</time>
      </trkpt>
      <trkpt lat="46.55221" lon="4.53511">
        <ele>250.604</ele>
        <time>2020-07-06T06:45:41Z</time>
      </trkpt>
      <trkpt lat="46.55218" lon="4.5352">
        <ele>249.604</ele>
        <time>2020-07-06T06:45:46Z</time>
      </trkpt>
      <trkpt lat="46.55219" lon="4.5353">
        <ele>248.604</ele>
        <time>2020-07-06T06:45:51Z</time>
      </trkpt>
      <trkpt lat="46.5522" lon="4.5354">
        <ele>246.604</ele>
        <time>2020-07-06T06:45:58Z</time>
      </trkpt>
      <trkpt lat="46.5522" lon="4.53551">
        <ele>246.604</ele>
        <time>2020-07-06T06:46:03Z</time>
      </trkpt>
      <trkpt lat="46.55215" lon="4.53561">
        <ele>246.604</ele>
        <time>2020-07-06T06:46:08Z</time>
      </trkpt>
      <trkpt lat="46.55213" lon="4.53576">
        <ele>246.604</ele>
        <time>2020-07-06T06:46:13Z</time>
      </trkpt>
      <trkpt lat="46.5521" lon="4.53588">
        <ele>248.604</ele>
        <time>2020-07-06T06:46:18Z</time>
      </trkpt>
      <trkpt lat="46.5521" lon="4.53598">
        <ele>245.604</ele>
        <time>2020-07-06T06:46:24Z</time>
      </trkpt>
      <trkpt lat="46.5521" lon="4.5361">
        <ele>244.604</ele>
        <time>2020-07-06T06:46:29Z</time>
      </trkpt>
      <trkpt lat="46.55206" lon="4.53621">
        <ele>243.604</ele>
        <time>2020-07-06T06:46:34Z</time>
      </trkpt>
      <trkpt lat="46.55207" lon="4.53632">
        <ele>242.604</ele>
        <time>2020-07-06T06:46:39Z</time>
      </trkpt>
      <trkpt lat="46.55203" lon="4.53642">
        <ele>243.604</ele>
        <time>2020-07-06T06:46:44Z</time>
      </trkpt>
      <trkpt lat="46.552" lon="4.53653">
        <ele>246.604</ele>
        <time>2020-07-06T06:46:49Z</time>
      </trkpt>
      <trkpt lat="46.552" lon="4.53664">
        <ele>241.604</ele>
        <time>2020-07-06T06:46:56Z</time>
      </trkpt>
      <trkpt lat="46.55201" lon="4.53676">
        <ele>241.604</ele>
        <time>2020-07-06T06:47:01Z</time>
      </trkpt>
      <trkpt lat="46.55203" lon="4.53685">
        <ele>241.604</ele>
        <time>2020-07-06T06:47:06Z</time>
      </trkpt>
      <trkpt lat="46.55203" lon="4.53696">
        <ele>242.604</ele>
        <time>2020-07-06T06:47:11Z</time>
      </trkpt>
      <trkpt lat="46.55203" lon="4.53706">
        <ele>242.604</ele>
        <time>2020-07-06T06:47:16Z</time>
      </trkpt>
      <trkpt lat="46.552" lon="4.53717">
        <ele>241.604</ele>
        <time>2020-07-06T06:47:21Z</time>
      </trkpt>
      <trkpt lat="46.55205" lon="4.53725">
        <ele>242.605</ele>
        <time>2020-07-06T06:47:26Z</time>
      </trkpt>
      <trkpt lat="46.55208" lon="4.53733">
        <ele>244.605</ele>
        <time>2020-07-06T06:47:33Z</time>
      </trkpt>
      <trkpt lat="46.55206" lon="4.53743">
        <ele>244.605</ele>
        <time>2020-07-06T06:47:38Z</time>
      </trkpt>
      <trkpt lat="46.552" lon="4.53756">
        <ele>241.605</ele>
        <time>2020-07-06T06:47:43Z</time>
      </trkpt>
      <trkpt lat="46.55193" lon="4.53772">
        <ele>236.605</ele>
        <time>2020-07-06T06:47:48Z</time>
      </trkpt>
      <trkpt lat="46.55196" lon="4.5378">
        <ele>237.605</ele>
        <time>2020-07-06T06:47:53Z</time>
      </trkpt>
      <trkpt lat="46.55197" lon="4.53789">
        <ele>237.605</ele>
        <time>2020-07-06T06:47:58Z</time>
      </trkpt>
      <trkpt lat="46.55195" lon="4.53799">
        <ele>236.605</ele>
        <time>2020-07-06T06:48:04Z</time>
      </trkpt>
      <trkpt lat="46.55196" lon="4.5381">
        <ele>237.605</ele>
        <time>2020-07-06T06:48:09Z</time>
      </trkpt>
      <trkpt lat="46.55197" lon="4.53819">
        <ele>237.605</ele>
        <time>2020-07-06T06:48:14Z</time>
      </trkpt>
      <trkpt lat="46.55198" lon="4.53831">
        <ele>234.605</ele>
        <time>2020-07-06T06:48:19Z</time>
      </trkpt>
      <trkpt lat="46.55201" lon="4.5384">
        <ele>233.605</ele>
        <time>2020-07-06T06:48:25Z</time>
      </trkpt>
      <trkpt lat="46.55204" lon="4.53849">
        <ele>233.605</ele>
        <time>2020-07-06T06:48:30Z</time>
      </trkpt>
      <trkpt lat="46.55207" lon="4.53859">
        <ele>230.605</ele>
        <time>2020-07-06T06:48:37Z</time>
      </trkpt>
      <trkpt lat="46.55208" lon="4.5387">
        <ele>230.605</ele>
        <time>2020-07-06T06:48:42Z</time>
      </trkpt>
      <trkpt lat="46.55211" lon="4.53879">
        <ele>226.605</ele>
        <time>2020-07-06T06:48:48Z</time>
      </trkpt>
      <trkpt lat="46.55213" lon="4.5389">
        <ele>225.605</ele>
        <time>2020-07-06T06:48:53Z</time>
      </trkpt>
      <trkpt lat="46.55217" lon="4.53901">
        <ele>226.605</ele>
        <time>2020-07-06T06:48:58Z</time>
      </trkpt>
      <trkpt lat="46.55222" lon="4.53908">
        <ele>227.605</ele>
        <time>2020-07-06T06:49:03Z</time>
      </trkpt>
      <trkpt lat="46.55231" lon="4.53911">
        <ele>221.605</ele>
        <time>2020-07-06T06:49:08Z</time>
      </trkpt>
      <trkpt lat="46.55237" lon="4.53917">
        <ele>221.605</ele>
        <time>2020-07-06T06:49:13Z</time>
      </trkpt>
      <trkpt lat="46.55243" lon="4.5392">
        <ele>219.605</ele>
        <time>2020-07-06T06:49:19Z</time>
      </trkpt>
      <trkpt lat="46.55251" lon="4.53923">
        <ele>220.605</ele>
        <time>2020-07-06T06:49:25Z</time>
      </trkpt>
      <trkpt lat="46.55258" lon="4.53923">
        <ele>220.605</ele>
        <time>2020-07-06T06:49:30Z</time>
      </trkpt>
      <trkpt lat="46.55265" lon="4.53926">
        <ele>223.605</ele>
        <time>2020-07-06T06:49:35Z</time>
      </trkpt>
      <trkpt lat="46.55272" lon="4.53928">
        <ele>225.605</ele>
        <time>2020-07-06T06:49:40Z</time>
      </trkpt>
      <trkpt lat="46.55279" lon="4.53933">
        <ele>226.605</ele>
        <time>2020-07-06T06:49:46Z</time>
      </trkpt>
      <trkpt lat="46.55291" lon="4.53936">
        <ele>230.605</ele>
        <time>2020-07-06T06:49:51Z</time>
      </trkpt>
      <trkpt lat="46.55298" lon="4.53937">
        <ele>230.605</ele>
        <time>2020-07-06T06:49:56Z</time>
      </trkpt>
      <trkpt lat="46.55304" lon="4.5393">
        <ele>223.605</ele>
        <time>2020-07-06T06:50:01Z</time>
      </trkpt>
      <trkpt lat="46.55311" lon="4.53932">
        <ele>224.605</ele>
        <time>2020-07-06T06:50:08Z</time>
      </trkpt>
      <trkpt lat="46.55318" lon="4.53935">
        <ele>226.605</ele>
        <time>2020-07-06T06:50:15Z</time>
      </trkpt>
      <trkpt lat="46.55327" lon="4.53937">
        <ele>225.605</ele>
        <time>2020-07-06T06:50:20Z</time>
      </trkpt>
      <trkpt lat="46.55335" lon="4.53939">
        <ele>226.605</ele>
        <time>2020-07-06T06:50:27Z</time>
      </trkpt>
      <trkpt lat="46.55343" lon="4.53941">
        <ele>225.605</ele>
        <time>2020-07-06T06:50:32Z</time>
      </trkpt>
      <trkpt lat="46.55356" lon="4.53946">
        <ele>224.605</ele>
        <time>2020-07-06T06:50:37Z</time>
      </trkpt>
      <trkpt lat="46.55363" lon="4.5395">
        <ele>225.605</ele>
        <time>2020-07-06T06:50:42Z</time>
      </trkpt>
      <trkpt lat="46.5537" lon="4.53955">
        <ele>228.605</ele>
        <time>2020-07-06T06:50:48Z</time>
      </trkpt>
      <trkpt lat="46.55374" lon="4.53963">
        <ele>227.605</ele>
        <time>2020-07-06T06:50:53Z</time>
      </trkpt>
      <trkpt lat="46.55377" lon="4.53974">
        <ele>230.605</ele>
        <time>2020-07-06T06:50:59Z</time>
      </trkpt>
      <trkpt lat="46.55376" lon="4.53985">
        <ele>231.605</ele>
        <time>2020-07-06T06:51:06Z</time>
      </trkpt>
      <trkpt lat="46.55374" lon="4.53994">
        <ele>230.605</ele>
        <time>2020-07-06T06:51:11Z</time>
      </trkpt>
      <trkpt lat="46.55368" lon="4.54002">
        <ele>230.605</ele>
        <time>2020-07-06T06:51:17Z</time>
      </trkpt>
      <trkpt lat="46.55364" lon="4.54012">
        <ele>231.605</ele>
        <time>2020-07-06T06:51:23Z</time>
      </trkpt>
      <trkpt lat="46.55363" lon="4.54022">
        <ele>233.605</ele>
        <time>2020-07-06T06:51:28Z</time>
      </trkpt>
      <trkpt lat="46.5536" lon="4.54032">
        <ele>230.605</ele>
        <time>2020-07-06T06:51:33Z</time>
      </trkpt>
      <trkpt lat="46.55358" lon="4.54042">
        <ele>229.605</ele>
        <time>2020-07-06T06:51:39Z</time>
      </trkpt>
      <trkpt lat="46.5535" lon="4.54057">
        <ele>221.605</ele>
        <time>2020-07-06T06:51:44Z</time>
      </trkpt>
      <trkpt lat="46.55351" lon="4.54066">
        <ele>223.605</ele>
        <time>2020-07-06T06:51:49Z</time>
      </trkpt>
      <trkpt lat="46.55351" lon="4.54077">
        <ele>228.605</ele>
        <time>2020-07-06T06:51:54Z</time>
      </trkpt>
      <trkpt lat="46.55351" lon="4.54087">
        <ele>228.605</ele>
        <time>2020-07-06T06:51:59Z</time>
      </trkpt>
      <trkpt lat="46.55353" lon="4.54098">
        <ele>228.605</ele>
        <time>2020-07-06T06:52:04Z</time>
      </trkpt>
      <trkpt lat="46.55356" lon="4.54109">
        <ele>230.605</ele>
        <time>2020-07-06T06:52:09Z</time>
      </trkpt>
      <trkpt lat="46.55359" lon="4.5412">
        <ele>228.605</ele>
        <time>2020-07-06T06:52:15Z</time>
      </trkpt>
      <trkpt lat="46.55363" lon="4.5413">
        <ele>228.605</ele>
        <time>2020-07-06T06:52:20Z</time>
      </trkpt>
      <trkpt lat="46.55366" lon="4.54139">
        <ele>228.605</ele>
        <time>2020-07-06T06:52:26Z</time>
      </trkpt>
      <trkpt lat="46.55369" lon="4.54148">
        <ele>231.605</ele>
        <time>2020-07-06T06:52:31Z</time>
      </trkpt>
      <trkpt lat="46.55373" lon="4.54156">
        <ele>231.605</ele>
        <time>2020-07-06T06:52:37Z</time>
      </trkpt>
      <trkpt lat="46.55376" lon="4.54168">
        <ele>232.605</ele>
        <time>2020-07-06T06:52:42Z</time>
      </trkpt>
      <trkpt lat="46.55379" lon="4.54178">
        <ele>232.605</ele>
        <time>2020-07-06T06:52:48Z</time>
      </trkpt>
      <trkpt lat="46.55383" lon="4.54187">
        <ele>231.605</ele>
        <time>2020-07-06T06:52:54Z</time>
      </trkpt>
      <trkpt lat="46.55381" lon="4.54198">
        <ele>229.605</ele>
        <time>2020-07-06T06:52:59Z</time>
      </trkpt>
      <trkpt lat="46.55381" lon="4.54207">
        <ele>231.605</ele>
        <time>2020-07-06T06:53:04Z</time>
      </trkpt>
      <trkpt lat="46.5538" lon="4.54218">
        <ele>231.605</ele>
        <time>2020-07-06T06:53:10Z</time>
      </trkpt>
      <trkpt lat="46.55379" lon="4.54228">
        <ele>232.605</ele>
        <time>2020-07-06T06:53:17Z</time>
      </trkpt>
      <trkpt lat="46.5538" lon="4.54239">
        <ele>230.605</ele>
        <time>2020-07-06T06:53:23Z</time>
      </trkpt>
      <trkpt lat="46.55382" lon="4.5425">
        <ele>232.605</ele>
        <time>2020-07-06T06:53:30Z</time>
      </trkpt>
      <trkpt lat="46.55384" lon="4.5426">
        <ele>231.605</ele>
        <time>2020-07-06T06:53:37Z</time>
      </trkpt>
      <trkpt lat="46.55381" lon="4.5427">
        <ele>229.605</ele>
        <time>2020-07-06T06:53:46Z</time>
      </trkpt>
      <trkpt lat="46.55378" lon="4.54278">
        <ele>230.605</ele>
        <time>2020-07-06T06:53:52Z</time>
      </trkpt>
      <trkpt lat="46.55376" lon="4.54288">
        <ele>238.605</ele>
        <time>2020-07-06T06:54:03Z</time>
      </trkpt>
      <trkpt lat="46.55377" lon="4.54298">
        <ele>238.605</ele>
        <time>2020-07-06T06:54:11Z</time>
      </trkpt>
      <trkpt lat="46.55373" lon="4.54306">
        <ele>237.605</ele>
        <time>2020-07-06T06:54:17Z</time>
      </trkpt>
      <trkpt lat="46.55372" lon="4.54317">
        <ele>240.605</ele>
        <time>2020-07-06T06:54:27Z</time>
      </trkpt>
      <trkpt lat="46.55367" lon="4.54324">
        <ele>240.605</ele>
        <time>2020-07-06T06:54:34Z</time>
      </trkpt>
      <trkpt lat="46.55363" lon="4.54332">
        <ele>238.605</ele>
        <time>2020-07-06T06:54:43Z</time>
      </trkpt>
      <trkpt lat="46.55357" lon="4.54335">
        <ele>242.605</ele>
        <time>2020-07-06T06:54:50Z</time>
      </trkpt>
      <trkpt lat="46.55356" lon="4.54348">
        <ele>239.605</ele>
        <time>2020-07-06T06:54:57Z</time>
      </trkpt>
      <trkpt lat="46.55349" lon="4.54351">
        <ele>244.605</ele>
        <time>2020-07-06T06:55:05Z</time>
      </trkpt>
      <trkpt lat="46.55343" lon="4.54357">
        <ele>246.605</ele>
        <time>2020-07-06T06:55:12Z</time>
      </trkpt>
      <trkpt lat="46.55336" lon="4.5436">
        <ele>248.605</ele>
        <time>2020-07-06T06:55:20Z</time>
      </trkpt>
      <trkpt lat="46.55332" lon="4.54368">
        <ele>246.605</ele>
        <time>2020-07-06T06:55:28Z</time>
      </trkpt>
      <trkpt lat="46.55328" lon="4.54375">
        <ele>249.605</ele>
        <time>2020-07-06T06:55:34Z</time>
      </trkpt>
      <trkpt lat="46.55323" lon="4.54383">
        <ele>248.605</ele>
        <time>2020-07-06T06:55:40Z</time>
      </trkpt>
      <trkpt lat="46.55317" lon="4.54388">
        <ele>252.605</ele>
        <time>2020-07-06T06:55:46Z</time>
      </trkpt>
      <trkpt lat="46.55315" lon="4.54397">
        <ele>250.605</ele>
        <time>2020-07-06T06:55:51Z</time>
      </trkpt>
      <trkpt lat="46.55311" lon="4.54406">
        <ele>252.605</ele>
        <time>2020-07-06T06:55:57Z</time>
      </trkpt>
      <trkpt lat="46.55306" lon="4.54414">
        <ele>249.605</ele>
        <time>2020-07-06T06:56:02Z</time>
      </trkpt>
      <trkpt lat="46.553" lon="4.54418">
        <ele>250.605</ele>
        <time>2020-07-06T06:56:09Z</time>
      </trkpt>
      <trkpt lat="46.55294" lon="4.5442">
        <ele>253.605</ele>
        <time>2020-07-06T06:56:25Z</time>
      </trkpt>
      <trkpt lat="46.5529" lon="4.54428">
        <ele>247.605</ele>
        <time>2020-07-06T06:56:35Z</time>
      </trkpt>
      <trkpt lat="46.55283" lon="4.54427">
        <ele>246.605</ele>
        <time>2020-07-06T06:56:52Z</time>
      </trkpt>
      <trkpt lat="46.55276" lon="4.54428">
        <ele>246.605</ele>
        <time>2020-07-06T06:57:00Z</time>
      </trkpt>
      <trkpt lat="46.5527" lon="4.54434">
        <ele>244.605</ele>
        <time>2020-07-06T06:57:07Z</time>
      </trkpt>
      <trkpt lat="46.55264" lon="4.54431">
        <ele>243.605</ele>
        <time>2020-07-06T06:57:13Z</time>
      </trkpt>
      <trkpt lat="46.55257" lon="4.54428">
        <ele>246.605</ele>
        <time>2020-07-06T06:57:18Z</time>
      </trkpt>
      <trkpt lat="46.5525" lon="4.54433">
        <ele>249.605</ele>
        <time>2020-07-06T06:57:30Z</time>
      </trkpt>
      <trkpt lat="46.55247" lon="4.54423">
        <ele>253.605</ele>
        <time>2020-07-06T06:57:37Z</time>
      </trkpt>
      <trkpt lat="46.5524" lon="4.54425">
        <ele>247.605</ele>
        <time>2020-07-06T06:57:53Z</time>
      </trkpt>
      <trkpt lat="46.55233" lon="4.54424">
        <ele>247.605</ele>
        <time>2020-07-06T06:57:58Z</time>
      </trkpt>
      <trkpt lat="46.55226" lon="4.54421">
        <ele>246.605</ele>
        <time>2020-07-06T06:58:03Z</time>
      </trkpt>
      <trkpt lat="46.55219" lon="4.54419">
        <ele>246.605</ele>
        <time>2020-07-06T06:58:08Z</time>
      </trkpt>
      <trkpt lat="46.55212" lon="4.54417">
        <ele>246.605</ele>
        <time>2020-07-06T06:58:13Z</time>
      </trkpt>
      <trkpt lat="46.55205" lon="4.54414">
        <ele>244.605</ele>
        <time>2020-07-06T06:58:20Z</time>
      </trkpt>
      <trkpt lat="46.55198" lon="4.54412">
        <ele>243.605</ele>
        <time>2020-07-06T06:58:26Z</time>
      </trkpt>
      <trkpt lat="46.55192" lon="4.54412">
        <ele>245.605</ele>
        <time>2020-07-06T06:58:32Z</time>
      </trkpt>
      <trkpt lat="46.55185" lon="4.54414">
        <ele>247.605</ele>
        <time>2020-07-06T06:58:37Z</time>
      </trkpt>
      <trkpt lat="46.5518" lon="4.54419">
        <ele>247.605</ele>
        <time>2020-07-06T06:58:44Z</time>
      </trkpt>
      <trkpt lat="46.55172" lon="4.54416">
        <ele>254.605</ele>
        <time>2020-07-06T06:58:51Z</time>
      </trkpt>
      <trkpt lat="46.55164" lon="4.54416">
        <ele>259.605</ele>
        <time>2020-07-06T06:58:59Z</time>
      </trkpt>
      <trkpt lat="46.55157" lon="4.54421">
        <ele>259.605</ele>
        <time>2020-07-06T06:59:05Z</time>
      </trkpt>
      <trkpt lat="46.5515" lon="4.54426">
        <ele>256.605</ele>
        <time>2020-07-06T06:59:10Z</time>
      </trkpt>
      <trkpt lat="46.55145" lon="4.54432">
        <ele>255.605</ele>
        <time>2020-07-06T06:59:16Z</time>
      </trkpt>
      <trkpt lat="46.5514" lon="4.5444">
        <ele>255.605</ele>
        <time>2020-07-06T06:59:22Z</time>
      </trkpt>
      <trkpt lat="46.55133" lon="4.54445">
        <ele>255.605</ele>
        <time>2020-07-06T06:59:29Z</time>
      </trkpt>
      <trkpt lat="46.55129" lon="4.54452">
        <ele>256.605</ele>
        <time>2020-07-06T06:59:34Z</time>
      </trkpt>
      <trkpt lat="46.55122" lon="4.54458">
        <ele>259.605</ele>
        <time>2020-07-06T06:59:40Z</time>
      </trkpt>
      <trkpt lat="46.55116" lon="4.54463">
        <ele>254.605</ele>
        <time>2020-07-06T06:59:50Z</time>
      </trkpt>
      <trkpt lat="46.55109" lon="4.54467">
        <ele>258.605</ele>
        <time>2020-07-06T06:59:55Z</time>
      </trkpt>
      <trkpt lat="46.55102" lon="4.5447">
        <ele>261.605</ele>
        <time>2020-07-06T07:00:01Z</time>
      </trkpt>
      <trkpt lat="46.55095" lon="4.54475">
        <ele>258.605</ele>
        <time>2020-07-06T07:00:08Z</time>
      </trkpt>
      <trkpt lat="46.55087" lon="4.54478">
        <ele>261.605</ele>
        <time>2020-07-06T07:00:15Z</time>
      </trkpt>
      <trkpt lat="46.55082" lon="4.54485">
        <ele>262.605</ele>
        <time>2020-07-06T07:00:24Z</time>
      </trkpt>
      <trkpt lat="46.55075" lon="4.54487">
        <ele>263.605</ele>
        <time>2020-07-06T07:00:32Z</time>
      </trkpt>
      <trkpt lat="46.55068" lon="4.54492">
        <ele>262.605</ele>
        <time>2020-07-06T07:00:39Z</time>
      </trkpt>
      <trkpt lat="46.55062" lon="4.54491">
        <ele>268.605</ele>
        <time>2020-07-06T07:00:45Z</time>
      </trkpt>
      <trkpt lat="46.55054" lon="4.54492">
        <ele>275.605</ele>
        <time>2020-07-06T07:00:52Z</time>
      </trkpt>
      <trkpt lat="46.55047" lon="4.54494">
        <ele>280.605</ele>
        <time>2020-07-06T07:00:59Z</time>
      </trkpt>
      <trkpt lat="46.55041" lon="4.54498">
        <ele>280.605</ele>
        <time>2020-07-06T07:01:07Z</time>
      </trkpt>
      <trkpt lat="46.55034" lon="4.54499">
        <ele>280.605</ele>
        <time>2020-07-06T07:01:17Z</time>
      </trkpt>
      <trkpt lat="46.55027" lon="4.545">
        <ele>281.605</ele>
        <time>2020-07-06T07:01:25Z</time>
      </trkpt>
      <trkpt lat="46.5502" lon="4.54499">
        <ele>281.605</ele>
        <time>2020-07-06T07:01:32Z</time>
      </trkpt>
      <trkpt lat="46.55014" lon="4.54504">
        <ele>281.605</ele>
        <time>2020-07-06T07:01:37Z</time>
      </trkpt>
      <trkpt lat="46.55008" lon="4.54507">
        <ele>278.605</ele>
        <time>2020-07-06T07:01:44Z</time>
      </trkpt>
      <trkpt lat="46.55001" lon="4.54503">
        <ele>280.605</ele>
        <time>2020-07-06T07:01:50Z</time>
      </trkpt>
      <trkpt lat="46.54995" lon="4.54499">
        <ele>282.605</ele>
        <time>2020-07-06T07:01:55Z</time>
      </trkpt>
      <trkpt lat="46.54989" lon="4.54498">
        <ele>281.604</ele>
        <time>2020-07-06T07:02:01Z</time>
      </trkpt>
      <trkpt lat="46.54981" lon="4.54498">
        <ele>279.604</ele>
        <time>2020-07-06T07:02:07Z</time>
      </trkpt>
      <trkpt lat="46.54973" lon="4.54495">
        <ele>279.604</ele>
        <time>2020-07-06T07:02:13Z</time>
      </trkpt>
      <trkpt lat="46.54966" lon="4.54495">
        <ele>279.604</ele>
        <time>2020-07-06T07:02:18Z</time>
      </trkpt>
      <trkpt lat="46.54961" lon="4.5449">
        <ele>279.604</ele>
        <time>2020-07-06T07:02:25Z</time>
      </trkpt>
      <trkpt lat="46.54953" lon="4.54487">
        <ele>280.604</ele>
        <time>2020-07-06T07:02:32Z</time>
      </trkpt>
      <trkpt lat="46.54946" lon="4.54488">
        <ele>280.604</ele>
        <time>2020-07-06T07:02:37Z</time>
      </trkpt>
      <trkpt lat="46.54938" lon="4.54488">
        <ele>275.604</ele>
        <time>2020-07-06T07:02:43Z</time>
      </trkpt>
      <trkpt lat="46.54929" lon="4.54489">
        <ele>271.604</ele>
        <time>2020-07-06T07:02:48Z</time>
      </trkpt>
      <trkpt lat="46.54922" lon="4.54485">
        <ele>272.604</ele>
        <time>2020-07-06T07:02:54Z</time>
      </trkpt>
      <trkpt lat="46.54916" lon="4.5448">
        <ele>276.604</ele>
        <time>2020-07-06T07:03:03Z</time>
      </trkpt>
      <trkpt lat="46.54909" lon="4.54477">
        <ele>275.604</ele>
        <time>2020-07-06T07:03:10Z</time>
      </trkpt>
      <trkpt lat="46.54901" lon="4.54477">
        <ele>274.604</ele>
        <time>2020-07-06T07:03:15Z</time>
      </trkpt>
      <trkpt lat="46.54894" lon="4.54476">
        <ele>270.604</ele>
        <time>2020-07-06T07:03:25Z</time>
      </trkpt>
      <trkpt lat="46.54886" lon="4.5448">
        <ele>271.604</ele>
        <time>2020-07-06T07:03:30Z</time>
      </trkpt>
      <trkpt lat="46.54878" lon="4.54481">
        <ele>271.604</ele>
        <time>2020-07-06T07:03:36Z</time>
      </trkpt>
      <trkpt lat="46.54877" lon="4.54491">
        <ele>274.604</ele>
        <time>2020-07-06T07:03:42Z</time>
      </trkpt>
      <trkpt lat="46.54876" lon="4.54501">
        <ele>275.604</ele>
        <time>2020-07-06T07:03:48Z</time>
      </trkpt>
      <trkpt lat="46.54874" lon="4.54512">
        <ele>278.604</ele>
        <time>2020-07-06T07:03:55Z</time>
      </trkpt>
      <trkpt lat="46.54871" lon="4.54522">
        <ele>278.604</ele>
        <time>2020-07-06T07:04:03Z</time>
      </trkpt>
      <trkpt lat="46.5487" lon="4.54531">
        <ele>280.604</ele>
        <time>2020-07-06T07:04:11Z</time>
      </trkpt>
      <trkpt lat="46.54867" lon="4.5454">
        <ele>278.604</ele>
        <time>2020-07-06T07:04:19Z</time>
      </trkpt>
      <trkpt lat="46.54866" lon="4.5455">
        <ele>279.604</ele>
        <time>2020-07-06T07:04:26Z</time>
      </trkpt>
      <trkpt lat="46.54864" lon="4.5456">
        <ele>279.604</ele>
        <time>2020-07-06T07:04:34Z</time>
      </trkpt>
      <trkpt lat="46.54867" lon="4.5457">
        <ele>284.604</ele>
        <time>2020-07-06T07:04:41Z</time>
      </trkpt>
      <trkpt lat="46.54868" lon="4.5458">
        <ele>286.604</ele>
        <time>2020-07-06T07:04:50Z</time>
      </trkpt>
      <trkpt lat="46.54869" lon="4.54591">
        <ele>287.604</ele>
        <time>2020-07-06T07:04:57Z</time>
      </trkpt>
      <trkpt lat="46.54875" lon="4.54599">
        <ele>287.604</ele>
        <time>2020-07-06T07:05:06Z</time>
      </trkpt>
      <trkpt lat="46.54878" lon="4.54609">
        <ele>289.604</ele>
        <time>2020-07-06T07:05:14Z</time>
      </trkpt>
      <trkpt lat="46.54883" lon="4.54616">
        <ele>290.604</ele>
        <time>2020-07-06T07:05:22Z</time>
      </trkpt>
      <trkpt lat="46.54887" lon="4.54625">
        <ele>291.604</ele>
        <time>2020-07-06T07:05:30Z</time>
      </trkpt>
      <trkpt lat="46.5489" lon="4.54634">
        <ele>295.604</ele>
        <time>2020-07-06T07:05:37Z</time>
      </trkpt>
      <trkpt lat="46.54894" lon="4.54643">
        <ele>295.604</ele>
        <time>2020-07-06T07:05:46Z</time>
      </trkpt>
      <trkpt lat="46.54898" lon="4.54651">
        <ele>297.604</ele>
        <time>2020-07-06T07:05:57Z</time>
      </trkpt>
      <trkpt lat="46.54904" lon="4.54658">
        <ele>298.604</ele>
        <time>2020-07-06T07:06:04Z</time>
      </trkpt>
      <trkpt lat="46.54909" lon="4.54664">
        <ele>299.604</ele>
        <time>2020-07-06T07:06:10Z</time>
      </trkpt>
      <trkpt lat="46.54915" lon="4.54668">
        <ele>297.604</ele>
        <time>2020-07-06T07:06:16Z</time>
      </trkpt>
      <trkpt lat="46.54921" lon="4.54674">
        <ele>297.604</ele>
        <time>2020-07-06T07:06:25Z</time>
      </trkpt>
      <trkpt lat="46.54928" lon="4.54681">
        <ele>302.604</ele>
        <time>2020-07-06T07:06:32Z</time>
      </trkpt>
      <trkpt lat="46.54936" lon="4.54685">
        <ele>304.604</ele>
        <time>2020-07-06T07:06:39Z</time>
      </trkpt>
      <trkpt lat="46.54939" lon="4.54695">
        <ele>305.604</ele>
        <time>2020-07-06T07:06:46Z</time>
      </trkpt>
      <trkpt lat="46.54942" lon="4.54705">
        <ele>307.605</ele>
        <time>2020-07-06T07:06:56Z</time>
      </trkpt>
      <trkpt lat="46.54944" lon="4.54715">
        <ele>308.605</ele>
        <time>2020-07-06T07:07:05Z</time>
      </trkpt>
      <trkpt lat="46.54947" lon="4.54724">
        <ele>308.605</ele>
        <time>2020-07-06T07:07:13Z</time>
      </trkpt>
      <trkpt lat="46.5495" lon="4.54734">
        <ele>311.605</ele>
        <time>2020-07-06T07:07:21Z</time>
      </trkpt>
      <trkpt lat="46.54953" lon="4.54742">
        <ele>311.605</ele>
        <time>2020-07-06T07:07:29Z</time>
      </trkpt>
      <trkpt lat="46.54957" lon="4.54751">
        <ele>316.605</ele>
        <time>2020-07-06T07:07:37Z</time>
      </trkpt>
      <trkpt lat="46.54955" lon="4.5476">
        <ele>318.605</ele>
        <time>2020-07-06T07:07:44Z</time>
      </trkpt>
      <trkpt lat="46.54957" lon="4.5477">
        <ele>318.605</ele>
        <time>2020-07-06T07:07:51Z</time>
      </trkpt>
      <trkpt lat="46.54957" lon="4.5478">
        <ele>316.605</ele>
        <time>2020-07-06T07:07:57Z</time>
      </trkpt>
      <trkpt lat="46.54954" lon="4.54789">
        <ele>316.605</ele>
        <time>2020-07-06T07:08:02Z</time>
      </trkpt>
      <trkpt lat="46.54956" lon="4.54799">
        <ele>316.605</ele>
        <time>2020-07-06T07:08:09Z</time>
      </trkpt>
      <trkpt lat="46.54957" lon="4.54809">
        <ele>318.605</ele>
        <time>2020-07-06T07:08:15Z</time>
      </trkpt>
      <trkpt lat="46.54959" lon="4.5482">
        <ele>318.605</ele>
        <time>2020-07-06T07:08:22Z</time>
      </trkpt>
      <trkpt lat="46.5496" lon="4.5483">
        <ele>319.605</ele>
        <time>2020-07-06T07:08:28Z</time>
      </trkpt>
      <trkpt lat="46.54962" lon="4.5484">
        <ele>317.605</ele>
        <time>2020-07-06T07:08:34Z</time>
      </trkpt>
      <trkpt lat="46.54961" lon="4.5485">
        <ele>319.605</ele>
        <time>2020-07-06T07:08:40Z</time>
      </trkpt>
      <trkpt lat="46.54962" lon="4.54859">
        <ele>321.605</ele>
        <time>2020-07-06T07:08:47Z</time>
      </trkpt>
      <trkpt lat="46.54964" lon="4.5487">
        <ele>323.605</ele>
        <time>2020-07-06T07:08:54Z</time>
      </trkpt>
      <trkpt lat="46.54969" lon="4.54875">
        <ele>325.605</ele>
        <time>2020-07-06T07:09:00Z</time>
      </trkpt>
      <trkpt lat="46.54969" lon="4.54884">
        <ele>321.605</ele>
        <time>2020-07-06T07:09:07Z</time>
      </trkpt>
      <trkpt lat="46.54962" lon="4.54885">
        <ele>319.605</ele>
        <time>2020-07-06T07:09:13Z</time>
      </trkpt>
      <trkpt lat="46.54955" lon="4.54884">
        <ele>319.605</ele>
        <time>2020-07-06T07:09:18Z</time>
      </trkpt>
      <trkpt lat="46.54947" lon="4.54886">
        <ele>320.605</ele>
        <time>2020-07-06T07:09:23Z</time>
      </trkpt>
      <trkpt lat="46.5494" lon="4.54885">
        <ele>319.605</ele>
        <time>2020-07-06T07:09:30Z</time>
      </trkpt>
      <trkpt lat="46.54934" lon="4.54881">
        <ele>323.605</ele>
        <time>2020-07-06T07:09:35Z</time>
      </trkpt>
      <trkpt lat="46.54928" lon="4.54887">
        <ele>326.605</ele>
        <time>2020-07-06T07:09:46Z</time>
      </trkpt>
      <trkpt lat="46.54925" lon="4.54896">
        <ele>326.605</ele>
        <time>2020-07-06T07:09:52Z</time>
      </trkpt>
      <trkpt lat="46.54921" lon="4.54905">
        <ele>329.605</ele>
        <time>2020-07-06T07:09:59Z</time>
      </trkpt>
      <trkpt lat="46.54921" lon="4.54916">
        <ele>329.605</ele>
        <time>2020-07-06T07:10:09Z</time>
      </trkpt>
      <trkpt lat="46.54917" lon="4.54925">
        <ele>333.605</ele>
        <time>2020-07-06T07:10:19Z</time>
      </trkpt>
      <trkpt lat="46.54912" lon="4.54934">
        <ele>332.605</ele>
        <time>2020-07-06T07:10:25Z</time>
      </trkpt>
      <trkpt lat="46.54907" lon="4.5494">
        <ele>333.605</ele>
        <time>2020-07-06T07:10:33Z</time>
      </trkpt>
      <trkpt lat="46.549" lon="4.54945">
        <ele>338.605</ele>
        <time>2020-07-06T07:10:47Z</time>
      </trkpt>
      <trkpt lat="46.54893" lon="4.54947">
        <ele>339.605</ele>
        <time>2020-07-06T07:10:52Z</time>
      </trkpt>
      <trkpt lat="46.54884" lon="4.54948">
        <ele>340.605</ele>
        <time>2020-07-06T07:10:57Z</time>
      </trkpt>
      <trkpt lat="46.54877" lon="4.54948">
        <ele>339.605</ele>
        <time>2020-07-06T07:11:03Z</time>
      </trkpt>
      <trkpt lat="46.54869" lon="4.54949">
        <ele>339.604</ele>
        <time>2020-07-06T07:11:08Z</time>
      </trkpt>
      <trkpt lat="46.54862" lon="4.54953">
        <ele>338.604</ele>
        <time>2020-07-06T07:11:13Z</time>
      </trkpt>
      <trkpt lat="46.54854" lon="4.54955">
        <ele>336.604</ele>
        <time>2020-07-06T07:11:20Z</time>
      </trkpt>
      <trkpt lat="46.54847" lon="4.54957">
        <ele>340.604</ele>
        <time>2020-07-06T07:11:27Z</time>
      </trkpt>
      <trkpt lat="46.54841" lon="4.54963">
        <ele>340.604</ele>
        <time>2020-07-06T07:11:32Z</time>
      </trkpt>
      <trkpt lat="46.54836" lon="4.54972">
        <ele>340.604</ele>
        <time>2020-07-06T07:11:38Z</time>
      </trkpt>
      <trkpt lat="46.5483" lon="4.54979">
        <ele>343.604</ele>
        <time>2020-07-06T07:11:45Z</time>
      </trkpt>
      <trkpt lat="46.54826" lon="4.54988">
        <ele>343.604</ele>
        <time>2020-07-06T07:11:52Z</time>
      </trkpt>
      <trkpt lat="46.54822" lon="4.54997">
        <ele>343.604</ele>
        <time>2020-07-06T07:11:58Z</time>
      </trkpt>
      <trkpt lat="46.54821" lon="4.55007">
        <ele>342.604</ele>
        <time>2020-07-06T07:12:06Z</time>
      </trkpt>
      <trkpt lat="46.54818" lon="4.55016">
        <ele>341.604</ele>
        <time>2020-07-06T07:12:13Z</time>
      </trkpt>
      <trkpt lat="46.54814" lon="4.55026">
        <ele>341.604</ele>
        <time>2020-07-06T07:12:18Z</time>
      </trkpt>
      <trkpt lat="46.54812" lon="4.55036">
        <ele>342.604</ele>
        <time>2020-07-06T07:12:24Z</time>
      </trkpt>
      <trkpt lat="46.54814" lon="4.55046">
        <ele>343.604</ele>
        <time>2020-07-06T07:12:32Z</time>
      </trkpt>
      <trkpt lat="46.54815" lon="4.5506">
        <ele>343.604</ele>
        <time>2020-07-06T07:12:37Z</time>
      </trkpt>
      <trkpt lat="46.54822" lon="4.55065">
        <ele>344.604</ele>
        <time>2020-07-06T07:12:47Z</time>
      </trkpt>
      <trkpt lat="46.54824" lon="4.55074">
        <ele>343.604</ele>
        <time>2020-07-06T07:12:56Z</time>
      </trkpt>
      <trkpt lat="46.54827" lon="4.55084">
        <ele>342.604</ele>
        <time>2020-07-06T07:13:03Z</time>
      </trkpt>
      <trkpt lat="46.54829" lon="4.55095">
        <ele>341.604</ele>
        <time>2020-07-06T07:13:11Z</time>
      </trkpt>
      <trkpt lat="46.54829" lon="4.55105">
        <ele>343.604</ele>
        <time>2020-07-06T07:13:18Z</time>
      </trkpt>
      <trkpt lat="46.54832" lon="4.55115">
        <ele>345.605</ele>
        <time>2020-07-06T07:13:23Z</time>
      </trkpt>
      <trkpt lat="46.54833" lon="4.55125">
        <ele>346.605</ele>
        <time>2020-07-06T07:13:29Z</time>
      </trkpt>
      <trkpt lat="46.54832" lon="4.55135">
        <ele>347.605</ele>
        <time>2020-07-06T07:13:34Z</time>
      </trkpt>
      <trkpt lat="46.54831" lon="4.55146">
        <ele>349.605</ele>
        <time>2020-07-06T07:13:39Z</time>
      </trkpt>
      <trkpt lat="46.54832" lon="4.55156">
        <ele>349.605</ele>
        <time>2020-07-06T07:13:45Z</time>
      </trkpt>
      <trkpt lat="46.54833" lon="4.55167">
        <ele>350.605</ele>
        <time>2020-07-06T07:13:52Z</time>
      </trkpt>
      <trkpt lat="46.54833" lon="4.55177">
        <ele>349.605</ele>
        <time>2020-07-06T07:13:57Z</time>
      </trkpt>
      <trkpt lat="46.54836" lon="4.55186">
        <ele>350.605</ele>
        <time>2020-07-06T07:14:03Z</time>
      </trkpt>
      <trkpt lat="46.5483" lon="4.55187">
        <ele>348.605</ele>
        <time>2020-07-06T07:14:13Z</time>
      </trkpt>
      <trkpt lat="46.54822" lon="4.55191">
        <ele>348.605</ele>
        <time>2020-07-06T07:14:19Z</time>
      </trkpt>
      <trkpt lat="46.54814" lon="4.5519">
        <ele>350.605</ele>
        <time>2020-07-06T07:14:24Z</time>
      </trkpt>
      <trkpt lat="46.54807" lon="4.5519">
        <ele>351.604</ele>
        <time>2020-07-06T07:14:31Z</time>
      </trkpt>
      <trkpt lat="46.54799" lon="4.55192">
        <ele>347.604</ele>
        <time>2020-07-06T07:14:37Z</time>
      </trkpt>
      <trkpt lat="46.54792" lon="4.55197">
        <ele>349.604</ele>
        <time>2020-07-06T07:14:47Z</time>
      </trkpt>
      <trkpt lat="46.54785" lon="4.55203">
        <ele>351.604</ele>
        <time>2020-07-06T07:14:52Z</time>
      </trkpt>
      <trkpt lat="46.54777" lon="4.55207">
        <ele>346.604</ele>
        <time>2020-07-06T07:14:59Z</time>
      </trkpt>
      <trkpt lat="46.54764" lon="4.55202">
        <ele>339.604</ele>
        <time>2020-07-06T07:15:04Z</time>
      </trkpt>
      <trkpt lat="46.54757" lon="4.55203">
        <ele>339.604</ele>
        <time>2020-07-06T07:15:11Z</time>
      </trkpt>
      <trkpt lat="46.54752" lon="4.55209">
        <ele>341.604</ele>
        <time>2020-07-06T07:15:17Z</time>
      </trkpt>
      <trkpt lat="46.54744" lon="4.55211">
        <ele>341.604</ele>
        <time>2020-07-06T07:15:23Z</time>
      </trkpt>
      <trkpt lat="46.54737" lon="4.55214">
        <ele>339.604</ele>
        <time>2020-07-06T07:15:28Z</time>
      </trkpt>
      <trkpt lat="46.54729" lon="4.55218">
        <ele>341.604</ele>
        <time>2020-07-06T07:15:33Z</time>
      </trkpt>
      <trkpt lat="46.54722" lon="4.55216">
        <ele>340.604</ele>
        <time>2020-07-06T07:15:39Z</time>
      </trkpt>
      <trkpt lat="46.54715" lon="4.55216">
        <ele>342.604</ele>
        <time>2020-07-06T07:15:44Z</time>
      </trkpt>
      <trkpt lat="46.54706" lon="4.55221">
        <ele>346.604</ele>
        <time>2020-07-06T07:15:49Z</time>
      </trkpt>
      <trkpt lat="46.54696" lon="4.55221">
        <ele>349.604</ele>
        <time>2020-07-06T07:15:54Z</time>
      </trkpt>
      <trkpt lat="46.5469" lon="4.55221">
        <ele>344.604</ele>
        <time>2020-07-06T07:16:02Z</time>
      </trkpt>
      <trkpt lat="46.54682" lon="4.55223">
        <ele>345.604</ele>
        <time>2020-07-06T07:16:07Z</time>
      </trkpt>
      <trkpt lat="46.54677" lon="4.55228">
        <ele>345.604</ele>
        <time>2020-07-06T07:16:12Z</time>
      </trkpt>
      <trkpt lat="46.54672" lon="4.55237">
        <ele>346.604</ele>
        <time>2020-07-06T07:16:17Z</time>
      </trkpt>
      <trkpt lat="46.54666" lon="4.55241">
        <ele>349.604</ele>
        <time>2020-07-06T07:16:22Z</time>
      </trkpt>
      <trkpt lat="46.54659" lon="4.55249">
        <ele>346.604</ele>
        <time>2020-07-06T07:16:46Z</time>
      </trkpt>
      <trkpt lat="46.5465" lon="4.55262">
        <ele>348.604</ele>
        <time>2020-07-06T07:16:51Z</time>
      </trkpt>
      <trkpt lat="46.54647" lon="4.55271">
        <ele>351.604</ele>
        <time>2020-07-06T07:16:56Z</time>
      </trkpt>
      <trkpt lat="46.54641" lon="4.55276">
        <ele>351.604</ele>
        <time>2020-07-06T07:17:01Z</time>
      </trkpt>
      <trkpt lat="46.54637" lon="4.55284">
        <ele>351.604</ele>
        <time>2020-07-06T07:17:07Z</time>
      </trkpt>
      <trkpt lat="46.54632" lon="4.55293">
        <ele>348.604</ele>
        <time>2020-07-06T07:17:14Z</time>
      </trkpt>
      <trkpt lat="46.54628" lon="4.55302">
        <ele>349.604</ele>
        <time>2020-07-06T07:17:21Z</time>
      </trkpt>
      <trkpt lat="46.54624" lon="4.55311">
        <ele>349.604</ele>
        <time>2020-07-06T07:17:38Z</time>
      </trkpt>
      <trkpt lat="46.5462" lon="4.5532">
        <ele>349.604</ele>
        <time>2020-07-06T07:19:09Z</time>
      </trkpt>
      <trkpt lat="46.54617" lon="4.55328">
        <ele>358.604</ele>
        <time>2020-07-06T07:19:54Z</time>
      </trkpt>
      <trkpt lat="46.5461" lon="4.55332">
        <ele>362.604</ele>
        <time>2020-07-06T07:20:02Z</time>
      </trkpt>
      <trkpt lat="46.54603" lon="4.55333">
        <ele>366.604</ele>
        <time>2020-07-06T07:20:10Z</time>
      </trkpt>
      <trkpt lat="46.54596" lon="4.55332">
        <ele>363.604</ele>
        <time>2020-07-06T07:20:21Z</time>
      </trkpt>
      <trkpt lat="46.54599" lon="4.55323">
        <ele>363.604</ele>
        <time>2020-07-06T07:20:27Z</time>
      </trkpt>
      <trkpt lat="46.54597" lon="4.55313">
        <ele>365.604</ele>
        <time>2020-07-06T07:20:34Z</time>
      </trkpt>
      <trkpt lat="46.54588" lon="4.55309">
        <ele>362.604</ele>
        <time>2020-07-06T07:20:45Z</time>
      </trkpt>
      <trkpt lat="46.54583" lon="4.55304">
        <ele>364.604</ele>
        <time>2020-07-06T07:20:52Z</time>
      </trkpt>
      <trkpt lat="46.54574" lon="4.55303">
        <ele>361.604</ele>
        <time>2020-07-06T07:20:57Z</time>
      </trkpt>
      <trkpt lat="46.54568" lon="4.553">
        <ele>364.604</ele>
        <time>2020-07-06T07:21:05Z</time>
      </trkpt>
      <trkpt lat="46.5456" lon="4.55301">
        <ele>362.604</ele>
        <time>2020-07-06T07:21:10Z</time>
      </trkpt>
      <trkpt lat="46.54553" lon="4.55301">
        <ele>360.604</ele>
        <time>2020-07-06T07:21:19Z</time>
      </trkpt>
      <trkpt lat="46.54546" lon="4.55302">
        <ele>362.604</ele>
        <time>2020-07-06T07:21:24Z</time>
      </trkpt>
      <trkpt lat="46.54536" lon="4.55303">
        <ele>362.604</ele>
        <time>2020-07-06T07:21:29Z</time>
      </trkpt>
      <trkpt lat="46.54529" lon="4.55304">
        <ele>362.604</ele>
        <time>2020-07-06T07:21:34Z</time>
      </trkpt>
      <trkpt lat="46.5452" lon="4.55305">
        <ele>365.604</ele>
        <time>2020-07-06T07:21:41Z</time>
      </trkpt>
      <trkpt lat="46.54512" lon="4.55306">
        <ele>368.604</ele>
        <time>2020-07-06T07:21:47Z</time>
      </trkpt>
      <trkpt lat="46.54504" lon="4.55308">
        <ele>369.604</ele>
        <time>2020-07-06T07:21:52Z</time>
      </trkpt>
      <trkpt lat="46.54498" lon="4.55309">
        <ele>369.604</ele>
        <time>2020-07-06T07:22:00Z</time>
      </trkpt>
      <trkpt lat="46.5449" lon="4.55306">
        <ele>365.604</ele>
        <time>2020-07-06T07:22:06Z</time>
      </trkpt>
      <trkpt lat="46.54483" lon="4.55305">
        <ele>361.604</ele>
        <time>2020-07-06T07:22:12Z</time>
      </trkpt>
      <trkpt lat="46.54477" lon="4.55308">
        <ele>356.604</ele>
        <time>2020-07-06T07:22:18Z</time>
      </trkpt>
      <trkpt lat="46.5447" lon="4.55309">
        <ele>355.604</ele>
        <time>2020-07-06T07:22:24Z</time>
      </trkpt>
      <trkpt lat="46.54463" lon="4.55309">
        <ele>361.604</ele>
        <time>2020-07-06T07:22:30Z</time>
      </trkpt>
      <trkpt lat="46.54457" lon="4.55311">
        <ele>360.604</ele>
        <time>2020-07-06T07:22:35Z</time>
      </trkpt>
      <trkpt lat="46.54448" lon="4.55311">
        <ele>363.604</ele>
        <time>2020-07-06T07:22:40Z</time>
      </trkpt>
      <trkpt lat="46.54441" lon="4.55311">
        <ele>364.604</ele>
        <time>2020-07-06T07:22:45Z</time>
      </trkpt>
      <trkpt lat="46.54433" lon="4.55312">
        <ele>364.604</ele>
        <time>2020-07-06T07:22:51Z</time>
      </trkpt>
      <trkpt lat="46.54426" lon="4.55314">
        <ele>364.604</ele>
        <time>2020-07-06T07:22:56Z</time>
      </trkpt>
      <trkpt lat="46.54418" lon="4.55313">
        <ele>365.604</ele>
        <time>2020-07-06T07:23:02Z</time>
      </trkpt>
      <trkpt lat="46.54411" lon="4.55314">
        <ele>365.603</ele>
        <time>2020-07-06T07:23:11Z</time>
      </trkpt>
      <trkpt lat="46.54404" lon="4.55313">
        <ele>367.603</ele>
        <time>2020-07-06T07:23:18Z</time>
      </trkpt>
      <trkpt lat="46.54397" lon="4.55313">
        <ele>368.603</ele>
        <time>2020-07-06T07:23:23Z</time>
      </trkpt>
      <trkpt lat="46.5439" lon="4.55311">
        <ele>368.603</ele>
        <time>2020-07-06T07:23:29Z</time>
      </trkpt>
      <trkpt lat="46.54383" lon="4.55312">
        <ele>366.603</ele>
        <time>2020-07-06T07:23:35Z</time>
      </trkpt>
      <trkpt lat="46.54376" lon="4.55306">
        <ele>369.603</ele>
        <time>2020-07-06T07:23:40Z</time>
      </trkpt>
      <trkpt lat="46.54368" lon="4.55303">
        <ele>367.603</ele>
        <time>2020-07-06T07:23:48Z</time>
      </trkpt>
      <trkpt lat="46.5436" lon="4.55302">
        <ele>368.603</ele>
        <time>2020-07-06T07:23:54Z</time>
      </trkpt>
      <trkpt lat="46.54353" lon="4.55298">
        <ele>364.603</ele>
        <time>2020-07-06T07:23:59Z</time>
      </trkpt>
      <trkpt lat="46.54345" lon="4.5529">
        <ele>368.603</ele>
        <time>2020-07-06T07:24:04Z</time>
      </trkpt>
      <trkpt lat="46.54338" lon="4.55288">
        <ele>368.603</ele>
        <time>2020-07-06T07:24:09Z</time>
      </trkpt>
      <trkpt lat="46.54332" lon="4.55283">
        <ele>369.603</ele>
        <time>2020-07-06T07:24:15Z</time>
      </trkpt>
      <trkpt lat="46.54325" lon="4.55281">
        <ele>368.603</ele>
        <time>2020-07-06T07:24:21Z</time>
      </trkpt>
      <trkpt lat="46.54318" lon="4.55278">
        <ele>365.603</ele>
        <time>2020-07-06T07:24:26Z</time>
      </trkpt>
      <trkpt lat="46.54312" lon="4.55276">
        <ele>362.603</ele>
        <time>2020-07-06T07:24:32Z</time>
      </trkpt>
      <trkpt lat="46.54304" lon="4.55274">
        <ele>361.603</ele>
        <time>2020-07-06T07:24:37Z</time>
      </trkpt>
      <trkpt lat="46.54298" lon="4.5527">
        <ele>363.603</ele>
        <time>2020-07-06T07:24:42Z</time>
      </trkpt>
      <trkpt lat="46.54289" lon="4.55265">
        <ele>366.603</ele>
        <time>2020-07-06T07:24:47Z</time>
      </trkpt>
      <trkpt lat="46.54282" lon="4.55264">
        <ele>368.603</ele>
        <time>2020-07-06T07:24:53Z</time>
      </trkpt>
      <trkpt lat="46.54275" lon="4.55262">
        <ele>367.603</ele>
        <time>2020-07-06T07:24:59Z</time>
      </trkpt>
      <trkpt lat="46.54267" lon="4.5526">
        <ele>367.603</ele>
        <time>2020-07-06T07:25:05Z</time>
      </trkpt>
      <trkpt lat="46.54259" lon="4.55257">
        <ele>369.603</ele>
        <time>2020-07-06T07:25:10Z</time>
      </trkpt>
      <trkpt lat="46.54252" lon="4.55252">
        <ele>371.603</ele>
        <time>2020-07-06T07:25:15Z</time>
      </trkpt>
      <trkpt lat="46.54245" lon="4.55253">
        <ele>369.603</ele>
        <time>2020-07-06T07:25:21Z</time>
      </trkpt>
      <trkpt lat="46.54238" lon="4.55251">
        <ele>369.603</ele>
        <time>2020-07-06T07:25:28Z</time>
      </trkpt>
      <trkpt lat="46.5423" lon="4.55249">
        <ele>369.603</ele>
        <time>2020-07-06T07:25:35Z</time>
      </trkpt>
      <trkpt lat="46.54222" lon="4.55246">
        <ele>369.603</ele>
        <time>2020-07-06T07:25:40Z</time>
      </trkpt>
      <trkpt lat="46.54215" lon="4.55247">
        <ele>366.603</ele>
        <time>2020-07-06T07:25:47Z</time>
      </trkpt>
      <trkpt lat="46.54208" lon="4.55244">
        <ele>367.603</ele>
        <time>2020-07-06T07:25:53Z</time>
      </trkpt>
      <trkpt lat="46.54201" lon="4.55241">
        <ele>367.603</ele>
        <time>2020-07-06T07:25:58Z</time>
      </trkpt>
      <trkpt lat="46.54195" lon="4.55236">
        <ele>368.603</ele>
        <time>2020-07-06T07:26:03Z</time>
      </trkpt>
      <trkpt lat="46.54187" lon="4.55236">
        <ele>366.603</ele>
        <time>2020-07-06T07:26:09Z</time>
      </trkpt>
      <trkpt lat="46.54181" lon="4.55235">
        <ele>368.603</ele>
        <time>2020-07-06T07:26:14Z</time>
      </trkpt>
      <trkpt lat="46.54174" lon="4.55232">
        <ele>367.603</ele>
        <time>2020-07-06T07:26:19Z</time>
      </trkpt>
      <trkpt lat="46.54168" lon="4.55228">
        <ele>369.603</ele>
        <time>2020-07-06T07:26:24Z</time>
      </trkpt>
      <trkpt lat="46.54161" lon="4.5523">
        <ele>369.603</ele>
        <time>2020-07-06T07:26:29Z</time>
      </trkpt>
      <trkpt lat="46.54153" lon="4.55232">
        <ele>367.603</ele>
        <time>2020-07-06T07:26:34Z</time>
      </trkpt>
      <trkpt lat="46.54147" lon="4.55228">
        <ele>365.603</ele>
        <time>2020-07-06T07:26:41Z</time>
      </trkpt>
      <trkpt lat="46.5414" lon="4.55224">
        <ele>369.603</ele>
        <time>2020-07-06T07:26:46Z</time>
      </trkpt>
      <trkpt lat="46.54133" lon="4.5522">
        <ele>371.603</ele>
        <time>2020-07-06T07:26:51Z</time>
      </trkpt>
      <trkpt lat="46.54126" lon="4.55217">
        <ele>373.603</ele>
        <time>2020-07-06T07:26:57Z</time>
      </trkpt>
      <trkpt lat="46.54119" lon="4.55214">
        <ele>372.603</ele>
        <time>2020-07-06T07:27:03Z</time>
      </trkpt>
      <trkpt lat="46.54111" lon="4.5521">
        <ele>373.603</ele>
        <time>2020-07-06T07:27:09Z</time>
      </trkpt>
      <trkpt lat="46.54104" lon="4.55207">
        <ele>374.603</ele>
        <time>2020-07-06T07:27:14Z</time>
      </trkpt>
      <trkpt lat="46.54097" lon="4.55203">
        <ele>375.603</ele>
        <time>2020-07-06T07:27:19Z</time>
      </trkpt>
      <trkpt lat="46.5409" lon="4.552">
        <ele>376.603</ele>
        <time>2020-07-06T07:27:24Z</time>
      </trkpt>
      <trkpt lat="46.54083" lon="4.55198">
        <ele>376.603</ele>
        <time>2020-07-06T07:27:30Z</time>
      </trkpt>
      <trkpt lat="46.54076" lon="4.552">
        <ele>372.603</ele>
        <time>2020-07-06T07:27:35Z</time>
      </trkpt>
      <trkpt lat="46.5407" lon="4.55197">
        <ele>371.602</ele>
        <time>2020-07-06T07:27:40Z</time>
      </trkpt>
      <trkpt lat="46.54063" lon="4.55192">
        <ele>373.602</ele>
        <time>2020-07-06T07:27:45Z</time>
      </trkpt>
      <trkpt lat="46.54057" lon="4.55188">
        <ele>372.602</ele>
        <time>2020-07-06T07:28:00Z</time>
      </trkpt>
      <trkpt lat="46.5405" lon="4.55183">
        <ele>373.602</ele>
        <time>2020-07-06T07:28:07Z</time>
      </trkpt>
      <trkpt lat="46.54043" lon="4.55179">
        <ele>371.602</ele>
        <time>2020-07-06T07:28:13Z</time>
      </trkpt>
      <trkpt lat="46.54036" lon="4.55175">
        <ele>370.602</ele>
        <time>2020-07-06T07:28:20Z</time>
      </trkpt>
      <trkpt lat="46.5403" lon="4.55169">
        <ele>371.602</ele>
        <time>2020-07-06T07:28:25Z</time>
      </trkpt>
      <trkpt lat="46.54023" lon="4.55164">
        <ele>369.602</ele>
        <time>2020-07-06T07:30:09Z</time>
      </trkpt>
      <trkpt lat="46.54016" lon="4.5516">
        <ele>370.602</ele>
        <time>2020-07-06T07:30:15Z</time>
      </trkpt>
      <trkpt lat="46.54009" lon="4.55159">
        <ele>368.602</ele>
        <time>2020-07-06T07:30:23Z</time>
      </trkpt>
      <trkpt lat="46.54001" lon="4.55159">
        <ele>367.602</ele>
        <time>2020-07-06T07:30:30Z</time>
      </trkpt>
      <trkpt lat="46.53995" lon="4.55155">
        <ele>367.602</ele>
        <time>2020-07-06T07:30:37Z</time>
      </trkpt>
      <trkpt lat="46.53988" lon="4.55153">
        <ele>366.602</ele>
        <time>2020-07-06T07:30:44Z</time>
      </trkpt>
      <trkpt lat="46.5398" lon="4.55155">
        <ele>365.602</ele>
        <time>2020-07-06T07:30:50Z</time>
      </trkpt>
      <trkpt lat="46.53974" lon="4.55148">
        <ele>365.602</ele>
        <time>2020-07-06T07:30:55Z</time>
      </trkpt>
      <trkpt lat="46.53966" lon="4.55146">
        <ele>365.602</ele>
        <time>2020-07-06T07:31:00Z</time>
      </trkpt>
      <trkpt lat="46.53958" lon="4.55145">
        <ele>368.602</ele>
        <time>2020-07-06T07:31:06Z</time>
      </trkpt>
      <trkpt lat="46.5395" lon="4.55148">
        <ele>370.602</ele>
        <time>2020-07-06T07:31:12Z</time>
      </trkpt>
      <trkpt lat="46.53943" lon="4.55148">
        <ele>369.602</ele>
        <time>2020-07-06T07:31:18Z</time>
      </trkpt>
      <trkpt lat="46.53935" lon="4.55148">
        <ele>371.602</ele>
        <time>2020-07-06T07:31:23Z</time>
      </trkpt>
      <trkpt lat="46.53929" lon="4.55155">
        <ele>373.602</ele>
        <time>2020-07-06T07:31:29Z</time>
      </trkpt>
      <trkpt lat="46.53923" lon="4.55158">
        <ele>371.602</ele>
        <time>2020-07-06T07:31:34Z</time>
      </trkpt>
      <trkpt lat="46.53916" lon="4.55159">
        <ele>369.602</ele>
        <time>2020-07-06T07:31:40Z</time>
      </trkpt>
      <trkpt lat="46.53909" lon="4.5516">
        <ele>364.602</ele>
        <time>2020-07-06T07:31:46Z</time>
      </trkpt>
      <trkpt lat="46.53902" lon="4.55163">
        <ele>368.602</ele>
        <time>2020-07-06T07:31:51Z</time>
      </trkpt>
      <trkpt lat="46.53895" lon="4.55163">
        <ele>368.602</ele>
        <time>2020-07-06T07:31:56Z</time>
      </trkpt>
      <trkpt lat="46.53888" lon="4.55163">
        <ele>371.602</ele>
        <time>2020-07-06T07:32:03Z</time>
      </trkpt>
      <trkpt lat="46.53881" lon="4.55161">
        <ele>374.602</ele>
        <time>2020-07-06T07:32:10Z</time>
      </trkpt>
      <trkpt lat="46.53873" lon="4.55159">
        <ele>373.602</ele>
        <time>2020-07-06T07:32:19Z</time>
      </trkpt>
      <trkpt lat="46.53866" lon="4.55158">
        <ele>371.602</ele>
        <time>2020-07-06T07:32:26Z</time>
      </trkpt>
      <trkpt lat="46.53859" lon="4.55158">
        <ele>372.602</ele>
        <time>2020-07-06T07:32:31Z</time>
      </trkpt>
      <trkpt lat="46.53852" lon="4.55159">
        <ele>372.602</ele>
        <time>2020-07-06T07:32:36Z</time>
      </trkpt>
      <trkpt lat="46.53846" lon="4.55155">
        <ele>376.602</ele>
        <time>2020-07-06T07:32:41Z</time>
      </trkpt>
      <trkpt lat="46.53838" lon="4.55156">
        <ele>375.602</ele>
        <time>2020-07-06T07:32:46Z</time>
      </trkpt>
      <trkpt lat="46.53831" lon="4.55157">
        <ele>376.602</ele>
        <time>2020-07-06T07:32:52Z</time>
      </trkpt>
      <trkpt lat="46.53825" lon="4.55155">
        <ele>374.602</ele>
        <time>2020-07-06T07:32:59Z</time>
      </trkpt>
      <trkpt lat="46.53818" lon="4.55157">
        <ele>377.602</ele>
        <time>2020-07-06T07:33:06Z</time>
      </trkpt>
      <trkpt lat="46.53808" lon="4.55157">
        <ele>376.602</ele>
        <time>2020-07-06T07:33:12Z</time>
      </trkpt>
      <trkpt lat="46.53801" lon="4.55157">
        <ele>374.602</ele>
        <time>2020-07-06T07:33:17Z</time>
      </trkpt>
      <trkpt lat="46.53793" lon="4.55158">
        <ele>378.602</ele>
        <time>2020-07-06T07:33:25Z</time>
      </trkpt>
      <trkpt lat="46.53786" lon="4.55161">
        <ele>381.602</ele>
        <time>2020-07-06T07:33:30Z</time>
      </trkpt>
      <trkpt lat="46.53779" lon="4.55166">
        <ele>382.602</ele>
        <time>2020-07-06T07:33:38Z</time>
      </trkpt>
      <trkpt lat="46.53772" lon="4.55166">
        <ele>382.602</ele>
        <time>2020-07-06T07:33:45Z</time>
      </trkpt>
      <trkpt lat="46.53764" lon="4.55169">
        <ele>382.602</ele>
        <time>2020-07-06T07:33:51Z</time>
      </trkpt>
      <trkpt lat="46.53756" lon="4.55175">
        <ele>382.602</ele>
        <time>2020-07-06T07:33:56Z</time>
      </trkpt>
      <trkpt lat="46.53751" lon="4.55182">
        <ele>379.602</ele>
        <time>2020-07-06T07:34:02Z</time>
      </trkpt>
      <trkpt lat="46.53745" lon="4.55189">
        <ele>380.602</ele>
        <time>2020-07-06T07:34:11Z</time>
      </trkpt>
      <trkpt lat="46.53738" lon="4.55193">
        <ele>384.602</ele>
        <time>2020-07-06T07:34:18Z</time>
      </trkpt>
      <trkpt lat="46.53732" lon="4.55197">
        <ele>387.602</ele>
        <time>2020-07-06T07:34:24Z</time>
      </trkpt>
      <trkpt lat="46.53726" lon="4.55201">
        <ele>388.602</ele>
        <time>2020-07-06T07:36:31Z</time>
      </trkpt>
      <trkpt lat="46.5372" lon="4.55206">
        <ele>388.602</ele>
        <time>2020-07-06T07:36:37Z</time>
      </trkpt>
      <trkpt lat="46.53713" lon="4.55209">
        <ele>386.602</ele>
        <time>2020-07-06T07:36:46Z</time>
      </trkpt>
      <trkpt lat="46.53708" lon="4.55214">
        <ele>385.602</ele>
        <time>2020-07-06T07:36:54Z</time>
      </trkpt>
      <trkpt lat="46.537" lon="4.55216">
        <ele>386.601</ele>
        <time>2020-07-06T07:37:00Z</time>
      </trkpt>
      <trkpt lat="46.53693" lon="4.55217">
        <ele>389.601</ele>
        <time>2020-07-06T07:37:05Z</time>
      </trkpt>
      <trkpt lat="46.53686" lon="4.5522">
        <ele>385.601</ele>
        <time>2020-07-06T07:37:12Z</time>
      </trkpt>
      <trkpt lat="46.53678" lon="4.55224">
        <ele>384.601</ele>
        <time>2020-07-06T07:37:17Z</time>
      </trkpt>
      <trkpt lat="46.53671" lon="4.55228">
        <ele>382.601</ele>
        <time>2020-07-06T07:37:26Z</time>
      </trkpt>
      <trkpt lat="46.53665" lon="4.55233">
        <ele>379.601</ele>
        <time>2020-07-06T07:37:31Z</time>
      </trkpt>
      <trkpt lat="46.53658" lon="4.55236">
        <ele>382.601</ele>
        <time>2020-07-06T07:37:36Z</time>
      </trkpt>
      <trkpt lat="46.53652" lon="4.55243">
        <ele>385.601</ele>
        <time>2020-07-06T07:37:43Z</time>
      </trkpt>
      <trkpt lat="46.53649" lon="4.55254">
        <ele>383.601</ele>
        <time>2020-07-06T07:37:51Z</time>
      </trkpt>
      <trkpt lat="46.53642" lon="4.55259">
        <ele>385.601</ele>
        <time>2020-07-06T07:37:56Z</time>
      </trkpt>
      <trkpt lat="46.53634" lon="4.55264">
        <ele>387.601</ele>
        <time>2020-07-06T07:38:01Z</time>
      </trkpt>
      <trkpt lat="46.53626" lon="4.55259">
        <ele>390.601</ele>
        <time>2020-07-06T07:38:06Z</time>
      </trkpt>
      <trkpt lat="46.53622" lon="4.55267">
        <ele>379.601</ele>
        <time>2020-07-06T07:38:13Z</time>
      </trkpt>
      <trkpt lat="46.53614" lon="4.5527">
        <ele>378.601</ele>
        <time>2020-07-06T07:38:18Z</time>
      </trkpt>
      <trkpt lat="46.53607" lon="4.55273">
        <ele>382.601</ele>
        <time>2020-07-06T07:38:23Z</time>
      </trkpt>
      <trkpt lat="46.53599" lon="4.55276">
        <ele>387.601</ele>
        <time>2020-07-06T07:38:29Z</time>
      </trkpt>
      <trkpt lat="46.53592" lon="4.5528">
        <ele>387.601</ele>
        <time>2020-07-06T07:38:35Z</time>
      </trkpt>
      <trkpt lat="46.53586" lon="4.55281">
        <ele>387.601</ele>
        <time>2020-07-06T07:38:40Z</time>
      </trkpt>
      <trkpt lat="46.53579" lon="4.55277">
        <ele>386.601</ele>
        <time>2020-07-06T07:38:49Z</time>
      </trkpt>
      <trkpt lat="46.53572" lon="4.55273">
        <ele>390.601</ele>
        <time>2020-07-06T07:38:56Z</time>
      </trkpt>
      <trkpt lat="46.53564" lon="4.5527">
        <ele>392.601</ele>
        <time>2020-07-06T07:39:01Z</time>
      </trkpt>
      <trkpt lat="46.53558" lon="4.55271">
        <ele>388.601</ele>
        <time>2020-07-06T07:39:08Z</time>
      </trkpt>
      <trkpt lat="46.5355" lon="4.55266">
        <ele>391.601</ele>
        <time>2020-07-06T07:39:13Z</time>
      </trkpt>
      <trkpt lat="46.53546" lon="4.55257">
        <ele>393.601</ele>
        <time>2020-07-06T07:39:18Z</time>
      </trkpt>
      <trkpt lat="46.53539" lon="4.55248">
        <ele>394.601</ele>
        <time>2020-07-06T07:39:23Z</time>
      </trkpt>
      <trkpt lat="46.53534" lon="4.55239">
        <ele>390.601</ele>
        <time>2020-07-06T07:39:30Z</time>
      </trkpt>
      <trkpt lat="46.53532" lon="4.5523">
        <ele>390.601</ele>
        <time>2020-07-06T07:39:36Z</time>
      </trkpt>
      <trkpt lat="46.5353" lon="4.5522">
        <ele>389.601</ele>
        <time>2020-07-06T07:39:41Z</time>
      </trkpt>
      <trkpt lat="46.53527" lon="4.5521">
        <ele>389.601</ele>
        <time>2020-07-06T07:39:48Z</time>
      </trkpt>
      <trkpt lat="46.53524" lon="4.55201">
        <ele>392.601</ele>
        <time>2020-07-06T07:39:55Z</time>
      </trkpt>
      <trkpt lat="46.53521" lon="4.55192">
        <ele>394.601</ele>
        <time>2020-07-06T07:40:01Z</time>
      </trkpt>
      <trkpt lat="46.53517" lon="4.55184">
        <ele>394.601</ele>
        <time>2020-07-06T07:40:06Z</time>
      </trkpt>
      <trkpt lat="46.53511" lon="4.55176">
        <ele>394.601</ele>
        <time>2020-07-06T07:40:13Z</time>
      </trkpt>
      <trkpt lat="46.53504" lon="4.55165">
        <ele>394.601</ele>
        <time>2020-07-06T07:40:18Z</time>
      </trkpt>
      <trkpt lat="46.53503" lon="4.55154">
        <ele>394.601</ele>
        <time>2020-07-06T07:40:25Z</time>
      </trkpt>
      <trkpt lat="46.53501" lon="4.55144">
        <ele>391.601</ele>
        <time>2020-07-06T07:40:31Z</time>
      </trkpt>
      <trkpt lat="46.53495" lon="4.55137">
        <ele>390.601</ele>
        <time>2020-07-06T07:40:36Z</time>
      </trkpt>
      <trkpt lat="46.53492" lon="4.55126">
        <ele>392.601</ele>
        <time>2020-07-06T07:40:43Z</time>
      </trkpt>
      <trkpt lat="46.53488" lon="4.55116">
        <ele>391.601</ele>
        <time>2020-07-06T07:40:48Z</time>
      </trkpt>
      <trkpt lat="46.53486" lon="4.55106">
        <ele>391.601</ele>
        <time>2020-07-06T07:40:54Z</time>
      </trkpt>
      <trkpt lat="46.53484" lon="4.55097">
        <ele>389.601</ele>
        <time>2020-07-06T07:40:59Z</time>
      </trkpt>
      <trkpt lat="46.5348" lon="4.55088">
        <ele>386.601</ele>
        <time>2020-07-06T07:41:04Z</time>
      </trkpt>
      <trkpt lat="46.53474" lon="4.55081">
        <ele>380.601</ele>
        <time>2020-07-06T07:41:09Z</time>
      </trkpt>
      <trkpt lat="46.5347" lon="4.55072">
        <ele>380.601</ele>
        <time>2020-07-06T07:41:14Z</time>
      </trkpt>
      <trkpt lat="46.53465" lon="4.55063">
        <ele>382.601</ele>
        <time>2020-07-06T07:41:20Z</time>
      </trkpt>
      <trkpt lat="46.53461" lon="4.55055">
        <ele>383.601</ele>
        <time>2020-07-06T07:41:25Z</time>
      </trkpt>
      <trkpt lat="46.53456" lon="4.55048">
        <ele>379.601</ele>
        <time>2020-07-06T07:41:32Z</time>
      </trkpt>
      <trkpt lat="46.53452" lon="4.55039">
        <ele>382.601</ele>
        <time>2020-07-06T07:41:37Z</time>
      </trkpt>
      <trkpt lat="46.53446" lon="4.55033">
        <ele>384.601</ele>
        <time>2020-07-06T07:41:43Z</time>
      </trkpt>
      <trkpt lat="46.5344" lon="4.55025">
        <ele>384.601</ele>
        <time>2020-07-06T07:41:48Z</time>
      </trkpt>
      <trkpt lat="46.53436" lon="4.55016">
        <ele>384.601</ele>
        <time>2020-07-06T07:41:53Z</time>
      </trkpt>
      <trkpt lat="46.53432" lon="4.55005">
        <ele>383.601</ele>
        <time>2020-07-06T07:41:58Z</time>
      </trkpt>
      <trkpt lat="46.5343" lon="4.54995">
        <ele>382.601</ele>
        <time>2020-07-06T07:42:03Z</time>
      </trkpt>
      <trkpt lat="46.53426" lon="4.54986">
        <ele>384.601</ele>
        <time>2020-07-06T07:42:30Z</time>
      </trkpt>
      <trkpt lat="46.53421" lon="4.5498">
        <ele>384.601</ele>
        <time>2020-07-06T07:42:35Z</time>
      </trkpt>
      <trkpt lat="46.53416" lon="4.54974">
        <ele>385.601</ele>
        <time>2020-07-06T07:43:54Z</time>
      </trkpt>
      <trkpt lat="46.53412" lon="4.54965">
        <ele>384.601</ele>
        <time>2020-07-06T07:44:00Z</time>
      </trkpt>
      <trkpt lat="46.53415" lon="4.54956">
        <ele>383.601</ele>
        <time>2020-07-06T07:44:08Z</time>
      </trkpt>
      <trkpt lat="46.53412" lon="4.54944">
        <ele>382.601</ele>
        <time>2020-07-06T07:44:13Z</time>
      </trkpt>
      <trkpt lat="46.53413" lon="4.54934">
        <ele>387.601</ele>
        <time>2020-07-06T07:44:20Z</time>
      </trkpt>
      <trkpt lat="46.53416" lon="4.54926">
        <ele>386.601</ele>
        <time>2020-07-06T07:44:25Z</time>
      </trkpt>
      <trkpt lat="46.53414" lon="4.54916">
        <ele>386.6</ele>
        <time>2020-07-06T07:44:32Z</time>
      </trkpt>
      <trkpt lat="46.53412" lon="4.54903">
        <ele>389.6</ele>
        <time>2020-07-06T07:44:37Z</time>
      </trkpt>
      <trkpt lat="46.53408" lon="4.54888">
        <ele>392.6</ele>
        <time>2020-07-06T07:44:42Z</time>
      </trkpt>
      <trkpt lat="46.53409" lon="4.54877">
        <ele>395.6</ele>
        <time>2020-07-06T07:44:47Z</time>
      </trkpt>
      <trkpt lat="46.53404" lon="4.54867">
        <ele>393.6</ele>
        <time>2020-07-06T07:44:52Z</time>
      </trkpt>
      <trkpt lat="46.53401" lon="4.54858">
        <ele>390.6</ele>
        <time>2020-07-06T07:44:57Z</time>
      </trkpt>
      <trkpt lat="46.534" lon="4.54848">
        <ele>389.6</ele>
        <time>2020-07-06T07:45:03Z</time>
      </trkpt>
      <trkpt lat="46.53399" lon="4.54837">
        <ele>390.6</ele>
        <time>2020-07-06T07:45:09Z</time>
      </trkpt>
      <trkpt lat="46.53396" lon="4.54828">
        <ele>391.6</ele>
        <time>2020-07-06T07:45:14Z</time>
      </trkpt>
      <trkpt lat="46.53391" lon="4.54821">
        <ele>393.6</ele>
        <time>2020-07-06T07:45:19Z</time>
      </trkpt>
      <trkpt lat="46.53389" lon="4.54809">
        <ele>390.6</ele>
        <time>2020-07-06T07:45:25Z</time>
      </trkpt>
      <trkpt lat="46.53384" lon="4.54803">
        <ele>389.6</ele>
        <time>2020-07-06T07:45:30Z</time>
      </trkpt>
      <trkpt lat="46.53383" lon="4.54792">
        <ele>390.6</ele>
        <time>2020-07-06T07:45:35Z</time>
      </trkpt>
      <trkpt lat="46.53377" lon="4.54783">
        <ele>391.6</ele>
        <time>2020-07-06T07:45:40Z</time>
      </trkpt>
      <trkpt lat="46.53369" lon="4.54776">
        <ele>392.6</ele>
        <time>2020-07-06T07:45:45Z</time>
      </trkpt>
      <trkpt lat="46.53363" lon="4.54769">
        <ele>391.6</ele>
        <time>2020-07-06T07:45:50Z</time>
      </trkpt>
      <trkpt lat="46.53357" lon="4.54765">
        <ele>391.6</ele>
        <time>2020-07-06T07:45:55Z</time>
      </trkpt>
      <trkpt lat="46.53349" lon="4.5476">
        <ele>387.6</ele>
        <time>2020-07-06T07:46:00Z</time>
      </trkpt>
      <trkpt lat="46.53341" lon="4.54756">
        <ele>390.6</ele>
        <time>2020-07-06T07:46:05Z</time>
      </trkpt>
      <trkpt lat="46.53332" lon="4.54759">
        <ele>390.6</ele>
        <time>2020-07-06T07:46:10Z</time>
      </trkpt>
      <trkpt lat="46.53323" lon="4.54758">
        <ele>392.6</ele>
        <time>2020-07-06T07:46:15Z</time>
      </trkpt>
      <trkpt lat="46.53315" lon="4.54759">
        <ele>394.6</ele>
        <time>2020-07-06T07:46:21Z</time>
      </trkpt>
      <trkpt lat="46.53307" lon="4.54755">
        <ele>393.6</ele>
        <time>2020-07-06T07:46:26Z</time>
      </trkpt>
      <trkpt lat="46.533" lon="4.54756">
        <ele>394.6</ele>
        <time>2020-07-06T07:46:34Z</time>
      </trkpt>
      <trkpt lat="46.53292" lon="4.54755">
        <ele>393.6</ele>
        <time>2020-07-06T07:46:39Z</time>
      </trkpt>
      <trkpt lat="46.53285" lon="4.54756">
        <ele>392.6</ele>
        <time>2020-07-06T07:46:45Z</time>
      </trkpt>
      <trkpt lat="46.53277" lon="4.54755">
        <ele>393.6</ele>
        <time>2020-07-06T07:46:50Z</time>
      </trkpt>
      <trkpt lat="46.53268" lon="4.54755">
        <ele>395.6</ele>
        <time>2020-07-06T07:46:55Z</time>
      </trkpt>
      <trkpt lat="46.53261" lon="4.54754">
        <ele>399.6</ele>
        <time>2020-07-06T07:47:04Z</time>
      </trkpt>
      <trkpt lat="46.53254" lon="4.54751">
        <ele>398.6</ele>
        <time>2020-07-06T07:47:09Z</time>
      </trkpt>
      <trkpt lat="46.53247" lon="4.54747">
        <ele>398.6</ele>
        <time>2020-07-06T07:47:14Z</time>
      </trkpt>
      <trkpt lat="46.53239" lon="4.54746">
        <ele>398.6</ele>
        <time>2020-07-06T07:47:20Z</time>
      </trkpt>
      <trkpt lat="46.53232" lon="4.5474">
        <ele>392.6</ele>
        <time>2020-07-06T07:47:28Z</time>
      </trkpt>
      <trkpt lat="46.53226" lon="4.54734">
        <ele>390.6</ele>
        <time>2020-07-06T07:47:34Z</time>
      </trkpt>
      <trkpt lat="46.5322" lon="4.54729">
        <ele>392.6</ele>
        <time>2020-07-06T07:47:40Z</time>
      </trkpt>
      <trkpt lat="46.53215" lon="4.54722">
        <ele>395.6</ele>
        <time>2020-07-06T07:47:46Z</time>
      </trkpt>
      <trkpt lat="46.53209" lon="4.54715">
        <ele>394.6</ele>
        <time>2020-07-06T07:47:52Z</time>
      </trkpt>
      <trkpt lat="46.53201" lon="4.54707">
        <ele>395.6</ele>
        <time>2020-07-06T07:47:57Z</time>
      </trkpt>
      <trkpt lat="46.53195" lon="4.547">
        <ele>395.6</ele>
        <time>2020-07-06T07:48:02Z</time>
      </trkpt>
      <trkpt lat="46.5319" lon="4.54692">
        <ele>395.6</ele>
        <time>2020-07-06T07:48:08Z</time>
      </trkpt>
      <trkpt lat="46.53184" lon="4.54686">
        <ele>392.6</ele>
        <time>2020-07-06T07:48:14Z</time>
      </trkpt>
      <trkpt lat="46.53179" lon="4.5468">
        <ele>391.6</ele>
        <time>2020-07-06T07:48:19Z</time>
      </trkpt>
      <trkpt lat="46.53172" lon="4.54668">
        <ele>391.6</ele>
        <time>2020-07-06T07:48:24Z</time>
      </trkpt>
      <trkpt lat="46.53162" lon="4.54658">
        <ele>393.6</ele>
        <time>2020-07-06T07:48:29Z</time>
      </trkpt>
      <trkpt lat="46.53156" lon="4.54653">
        <ele>395.6</ele>
        <time>2020-07-06T07:48:34Z</time>
      </trkpt>
      <trkpt lat="46.53149" lon="4.54647">
        <ele>393.6</ele>
        <time>2020-07-06T07:48:39Z</time>
      </trkpt>
      <trkpt lat="46.53142" lon="4.54645">
        <ele>393.6</ele>
        <time>2020-07-06T07:48:44Z</time>
      </trkpt>
      <trkpt lat="46.53136" lon="4.54646">
        <ele>390.6</ele>
        <time>2020-07-06T07:48:49Z</time>
      </trkpt>
      <trkpt lat="46.53127" lon="4.54647">
        <ele>389.6</ele>
        <time>2020-07-06T07:48:54Z</time>
      </trkpt>
      <trkpt lat="46.5312" lon="4.54646">
        <ele>390.599</ele>
        <time>2020-07-06T07:48:59Z</time>
      </trkpt>
      <trkpt lat="46.53111" lon="4.54648">
        <ele>388.599</ele>
        <time>2020-07-06T07:49:04Z</time>
      </trkpt>
      <trkpt lat="46.53106" lon="4.54651">
        <ele>388.599</ele>
        <time>2020-07-06T07:49:09Z</time>
      </trkpt>
      <trkpt lat="46.53098" lon="4.54654">
        <ele>389.599</ele>
        <time>2020-07-06T07:49:14Z</time>
      </trkpt>
      <trkpt lat="46.5309" lon="4.54656">
        <ele>391.599</ele>
        <time>2020-07-06T07:49:19Z</time>
      </trkpt>
      <trkpt lat="46.53084" lon="4.54662">
        <ele>395.599</ele>
        <time>2020-07-06T07:49:24Z</time>
      </trkpt>
      <trkpt lat="46.53078" lon="4.54672">
        <ele>391.599</ele>
        <time>2020-07-06T07:49:31Z</time>
      </trkpt>
      <trkpt lat="46.53073" lon="4.5468">
        <ele>388.599</ele>
        <time>2020-07-06T07:49:36Z</time>
      </trkpt>
      <trkpt lat="46.53066" lon="4.5469">
        <ele>387.599</ele>
        <time>2020-07-06T07:49:41Z</time>
      </trkpt>
      <trkpt lat="46.53059" lon="4.54693">
        <ele>392.599</ele>
        <time>2020-07-06T07:49:46Z</time>
      </trkpt>
      <trkpt lat="46.53055" lon="4.54701">
        <ele>385.599</ele>
        <time>2020-07-06T07:49:52Z</time>
      </trkpt>
      <trkpt lat="46.53049" lon="4.54706">
        <ele>387.599</ele>
        <time>2020-07-06T07:49:57Z</time>
      </trkpt>
      <trkpt lat="46.53043" lon="4.54714">
        <ele>387.599</ele>
        <time>2020-07-06T07:50:03Z</time>
      </trkpt>
      <trkpt lat="46.53033" lon="4.54721">
        <ele>392.599</ele>
        <time>2020-07-06T07:50:08Z</time>
      </trkpt>
      <trkpt lat="46.53029" lon="4.54729">
        <ele>392.599</ele>
        <time>2020-07-06T07:50:13Z</time>
      </trkpt>
      <trkpt lat="46.53022" lon="4.54736">
        <ele>387.599</ele>
        <time>2020-07-06T07:50:20Z</time>
      </trkpt>
      <trkpt lat="46.53012" lon="4.54737">
        <ele>387.599</ele>
        <time>2020-07-06T07:50:25Z</time>
      </trkpt>
      <trkpt lat="46.53006" lon="4.54743">
        <ele>383.599</ele>
        <time>2020-07-06T07:50:31Z</time>
      </trkpt>
      <trkpt lat="46.52999" lon="4.54742">
        <ele>384.599</ele>
        <time>2020-07-06T07:50:36Z</time>
      </trkpt>
      <trkpt lat="46.52991" lon="4.54741">
        <ele>384.599</ele>
        <time>2020-07-06T07:50:41Z</time>
      </trkpt>
      <trkpt lat="46.52985" lon="4.54738">
        <ele>382.599</ele>
        <time>2020-07-06T07:50:46Z</time>
      </trkpt>
      <trkpt lat="46.52976" lon="4.54734">
        <ele>383.599</ele>
        <time>2020-07-06T07:50:51Z</time>
      </trkpt>
      <trkpt lat="46.52968" lon="4.54732">
        <ele>381.599</ele>
        <time>2020-07-06T07:50:56Z</time>
      </trkpt>
      <trkpt lat="46.5296" lon="4.54733">
        <ele>380.599</ele>
        <time>2020-07-06T07:51:01Z</time>
      </trkpt>
      <trkpt lat="46.52954" lon="4.54729">
        <ele>378.599</ele>
        <time>2020-07-06T07:51:09Z</time>
      </trkpt>
      <trkpt lat="46.52953" lon="4.54719">
        <ele>372.599</ele>
        <time>2020-07-06T07:51:17Z</time>
      </trkpt>
      <trkpt lat="46.52952" lon="4.54709">
        <ele>374.599</ele>
        <time>2020-07-06T07:51:22Z</time>
      </trkpt>
      <trkpt lat="46.52955" lon="4.54699">
        <ele>375.599</ele>
        <time>2020-07-06T07:51:27Z</time>
      </trkpt>
      <trkpt lat="46.5296" lon="4.54692">
        <ele>373.599</ele>
        <time>2020-07-06T07:51:32Z</time>
      </trkpt>
      <trkpt lat="46.52963" lon="4.54682">
        <ele>368.599</ele>
        <time>2020-07-06T07:51:43Z</time>
      </trkpt>
      <trkpt lat="46.52962" lon="4.54668">
        <ele>369.599</ele>
        <time>2020-07-06T07:51:48Z</time>
      </trkpt>
      <trkpt lat="46.52966" lon="4.54655">
        <ele>369.599</ele>
        <time>2020-07-06T07:51:53Z</time>
      </trkpt>
      <trkpt lat="46.52968" lon="4.54642">
        <ele>368.599</ele>
        <time>2020-07-06T07:51:58Z</time>
      </trkpt>
      <trkpt lat="46.5297" lon="4.54632">
        <ele>369.599</ele>
        <time>2020-07-06T07:52:03Z</time>
      </trkpt>
      <trkpt lat="46.52972" lon="4.54619">
        <ele>369.599</ele>
        <time>2020-07-06T07:52:08Z</time>
      </trkpt>
      <trkpt lat="46.52973" lon="4.54607">
        <ele>368.599</ele>
        <time>2020-07-06T07:52:14Z</time>
      </trkpt>
      <trkpt lat="46.52976" lon="4.54597">
        <ele>366.599</ele>
        <time>2020-07-06T07:52:20Z</time>
      </trkpt>
      <trkpt lat="46.52979" lon="4.54588">
        <ele>364.599</ele>
        <time>2020-07-06T07:52:25Z</time>
      </trkpt>
      <trkpt lat="46.52978" lon="4.54578">
        <ele>363.599</ele>
        <time>2020-07-06T07:52:30Z</time>
      </trkpt>
      <trkpt lat="46.52983" lon="4.5457">
        <ele>362.599</ele>
        <time>2020-07-06T07:52:35Z</time>
      </trkpt>
      <trkpt lat="46.52987" lon="4.54557">
        <ele>361.599</ele>
        <time>2020-07-06T07:52:40Z</time>
      </trkpt>
      <trkpt lat="46.52991" lon="4.54548">
        <ele>358.599</ele>
        <time>2020-07-06T07:52:45Z</time>
      </trkpt>
      <trkpt lat="46.52995" lon="4.54538">
        <ele>360.599</ele>
        <time>2020-07-06T07:52:50Z</time>
      </trkpt>
      <trkpt lat="46.52997" lon="4.54528">
        <ele>359.599</ele>
        <time>2020-07-06T07:52:56Z</time>
      </trkpt>
      <trkpt lat="46.53" lon="4.54519">
        <ele>359.599</ele>
        <time>2020-07-06T07:53:01Z</time>
      </trkpt>
      <trkpt lat="46.53004" lon="4.5451">
        <ele>363.599</ele>
        <time>2020-07-06T07:53:06Z</time>
      </trkpt>
      <trkpt lat="46.53006" lon="4.545">
        <ele>364.599</ele>
        <time>2020-07-06T07:53:12Z</time>
      </trkpt>
      <trkpt lat="46.53013" lon="4.54493">
        <ele>363.599</ele>
        <time>2020-07-06T07:53:17Z</time>
      </trkpt>
      <trkpt lat="46.53014" lon="4.54483">
        <ele>363.599</ele>
        <time>2020-07-06T07:53:22Z</time>
      </trkpt>
      <trkpt lat="46.53016" lon="4.54473">
        <ele>366.599</ele>
        <time>2020-07-06T07:53:27Z</time>
      </trkpt>
      <trkpt lat="46.53023" lon="4.54468">
        <ele>362.599</ele>
        <time>2020-07-06T07:53:32Z</time>
      </trkpt>
      <trkpt lat="46.5303" lon="4.5446">
        <ele>358.599</ele>
        <time>2020-07-06T07:53:37Z</time>
      </trkpt>
      <trkpt lat="46.53032" lon="4.54448">
        <ele>356.599</ele>
        <time>2020-07-06T07:53:42Z</time>
      </trkpt>
      <trkpt lat="46.53035" lon="4.54437">
        <ele>354.599</ele>
        <time>2020-07-06T07:53:47Z</time>
      </trkpt>
      <trkpt lat="46.5304" lon="4.54427">
        <ele>353.599</ele>
        <time>2020-07-06T07:53:52Z</time>
      </trkpt>
      <trkpt lat="46.53045" lon="4.54417">
        <ele>352.599</ele>
        <time>2020-07-06T07:53:57Z</time>
      </trkpt>
      <trkpt lat="46.53048" lon="4.54407">
        <ele>351.599</ele>
        <time>2020-07-06T07:54:05Z</time>
      </trkpt>
      <trkpt lat="46.53052" lon="4.54398">
        <ele>349.599</ele>
        <time>2020-07-06T07:54:11Z</time>
      </trkpt>
      <trkpt lat="46.53057" lon="4.54391">
        <ele>349.599</ele>
        <time>2020-07-06T07:54:16Z</time>
      </trkpt>
      <trkpt lat="46.53064" lon="4.54383">
        <ele>349.599</ele>
        <time>2020-07-06T07:54:21Z</time>
      </trkpt>
      <trkpt lat="46.53073" lon="4.54377">
        <ele>351.599</ele>
        <time>2020-07-06T07:54:26Z</time>
      </trkpt>
      <trkpt lat="46.53076" lon="4.54366">
        <ele>351.599</ele>
        <time>2020-07-06T07:54:31Z</time>
      </trkpt>
      <trkpt lat="46.5308" lon="4.54356">
        <ele>352.599</ele>
        <time>2020-07-06T07:54:36Z</time>
      </trkpt>
      <trkpt lat="46.53083" lon="4.54347">
        <ele>350.599</ele>
        <time>2020-07-06T07:54:43Z</time>
      </trkpt>
      <trkpt lat="46.53088" lon="4.54339">
        <ele>347.599</ele>
        <time>2020-07-06T07:54:50Z</time>
      </trkpt>
      <trkpt lat="46.53094" lon="4.54329">
        <ele>346.599</ele>
        <time>2020-07-06T07:54:55Z</time>
      </trkpt>
      <trkpt lat="46.53098" lon="4.5432">
        <ele>347.599</ele>
        <time>2020-07-06T07:55:00Z</time>
      </trkpt>
      <trkpt lat="46.53101" lon="4.54309">
        <ele>348.599</ele>
        <time>2020-07-06T07:55:05Z</time>
      </trkpt>
      <trkpt lat="46.53105" lon="4.54298">
        <ele>344.599</ele>
        <time>2020-07-06T07:55:12Z</time>
      </trkpt>
      <trkpt lat="46.53107" lon="4.54288">
        <ele>344.599</ele>
        <time>2020-07-06T07:55:18Z</time>
      </trkpt>
      <trkpt lat="46.53111" lon="4.5428">
        <ele>344.599</ele>
        <time>2020-07-06T07:55:24Z</time>
      </trkpt>
      <trkpt lat="46.5312" lon="4.54271">
        <ele>346.599</ele>
        <time>2020-07-06T07:55:29Z</time>
      </trkpt>
      <trkpt lat="46.53125" lon="4.54263">
        <ele>344.599</ele>
        <time>2020-07-06T07:55:34Z</time>
      </trkpt>
      <trkpt lat="46.53129" lon="4.54255">
        <ele>344.599</ele>
        <time>2020-07-06T07:55:40Z</time>
      </trkpt>
      <trkpt lat="46.53135" lon="4.54247">
        <ele>340.599</ele>
        <time>2020-07-06T07:55:45Z</time>
      </trkpt>
      <trkpt lat="46.53141" lon="4.54241">
        <ele>338.599</ele>
        <time>2020-07-06T07:55:50Z</time>
      </trkpt>
      <trkpt lat="46.5315" lon="4.54234">
        <ele>341.599</ele>
        <time>2020-07-06T07:55:55Z</time>
      </trkpt>
      <trkpt lat="46.53154" lon="4.54227">
        <ele>337.599</ele>
        <time>2020-07-06T07:56:03Z</time>
      </trkpt>
      <trkpt lat="46.53161" lon="4.54221">
        <ele>335.599</ele>
        <time>2020-07-06T07:56:08Z</time>
      </trkpt>
      <trkpt lat="46.53168" lon="4.54217">
        <ele>334.599</ele>
        <time>2020-07-06T07:56:14Z</time>
      </trkpt>
      <trkpt lat="46.53173" lon="4.54209">
        <ele>333.599</ele>
        <time>2020-07-06T07:56:19Z</time>
      </trkpt>
      <trkpt lat="46.53179" lon="4.54203">
        <ele>332.599</ele>
        <time>2020-07-06T07:56:27Z</time>
      </trkpt>
      <trkpt lat="46.53185" lon="4.54198">
        <ele>330.599</ele>
        <time>2020-07-06T07:56:32Z</time>
      </trkpt>
      <trkpt lat="46.53193" lon="4.54192">
        <ele>331.599</ele>
        <time>2020-07-06T07:56:37Z</time>
      </trkpt>
      <trkpt lat="46.53199" lon="4.54187">
        <ele>328.599</ele>
        <time>2020-07-06T07:56:42Z</time>
      </trkpt>
      <trkpt lat="46.53204" lon="4.54182">
        <ele>325.599</ele>
        <time>2020-07-06T07:56:49Z</time>
      </trkpt>
      <trkpt lat="46.53212" lon="4.54178">
        <ele>323.599</ele>
        <time>2020-07-06T07:56:54Z</time>
      </trkpt>
      <trkpt lat="46.5322" lon="4.54172">
        <ele>321.599</ele>
        <time>2020-07-06T07:56:59Z</time>
      </trkpt>
      <trkpt lat="46.53227" lon="4.54167">
        <ele>320.599</ele>
        <time>2020-07-06T07:57:04Z</time>
      </trkpt>
      <trkpt lat="46.53233" lon="4.54161">
        <ele>321.599</ele>
        <time>2020-07-06T07:57:09Z</time>
      </trkpt>
      <trkpt lat="46.53241" lon="4.54152">
        <ele>321.599</ele>
        <time>2020-07-06T07:57:14Z</time>
      </trkpt>
      <trkpt lat="46.53246" lon="4.54146">
        <ele>322.599</ele>
        <time>2020-07-06T07:57:19Z</time>
      </trkpt>
      <trkpt lat="46.53252" lon="4.54137">
        <ele>319.599</ele>
        <time>2020-07-06T07:57:53Z</time>
      </trkpt>
      <trkpt lat="46.53262" lon="4.54123">
        <ele>323.599</ele>
        <time>2020-07-06T07:57:58Z</time>
      </trkpt>
      <trkpt lat="46.53268" lon="4.54114">
        <ele>324.6</ele>
        <time>2020-07-06T07:58:03Z</time>
      </trkpt>
      <trkpt lat="46.53274" lon="4.54109">
        <ele>320.6</ele>
        <time>2020-07-06T07:58:08Z</time>
      </trkpt>
      <trkpt lat="46.5328" lon="4.54102">
        <ele>321.6</ele>
        <time>2020-07-06T07:58:13Z</time>
      </trkpt>
      <trkpt lat="46.53287" lon="4.54095">
        <ele>320.6</ele>
        <time>2020-07-06T07:58:18Z</time>
      </trkpt>
      <trkpt lat="46.53292" lon="4.54087">
        <ele>318.6</ele>
        <time>2020-07-06T07:58:23Z</time>
      </trkpt>
      <trkpt lat="46.53296" lon="4.54078">
        <ele>317.6</ele>
        <time>2020-07-06T07:58:28Z</time>
      </trkpt>
      <trkpt lat="46.53301" lon="4.5407">
        <ele>317.6</ele>
        <time>2020-07-06T07:58:33Z</time>
      </trkpt>
      <trkpt lat="46.53307" lon="4.54058">
        <ele>312.6</ele>
        <time>2020-07-06T07:58:38Z</time>
      </trkpt>
      <trkpt lat="46.53313" lon="4.54052">
        <ele>312.6</ele>
        <time>2020-07-06T07:58:43Z</time>
      </trkpt>
      <trkpt lat="46.53316" lon="4.54043">
        <ele>311.6</ele>
        <time>2020-07-06T07:58:49Z</time>
      </trkpt>
      <trkpt lat="46.53322" lon="4.54037">
        <ele>311.6</ele>
        <time>2020-07-06T07:58:54Z</time>
      </trkpt>
      <trkpt lat="46.53327" lon="4.54029">
        <ele>309.6</ele>
        <time>2020-07-06T07:59:00Z</time>
      </trkpt>
      <trkpt lat="46.53332" lon="4.54021">
        <ele>305.6</ele>
        <time>2020-07-06T07:59:06Z</time>
      </trkpt>
      <trkpt lat="46.53336" lon="4.54014">
        <ele>305.6</ele>
        <time>2020-07-06T07:59:11Z</time>
      </trkpt>
      <trkpt lat="46.53342" lon="4.54004">
        <ele>305.6</ele>
        <time>2020-07-06T07:59:16Z</time>
      </trkpt>
      <trkpt lat="46.53347" lon="4.53998">
        <ele>306.6</ele>
        <time>2020-07-06T07:59:22Z</time>
      </trkpt>
      <trkpt lat="46.53353" lon="4.53993">
        <ele>301.6</ele>
        <time>2020-07-06T07:59:29Z</time>
      </trkpt>
      <trkpt lat="46.5336" lon="4.53991">
        <ele>299.6</ele>
        <time>2020-07-06T07:59:36Z</time>
      </trkpt>
      <trkpt lat="46.53369" lon="4.5399">
        <ele>294.6</ele>
        <time>2020-07-06T07:59:41Z</time>
      </trkpt>
      <trkpt lat="46.53376" lon="4.53993">
        <ele>295.6</ele>
        <time>2020-07-06T07:59:46Z</time>
      </trkpt>
      <trkpt lat="46.53382" lon="4.53996">
        <ele>295.6</ele>
        <time>2020-07-06T07:59:51Z</time>
      </trkpt>
      <trkpt lat="46.53389" lon="4.54">
        <ele>296.6</ele>
        <time>2020-07-06T07:59:56Z</time>
      </trkpt>
      <trkpt lat="46.53397" lon="4.54">
        <ele>295.6</ele>
        <time>2020-07-06T08:00:02Z</time>
      </trkpt>
      <trkpt lat="46.53404" lon="4.54">
        <ele>294.6</ele>
        <time>2020-07-06T08:00:07Z</time>
      </trkpt>
      <trkpt lat="46.53412" lon="4.53996">
        <ele>295.6</ele>
        <time>2020-07-06T08:00:12Z</time>
      </trkpt>
      <trkpt lat="46.53419" lon="4.5399">
        <ele>296.6</ele>
        <time>2020-07-06T08:00:17Z</time>
      </trkpt>
      <trkpt lat="46.53426" lon="4.53989">
        <ele>297.6</ele>
        <time>2020-07-06T08:00:22Z</time>
      </trkpt>
      <trkpt lat="46.53433" lon="4.53985">
        <ele>297.6</ele>
        <time>2020-07-06T08:00:27Z</time>
      </trkpt>
      <trkpt lat="46.53439" lon="4.53986">
        <ele>294.6</ele>
        <time>2020-07-06T08:00:34Z</time>
      </trkpt>
      <trkpt lat="46.53447" lon="4.53988">
        <ele>292.6</ele>
        <time>2020-07-06T08:00:40Z</time>
      </trkpt>
      <trkpt lat="46.53455" lon="4.53991">
        <ele>292.6</ele>
        <time>2020-07-06T08:00:46Z</time>
      </trkpt>
      <trkpt lat="46.53462" lon="4.53992">
        <ele>291.6</ele>
        <time>2020-07-06T08:00:51Z</time>
      </trkpt>
      <trkpt lat="46.5347" lon="4.53997">
        <ele>296.6</ele>
        <time>2020-07-06T08:00:56Z</time>
      </trkpt>
      <trkpt lat="46.53478" lon="4.54">
        <ele>294.6</ele>
        <time>2020-07-06T08:01:01Z</time>
      </trkpt>
      <trkpt lat="46.53486" lon="4.54001">
        <ele>289.6</ele>
        <time>2020-07-06T08:01:06Z</time>
      </trkpt>
      <trkpt lat="46.53497" lon="4.54002">
        <ele>287.6</ele>
        <time>2020-07-06T08:01:11Z</time>
      </trkpt>
      <trkpt lat="46.53506" lon="4.54002">
        <ele>284.6</ele>
        <time>2020-07-06T08:01:16Z</time>
      </trkpt>
      <trkpt lat="46.53513" lon="4.54001">
        <ele>285.6</ele>
        <time>2020-07-06T08:01:22Z</time>
      </trkpt>
      <trkpt lat="46.5352" lon="4.54001">
        <ele>284.6</ele>
        <time>2020-07-06T08:01:29Z</time>
      </trkpt>
      <trkpt lat="46.53528" lon="4.54001">
        <ele>282.6</ele>
        <time>2020-07-06T08:01:35Z</time>
      </trkpt>
      <trkpt lat="46.53537" lon="4.53997">
        <ele>280.6</ele>
        <time>2020-07-06T08:01:40Z</time>
      </trkpt>
      <trkpt lat="46.53543" lon="4.53991">
        <ele>277.6</ele>
        <time>2020-07-06T08:01:45Z</time>
      </trkpt>
      <trkpt lat="46.53551" lon="4.53986">
        <ele>276.6</ele>
        <time>2020-07-06T08:01:50Z</time>
      </trkpt>
      <trkpt lat="46.53557" lon="4.5398">
        <ele>276.6</ele>
        <time>2020-07-06T08:01:55Z</time>
      </trkpt>
      <trkpt lat="46.53562" lon="4.53974">
        <ele>274.6</ele>
        <time>2020-07-06T08:02:00Z</time>
      </trkpt>
      <trkpt lat="46.53568" lon="4.53967">
        <ele>271.6</ele>
        <time>2020-07-06T08:02:06Z</time>
      </trkpt>
      <trkpt lat="46.53575" lon="4.53961">
        <ele>270.6</ele>
        <time>2020-07-06T08:02:12Z</time>
      </trkpt>
      <trkpt lat="46.53582" lon="4.53956">
        <ele>270.6</ele>
        <time>2020-07-06T08:02:17Z</time>
      </trkpt>
      <trkpt lat="46.53588" lon="4.53948">
        <ele>267.6</ele>
        <time>2020-07-06T08:02:23Z</time>
      </trkpt>
      <trkpt lat="46.53594" lon="4.53942">
        <ele>268.6</ele>
        <time>2020-07-06T08:02:28Z</time>
      </trkpt>
      <trkpt lat="46.53601" lon="4.53933">
        <ele>268.6</ele>
        <time>2020-07-06T08:02:33Z</time>
      </trkpt>
      <trkpt lat="46.53605" lon="4.53924">
        <ele>263.6</ele>
        <time>2020-07-06T08:02:38Z</time>
      </trkpt>
      <trkpt lat="46.53606" lon="4.53914">
        <ele>258.6</ele>
        <time>2020-07-06T08:02:43Z</time>
      </trkpt>
      <trkpt lat="46.5361" lon="4.53902">
        <ele>259.6</ele>
        <time>2020-07-06T08:02:55Z</time>
      </trkpt>
      <trkpt lat="46.53611" lon="4.53886">
        <ele>261.6</ele>
        <time>2020-07-06T08:03:00Z</time>
      </trkpt>
      <trkpt lat="46.53612" lon="4.53871">
        <ele>260.6</ele>
        <time>2020-07-06T08:03:05Z</time>
      </trkpt>
      <trkpt lat="46.53613" lon="4.53855">
        <ele>261.6</ele>
        <time>2020-07-06T08:03:10Z</time>
      </trkpt>
      <trkpt lat="46.53613" lon="4.53844">
        <ele>258.6</ele>
        <time>2020-07-06T08:03:18Z</time>
      </trkpt>
      <trkpt lat="46.53619" lon="4.53835">
        <ele>260.6</ele>
        <time>2020-07-06T08:03:23Z</time>
      </trkpt>
      <trkpt lat="46.53623" lon="4.53824">
        <ele>257.6</ele>
        <time>2020-07-06T08:03:28Z</time>
      </trkpt>
      <trkpt lat="46.53628" lon="4.53815">
        <ele>253.6</ele>
        <time>2020-07-06T08:03:34Z</time>
      </trkpt>
      <trkpt lat="46.53634" lon="4.53809">
        <ele>254.6</ele>
        <time>2020-07-06T08:03:39Z</time>
      </trkpt>
      <trkpt lat="46.5364" lon="4.53803">
        <ele>255.6</ele>
        <time>2020-07-06T08:03:44Z</time>
      </trkpt>
      <trkpt lat="46.53647" lon="4.538">
        <ele>254.6</ele>
        <time>2020-07-06T08:03:49Z</time>
      </trkpt>
      <trkpt lat="46.53658" lon="4.53797">
        <ele>255.6</ele>
        <time>2020-07-06T08:03:54Z</time>
      </trkpt>
      <trkpt lat="46.53665" lon="4.53795">
        <ele>254.6</ele>
        <time>2020-07-06T08:03:59Z</time>
      </trkpt>
      <trkpt lat="46.53672" lon="4.53789">
        <ele>256.6</ele>
        <time>2020-07-06T08:04:04Z</time>
      </trkpt>
      <trkpt lat="46.53679" lon="4.53784">
        <ele>255.6</ele>
        <time>2020-07-06T08:04:10Z</time>
      </trkpt>
      <trkpt lat="46.53688" lon="4.5378">
        <ele>256.6</ele>
        <time>2020-07-06T08:04:15Z</time>
      </trkpt>
      <trkpt lat="46.53693" lon="4.53774">
        <ele>253.6</ele>
        <time>2020-07-06T08:04:20Z</time>
      </trkpt>
      <trkpt lat="46.53698" lon="4.53767">
        <ele>252.6</ele>
        <time>2020-07-06T08:04:25Z</time>
      </trkpt>
      <trkpt lat="46.53704" lon="4.53762">
        <ele>252.6</ele>
        <time>2020-07-06T08:04:30Z</time>
      </trkpt>
      <trkpt lat="46.5371" lon="4.53756">
        <ele>249.6</ele>
        <time>2020-07-06T08:04:36Z</time>
      </trkpt>
      <trkpt lat="46.53715" lon="4.53749">
        <ele>247.6</ele>
        <time>2020-07-06T08:04:42Z</time>
      </trkpt>
      <trkpt lat="46.5372" lon="4.53739">
        <ele>247.6</ele>
        <time>2020-07-06T08:04:47Z</time>
      </trkpt>
      <trkpt lat="46.53723" lon="4.5373">
        <ele>247.6</ele>
        <time>2020-07-06T08:04:52Z</time>
      </trkpt>
      <trkpt lat="46.53728" lon="4.5372">
        <ele>247.6</ele>
        <time>2020-07-06T08:04:57Z</time>
      </trkpt>
      <trkpt lat="46.53731" lon="4.5371">
        <ele>246.6</ele>
        <time>2020-07-06T08:05:02Z</time>
      </trkpt>
      <trkpt lat="46.53734" lon="4.537">
        <ele>247.6</ele>
        <time>2020-07-06T08:05:07Z</time>
      </trkpt>
      <trkpt lat="46.53742" lon="4.53692">
        <ele>251.6</ele>
        <time>2020-07-06T08:05:12Z</time>
      </trkpt>
      <trkpt lat="46.53748" lon="4.53685">
        <ele>252.601</ele>
        <time>2020-07-06T08:05:19Z</time>
      </trkpt>
      <trkpt lat="46.53754" lon="4.53679">
        <ele>252.601</ele>
        <time>2020-07-06T08:05:25Z</time>
      </trkpt>
      <trkpt lat="46.53759" lon="4.53671">
        <ele>246.601</ele>
        <time>2020-07-06T08:05:40Z</time>
      </trkpt>
      <trkpt lat="46.53766" lon="4.53667">
        <ele>250.601</ele>
        <time>2020-07-06T08:05:45Z</time>
      </trkpt>
      <trkpt lat="46.53771" lon="4.53661">
        <ele>248.601</ele>
        <time>2020-07-06T08:05:50Z</time>
      </trkpt>
      <trkpt lat="46.53776" lon="4.53653">
        <ele>244.601</ele>
        <time>2020-07-06T08:05:55Z</time>
      </trkpt>
      <trkpt lat="46.53781" lon="4.53642">
        <ele>241.601</ele>
        <time>2020-07-06T08:06:00Z</time>
      </trkpt>
      <trkpt lat="46.5379" lon="4.53631">
        <ele>239.601</ele>
        <time>2020-07-06T08:06:05Z</time>
      </trkpt>
      <trkpt lat="46.53796" lon="4.53624">
        <ele>241.601</ele>
        <time>2020-07-06T08:06:11Z</time>
      </trkpt>
      <trkpt lat="46.53797" lon="4.53615">
        <ele>245.601</ele>
        <time>2020-07-06T08:06:16Z</time>
      </trkpt>
      <trkpt lat="46.53799" lon="4.53605">
        <ele>246.601</ele>
        <time>2020-07-06T08:06:21Z</time>
      </trkpt>
      <trkpt lat="46.53801" lon="4.53593">
        <ele>244.601</ele>
        <time>2020-07-06T08:06:26Z</time>
      </trkpt>
      <trkpt lat="46.53804" lon="4.53581">
        <ele>237.601</ele>
        <time>2020-07-06T08:06:31Z</time>
      </trkpt>
      <trkpt lat="46.53809" lon="4.53573">
        <ele>235.601</ele>
        <time>2020-07-06T08:06:38Z</time>
      </trkpt>
      <trkpt lat="46.53817" lon="4.53573">
        <ele>235.601</ele>
        <time>2020-07-06T08:06:43Z</time>
      </trkpt>
      <trkpt lat="46.53824" lon="4.5357">
        <ele>233.601</ele>
        <time>2020-07-06T08:06:48Z</time>
      </trkpt>
      <trkpt lat="46.53831" lon="4.53564">
        <ele>234.601</ele>
        <time>2020-07-06T08:06:53Z</time>
      </trkpt>
      <trkpt lat="46.53837" lon="4.53566">
        <ele>235.601</ele>
        <time>2020-07-06T08:06:58Z</time>
      </trkpt>
      <trkpt lat="46.53844" lon="4.53569">
        <ele>235.601</ele>
        <time>2020-07-06T08:07:03Z</time>
      </trkpt>
      <trkpt lat="46.53851" lon="4.53569">
        <ele>237.601</ele>
        <time>2020-07-06T08:07:09Z</time>
      </trkpt>
      <trkpt lat="46.53861" lon="4.53564">
        <ele>236.601</ele>
        <time>2020-07-06T08:07:14Z</time>
      </trkpt>
      <trkpt lat="46.53868" lon="4.53564">
        <ele>235.601</ele>
        <time>2020-07-06T08:07:19Z</time>
      </trkpt>
      <trkpt lat="46.53874" lon="4.53558">
        <ele>235.601</ele>
        <time>2020-07-06T08:07:25Z</time>
      </trkpt>
      <trkpt lat="46.53879" lon="4.53553">
        <ele>236.601</ele>
        <time>2020-07-06T08:07:31Z</time>
      </trkpt>
      <trkpt lat="46.53883" lon="4.53545">
        <ele>231.601</ele>
        <time>2020-07-06T08:07:36Z</time>
      </trkpt>
      <trkpt lat="46.5389" lon="4.53542">
        <ele>233.601</ele>
        <time>2020-07-06T08:07:41Z</time>
      </trkpt>
      <trkpt lat="46.53898" lon="4.5354">
        <ele>236.601</ele>
        <time>2020-07-06T08:07:46Z</time>
      </trkpt>
      <trkpt lat="46.53905" lon="4.53534">
        <ele>230.601</ele>
        <time>2020-07-06T08:07:53Z</time>
      </trkpt>
      <trkpt lat="46.53911" lon="4.53528">
        <ele>230.601</ele>
        <time>2020-07-06T08:07:58Z</time>
      </trkpt>
      <trkpt lat="46.53919" lon="4.53522">
        <ele>231.601</ele>
        <time>2020-07-06T08:08:03Z</time>
      </trkpt>
      <trkpt lat="46.53927" lon="4.53521">
        <ele>233.601</ele>
        <time>2020-07-06T08:08:08Z</time>
      </trkpt>
      <trkpt lat="46.53934" lon="4.53518">
        <ele>232.601</ele>
        <time>2020-07-06T08:08:13Z</time>
      </trkpt>
      <trkpt lat="46.5394" lon="4.5351">
        <ele>231.601</ele>
        <time>2020-07-06T08:08:18Z</time>
      </trkpt>
      <trkpt lat="46.53945" lon="4.53502">
        <ele>233.601</ele>
        <time>2020-07-06T08:08:24Z</time>
      </trkpt>
      <trkpt lat="46.53948" lon="4.53493">
        <ele>233.601</ele>
        <time>2020-07-06T08:08:29Z</time>
      </trkpt>
      <trkpt lat="46.53952" lon="4.53484">
        <ele>238.601</ele>
        <time>2020-07-06T08:08:36Z</time>
      </trkpt>
      <trkpt lat="46.53956" lon="4.53477">
        <ele>238.601</ele>
        <time>2020-07-06T08:08:42Z</time>
      </trkpt>
      <trkpt lat="46.53958" lon="4.53465">
        <ele>239.601</ele>
        <time>2020-07-06T08:08:47Z</time>
      </trkpt>
      <trkpt lat="46.53962" lon="4.53456">
        <ele>240.601</ele>
        <time>2020-07-06T08:09:02Z</time>
      </trkpt>
      <trkpt lat="46.53965" lon="4.53447">
        <ele>238.601</ele>
        <time>2020-07-06T08:09:07Z</time>
      </trkpt>
      <trkpt lat="46.53964" lon="4.53436">
        <ele>242.601</ele>
        <time>2020-07-06T08:09:14Z</time>
      </trkpt>
      <trkpt lat="46.53957" lon="4.53433">
        <ele>244.601</ele>
        <time>2020-07-06T08:09:21Z</time>
      </trkpt>
      <trkpt lat="46.53951" lon="4.53428">
        <ele>242.601</ele>
        <time>2020-07-06T08:09:27Z</time>
      </trkpt>
      <trkpt lat="46.53942" lon="4.53421">
        <ele>243.601</ele>
        <time>2020-07-06T08:09:32Z</time>
      </trkpt>
      <trkpt lat="46.53935" lon="4.53416">
        <ele>243.601</ele>
        <time>2020-07-06T08:09:37Z</time>
      </trkpt>
      <trkpt lat="46.53933" lon="4.53415">
        <ele>243.601</ele>
        <time>2020-07-06T08:09:40Z</time>
      </trkpt>
      <trkpt lat="46.53925" lon="4.53409">
        <ele>243.601</ele>
        <time>2020-07-06T08:09:45Z</time>
      </trkpt>
      <trkpt lat="46.53919" lon="4.53409">
        <ele>240.601</ele>
        <time>2020-07-06T08:09:51Z</time>
      </trkpt>
      <trkpt lat="46.53912" lon="4.53406">
        <ele>240.601</ele>
        <time>2020-07-06T08:09:56Z</time>
      </trkpt>
      <trkpt lat="46.53903" lon="4.534">
        <ele>237.601</ele>
        <time>2020-07-06T08:10:01Z</time>
      </trkpt>
      <trkpt lat="46.53896" lon="4.53397">
        <ele>240.601</ele>
        <time>2020-07-06T08:10:06Z</time>
      </trkpt>
      <trkpt lat="46.53888" lon="4.53394">
        <ele>242.601</ele>
        <time>2020-07-06T08:10:11Z</time>
      </trkpt>
      <trkpt lat="46.53881" lon="4.53392">
        <ele>243.601</ele>
        <time>2020-07-06T08:10:19Z</time>
      </trkpt>
      <trkpt lat="46.53874" lon="4.53388">
        <ele>242.601</ele>
        <time>2020-07-06T08:10:24Z</time>
      </trkpt>
      <trkpt lat="46.53866" lon="4.53385">
        <ele>245.601</ele>
        <time>2020-07-06T08:10:29Z</time>
      </trkpt>
      <trkpt lat="46.53859" lon="4.5338">
        <ele>245.601</ele>
        <time>2020-07-06T08:10:34Z</time>
      </trkpt>
      <trkpt lat="46.53852" lon="4.53377">
        <ele>246.601</ele>
        <time>2020-07-06T08:10:39Z</time>
      </trkpt>
      <trkpt lat="46.53846" lon="4.5337">
        <ele>244.601</ele>
        <time>2020-07-06T08:10:44Z</time>
      </trkpt>
      <trkpt lat="46.5384" lon="4.53367">
        <ele>246.601</ele>
        <time>2020-07-06T08:11:18Z</time>
      </trkpt>
      <trkpt lat="46.53832" lon="4.53364">
        <ele>244.6</ele>
        <time>2020-07-06T08:11:23Z</time>
      </trkpt>
      <trkpt lat="46.53824" lon="4.5336">
        <ele>245.6</ele>
        <time>2020-07-06T08:11:28Z</time>
      </trkpt>
      <trkpt lat="46.53817" lon="4.53356">
        <ele>248.6</ele>
        <time>2020-07-06T08:11:36Z</time>
      </trkpt>
      <trkpt lat="46.53811" lon="4.5335">
        <ele>247.6</ele>
        <time>2020-07-06T08:11:41Z</time>
      </trkpt>
      <trkpt lat="46.53801" lon="4.53344">
        <ele>248.6</ele>
        <time>2020-07-06T08:11:46Z</time>
      </trkpt>
      <trkpt lat="46.53794" lon="4.53345">
        <ele>250.6</ele>
        <time>2020-07-06T08:12:03Z</time>
      </trkpt>
      <trkpt lat="46.53793" lon="4.53355">
        <ele>249.6</ele>
        <time>2020-07-06T08:12:08Z</time>
      </trkpt>
      <trkpt lat="46.53798" lon="4.53362">
        <ele>252.6</ele>
        <time>2020-07-06T08:12:14Z</time>
      </trkpt>
      <trkpt lat="46.53803" lon="4.53368">
        <ele>246.6</ele>
        <time>2020-07-06T08:13:05Z</time>
      </trkpt>
      <trkpt lat="46.53796" lon="4.53369">
        <ele>252.6</ele>
        <time>2020-07-06T08:13:38Z</time>
      </trkpt>
      <trkpt lat="46.53789" lon="4.53371">
        <ele>252.6</ele>
        <time>2020-07-06T08:13:47Z</time>
      </trkpt>
      <trkpt lat="46.53782" lon="4.53371">
        <ele>247.6</ele>
        <time>2020-07-06T08:13:57Z</time>
      </trkpt>
    </trkseg>
  </trk>
</gpx>